<?xml version="1.0" encoding="UTF-8" standalone="no" ?>
<gpx xmlns="http://www.topografix.com/GPX/1/1" xmlns:xsi="http://www.w3.org/2001/XMLSchema-instance" xsi:schemaLocation="http://www.topografix.com/GPX/1/1 http://www.topografix.com/GPX/1/1/gpx.xsd" version="1.1" creator="VisuGPX - https://www.visugpx.com">
  <metadata>
    <name>83-D-2014-9-02-Roquebrune s/Argens : Les Léonards - Vallon de Campon</name>
    <desc><![CDATA[Roquebrune s/Argens : Les Léonards - Vallon de Campon]]></desc>
  </metadata>
  <trk>
    <name><![CDATA[2014-02-09-le muy bon]]></name>
    <trkseg>
      <trkpt lat="43.42185" lon="6.56965">
        <ele>145.2</ele>
        <time>2014-02-09T09:11:50Z</time>
      </trkpt>
      <trkpt lat="43.42192" lon="6.56972">
        <ele>145.7</ele>
        <time>2014-02-09T09:13:08Z</time>
      </trkpt>
      <trkpt lat="43.42192" lon="6.56973">
        <ele>145.6</ele>
        <time>2014-02-09T09:13:09Z</time>
      </trkpt>
      <trkpt lat="43.42203" lon="6.56991">
        <ele>147</ele>
        <time>2014-02-09T09:13:33Z</time>
      </trkpt>
      <trkpt lat="43.42211" lon="6.56994">
        <ele>146.6</ele>
        <time>2014-02-09T09:13:43Z</time>
      </trkpt>
      <trkpt lat="43.42217" lon="6.57002">
        <ele>147.1</ele>
        <time>2014-02-09T09:13:52Z</time>
      </trkpt>
      <trkpt lat="43.42222" lon="6.57011">
        <ele>146.9</ele>
        <time>2014-02-09T09:13:58Z</time>
      </trkpt>
      <trkpt lat="43.42228" lon="6.57018">
        <ele>148.1</ele>
        <time>2014-02-09T09:14:07Z</time>
      </trkpt>
      <trkpt lat="43.42235" lon="6.57025">
        <ele>148</ele>
        <time>2014-02-09T09:14:15Z</time>
      </trkpt>
      <trkpt lat="43.42236" lon="6.57025">
        <ele>148</ele>
        <time>2014-02-09T09:14:16Z</time>
      </trkpt>
      <trkpt lat="43.42248" lon="6.57039">
        <ele>149.1</ele>
        <time>2014-02-09T09:14:29Z</time>
      </trkpt>
      <trkpt lat="43.42255" lon="6.57045">
        <ele>149.1</ele>
        <time>2014-02-09T09:14:36Z</time>
      </trkpt>
      <trkpt lat="43.42262" lon="6.57053">
        <ele>148.6</ele>
        <time>2014-02-09T09:14:44Z</time>
      </trkpt>
      <trkpt lat="43.42267" lon="6.57062">
        <ele>149.4</ele>
        <time>2014-02-09T09:14:53Z</time>
      </trkpt>
      <trkpt lat="43.42271" lon="6.57071">
        <ele>149.1</ele>
        <time>2014-02-09T09:15:01Z</time>
      </trkpt>
      <trkpt lat="43.42275" lon="6.57081">
        <ele>149.6</ele>
        <time>2014-02-09T09:15:08Z</time>
      </trkpt>
      <trkpt lat="43.4228" lon="6.5709">
        <ele>150.2</ele>
        <time>2014-02-09T09:15:14Z</time>
      </trkpt>
      <trkpt lat="43.42284" lon="6.57099">
        <ele>150</ele>
        <time>2014-02-09T09:15:21Z</time>
      </trkpt>
      <trkpt lat="43.42285" lon="6.571">
        <ele>150.4</ele>
        <time>2014-02-09T09:15:22Z</time>
      </trkpt>
      <trkpt lat="43.42297" lon="6.57115">
        <ele>150.6</ele>
        <time>2014-02-09T09:15:36Z</time>
      </trkpt>
      <trkpt lat="43.42303" lon="6.57123">
        <ele>150.9</ele>
        <time>2014-02-09T09:15:43Z</time>
      </trkpt>
      <trkpt lat="43.42308" lon="6.57132">
        <ele>150.4</ele>
        <time>2014-02-09T09:15:55Z</time>
      </trkpt>
      <trkpt lat="43.42313" lon="6.57142">
        <ele>150.9</ele>
        <time>2014-02-09T09:16:15Z</time>
      </trkpt>
      <trkpt lat="43.42318" lon="6.57152">
        <ele>151</ele>
        <time>2014-02-09T09:16:21Z</time>
      </trkpt>
      <trkpt lat="43.42323" lon="6.57162">
        <ele>150.7</ele>
        <time>2014-02-09T09:16:29Z</time>
      </trkpt>
      <trkpt lat="43.42323" lon="6.57163">
        <ele>150.6</ele>
        <time>2014-02-09T09:16:30Z</time>
      </trkpt>
      <trkpt lat="43.42332" lon="6.5718">
        <ele>151.4</ele>
        <time>2014-02-09T09:16:43Z</time>
      </trkpt>
      <trkpt lat="43.42336" lon="6.5719">
        <ele>152.1</ele>
        <time>2014-02-09T09:16:50Z</time>
      </trkpt>
      <trkpt lat="43.42341" lon="6.57199">
        <ele>152</ele>
        <time>2014-02-09T09:16:55Z</time>
      </trkpt>
      <trkpt lat="43.42344" lon="6.57209">
        <ele>152.5</ele>
        <time>2014-02-09T09:17:02Z</time>
      </trkpt>
      <trkpt lat="43.42347" lon="6.57219">
        <ele>153.1</ele>
        <time>2014-02-09T09:17:08Z</time>
      </trkpt>
      <trkpt lat="43.42349" lon="6.5723">
        <ele>153.1</ele>
        <time>2014-02-09T09:17:15Z</time>
      </trkpt>
      <trkpt lat="43.4235" lon="6.57242">
        <ele>153.5</ele>
        <time>2014-02-09T09:17:23Z</time>
      </trkpt>
      <trkpt lat="43.42349" lon="6.57254">
        <ele>153.8</ele>
        <time>2014-02-09T09:17:30Z</time>
      </trkpt>
      <trkpt lat="43.42348" lon="6.57256">
        <ele>154</ele>
        <time>2014-02-09T09:17:31Z</time>
      </trkpt>
      <trkpt lat="43.42343" lon="6.57276">
        <ele>153.7</ele>
        <time>2014-02-09T09:17:44Z</time>
      </trkpt>
      <trkpt lat="43.4234" lon="6.57286">
        <ele>154.6</ele>
        <time>2014-02-09T09:17:50Z</time>
      </trkpt>
      <trkpt lat="43.42338" lon="6.57297">
        <ele>155.1</ele>
        <time>2014-02-09T09:17:56Z</time>
      </trkpt>
      <trkpt lat="43.42337" lon="6.57309">
        <ele>155.2</ele>
        <time>2014-02-09T09:18:04Z</time>
      </trkpt>
      <trkpt lat="43.42335" lon="6.5732">
        <ele>155.1</ele>
        <time>2014-02-09T09:18:12Z</time>
      </trkpt>
      <trkpt lat="43.42333" lon="6.57331">
        <ele>156.4</ele>
        <time>2014-02-09T09:18:18Z</time>
      </trkpt>
      <trkpt lat="43.42331" lon="6.57341">
        <ele>156.6</ele>
        <time>2014-02-09T09:18:25Z</time>
      </trkpt>
      <trkpt lat="43.42328" lon="6.57353">
        <ele>156.6</ele>
        <time>2014-02-09T09:18:32Z</time>
      </trkpt>
      <trkpt lat="43.42328" lon="6.57354">
        <ele>156.8</ele>
        <time>2014-02-09T09:18:33Z</time>
      </trkpt>
      <trkpt lat="43.42327" lon="6.57376">
        <ele>157.6</ele>
        <time>2014-02-09T09:18:47Z</time>
      </trkpt>
      <trkpt lat="43.42328" lon="6.57387">
        <ele>158.6</ele>
        <time>2014-02-09T09:18:55Z</time>
      </trkpt>
      <trkpt lat="43.4233" lon="6.57398">
        <ele>159.4</ele>
        <time>2014-02-09T09:19:01Z</time>
      </trkpt>
      <trkpt lat="43.42332" lon="6.5741">
        <ele>159.9</ele>
        <time>2014-02-09T09:19:10Z</time>
      </trkpt>
      <trkpt lat="43.42334" lon="6.57422">
        <ele>161.2</ele>
        <time>2014-02-09T09:19:19Z</time>
      </trkpt>
      <trkpt lat="43.42335" lon="6.57433">
        <ele>162.5</ele>
        <time>2014-02-09T09:19:27Z</time>
      </trkpt>
      <trkpt lat="43.42334" lon="6.57445">
        <ele>163.5</ele>
        <time>2014-02-09T09:19:35Z</time>
      </trkpt>
      <trkpt lat="43.42334" lon="6.57446">
        <ele>163.6</ele>
        <time>2014-02-09T09:19:36Z</time>
      </trkpt>
      <trkpt lat="43.42331" lon="6.57468">
        <ele>165.2</ele>
        <time>2014-02-09T09:19:52Z</time>
      </trkpt>
      <trkpt lat="43.42331" lon="6.5748">
        <ele>166.2</ele>
        <time>2014-02-09T09:20:00Z</time>
      </trkpt>
      <trkpt lat="43.42333" lon="6.57491">
        <ele>167.2</ele>
        <time>2014-02-09T09:20:07Z</time>
      </trkpt>
      <trkpt lat="43.42338" lon="6.57501">
        <ele>168.4</ele>
        <time>2014-02-09T09:20:15Z</time>
      </trkpt>
      <trkpt lat="43.42342" lon="6.57511">
        <ele>170.2</ele>
        <time>2014-02-09T09:20:24Z</time>
      </trkpt>
      <trkpt lat="43.42346" lon="6.57521">
        <ele>170.9</ele>
        <time>2014-02-09T09:20:32Z</time>
      </trkpt>
      <trkpt lat="43.42353" lon="6.57529">
        <ele>172.8</ele>
        <time>2014-02-09T09:20:42Z</time>
      </trkpt>
      <trkpt lat="43.42354" lon="6.57529">
        <ele>172.9</ele>
        <time>2014-02-09T09:20:43Z</time>
      </trkpt>
      <trkpt lat="43.42368" lon="6.5754">
        <ele>174</ele>
        <time>2014-02-09T09:20:55Z</time>
      </trkpt>
      <trkpt lat="43.42371" lon="6.57551">
        <ele>173.6</ele>
        <time>2014-02-09T09:21:02Z</time>
      </trkpt>
      <trkpt lat="43.42371" lon="6.57562">
        <ele>174</ele>
        <time>2014-02-09T09:21:09Z</time>
      </trkpt>
      <trkpt lat="43.4237" lon="6.57573">
        <ele>174.5</ele>
        <time>2014-02-09T09:21:16Z</time>
      </trkpt>
      <trkpt lat="43.42368" lon="6.57585">
        <ele>174.7</ele>
        <time>2014-02-09T09:21:22Z</time>
      </trkpt>
      <trkpt lat="43.42368" lon="6.57596">
        <ele>175.4</ele>
        <time>2014-02-09T09:21:29Z</time>
      </trkpt>
      <trkpt lat="43.42367" lon="6.57608">
        <ele>175.9</ele>
        <time>2014-02-09T09:21:36Z</time>
      </trkpt>
      <trkpt lat="43.42365" lon="6.5762">
        <ele>176.6</ele>
        <time>2014-02-09T09:21:42Z</time>
      </trkpt>
      <trkpt lat="43.42364" lon="6.57632">
        <ele>177.1</ele>
        <time>2014-02-09T09:21:49Z</time>
      </trkpt>
      <trkpt lat="43.42364" lon="6.57633">
        <ele>177</ele>
        <time>2014-02-09T09:21:50Z</time>
      </trkpt>
      <trkpt lat="43.42371" lon="6.57652">
        <ele>178.2</ele>
        <time>2014-02-09T09:22:03Z</time>
      </trkpt>
      <trkpt lat="43.42376" lon="6.57662">
        <ele>178.7</ele>
        <time>2014-02-09T09:22:10Z</time>
      </trkpt>
      <trkpt lat="43.4238" lon="6.57672">
        <ele>179.4</ele>
        <time>2014-02-09T09:22:17Z</time>
      </trkpt>
      <trkpt lat="43.42382" lon="6.57684">
        <ele>180.1</ele>
        <time>2014-02-09T09:22:25Z</time>
      </trkpt>
      <trkpt lat="43.42385" lon="6.57694">
        <ele>181.2</ele>
        <time>2014-02-09T09:22:33Z</time>
      </trkpt>
      <trkpt lat="43.42388" lon="6.57704">
        <ele>182</ele>
        <time>2014-02-09T09:22:41Z</time>
      </trkpt>
      <trkpt lat="43.42393" lon="6.57714">
        <ele>182.1</ele>
        <time>2014-02-09T09:22:48Z</time>
      </trkpt>
      <trkpt lat="43.42398" lon="6.57723">
        <ele>182.5</ele>
        <time>2014-02-09T09:22:55Z</time>
      </trkpt>
      <trkpt lat="43.42399" lon="6.57724">
        <ele>182.3</ele>
        <time>2014-02-09T09:22:56Z</time>
      </trkpt>
      <trkpt lat="43.42399" lon="6.57747">
        <ele>183.6</ele>
        <time>2014-02-09T09:23:16Z</time>
      </trkpt>
      <trkpt lat="43.42397" lon="6.57758">
        <ele>183.3</ele>
        <time>2014-02-09T09:23:25Z</time>
      </trkpt>
      <trkpt lat="43.42394" lon="6.57769">
        <ele>183.8</ele>
        <time>2014-02-09T09:23:37Z</time>
      </trkpt>
      <trkpt lat="43.42391" lon="6.57781">
        <ele>185.7</ele>
        <time>2014-02-09T09:23:46Z</time>
      </trkpt>
      <trkpt lat="43.42385" lon="6.5779">
        <ele>187.5</ele>
        <time>2014-02-09T09:24:00Z</time>
      </trkpt>
      <trkpt lat="43.42385" lon="6.57792">
        <ele>187.6</ele>
        <time>2014-02-09T09:24:01Z</time>
      </trkpt>
      <trkpt lat="43.42378" lon="6.57811">
        <ele>191.1</ele>
        <time>2014-02-09T09:24:20Z</time>
      </trkpt>
      <trkpt lat="43.42373" lon="6.5782">
        <ele>192.2</ele>
        <time>2014-02-09T09:24:29Z</time>
      </trkpt>
      <trkpt lat="43.4237" lon="6.57831">
        <ele>192.6</ele>
        <time>2014-02-09T09:24:37Z</time>
      </trkpt>
      <trkpt lat="43.42368" lon="6.57843">
        <ele>193.9</ele>
        <time>2014-02-09T09:24:47Z</time>
      </trkpt>
      <trkpt lat="43.42366" lon="6.57854">
        <ele>194.5</ele>
        <time>2014-02-09T09:24:54Z</time>
      </trkpt>
      <trkpt lat="43.42366" lon="6.57867">
        <ele>195.5</ele>
        <time>2014-02-09T09:25:02Z</time>
      </trkpt>
      <trkpt lat="43.42366" lon="6.57869">
        <ele>195.8</ele>
        <time>2014-02-09T09:25:03Z</time>
      </trkpt>
      <trkpt lat="43.42371" lon="6.5789">
        <ele>198.7</ele>
        <time>2014-02-09T09:25:18Z</time>
      </trkpt>
      <trkpt lat="43.42373" lon="6.57901">
        <ele>199.4</ele>
        <time>2014-02-09T09:25:26Z</time>
      </trkpt>
      <trkpt lat="43.42377" lon="6.5791">
        <ele>200.7</ele>
        <time>2014-02-09T09:25:34Z</time>
      </trkpt>
      <trkpt lat="43.42381" lon="6.57921">
        <ele>201.4</ele>
        <time>2014-02-09T09:25:43Z</time>
      </trkpt>
      <trkpt lat="43.4238" lon="6.57932">
        <ele>202.5</ele>
        <time>2014-02-09T09:25:51Z</time>
      </trkpt>
      <trkpt lat="43.42376" lon="6.57943">
        <ele>203.4</ele>
        <time>2014-02-09T09:26:02Z</time>
      </trkpt>
      <trkpt lat="43.4237" lon="6.5795">
        <ele>204.2</ele>
        <time>2014-02-09T09:26:13Z</time>
      </trkpt>
      <trkpt lat="43.42368" lon="6.5795">
        <ele>204.2</ele>
        <time>2014-02-09T09:26:14Z</time>
      </trkpt>
      <trkpt lat="43.42354" lon="6.57957">
        <ele>205.8</ele>
        <time>2014-02-09T09:26:30Z</time>
      </trkpt>
      <trkpt lat="43.4235" lon="6.57967">
        <ele>207.2</ele>
        <time>2014-02-09T09:26:37Z</time>
      </trkpt>
      <trkpt lat="43.42348" lon="6.57979">
        <ele>207.4</ele>
        <time>2014-02-09T09:26:44Z</time>
      </trkpt>
      <trkpt lat="43.42347" lon="6.5799">
        <ele>207.8</ele>
        <time>2014-02-09T09:26:51Z</time>
      </trkpt>
      <trkpt lat="43.42343" lon="6.58">
        <ele>207.9</ele>
        <time>2014-02-09T09:26:59Z</time>
      </trkpt>
      <trkpt lat="43.42339" lon="6.5801">
        <ele>208.5</ele>
        <time>2014-02-09T09:27:06Z</time>
      </trkpt>
      <trkpt lat="43.42337" lon="6.5802">
        <ele>209.1</ele>
        <time>2014-02-09T09:27:12Z</time>
      </trkpt>
      <trkpt lat="43.42334" lon="6.5803">
        <ele>209.9</ele>
        <time>2014-02-09T09:27:19Z</time>
      </trkpt>
      <trkpt lat="43.42334" lon="6.58032">
        <ele>210.3</ele>
        <time>2014-02-09T09:27:20Z</time>
      </trkpt>
      <trkpt lat="43.4233" lon="6.58054">
        <ele>211.2</ele>
        <time>2014-02-09T09:27:32Z</time>
      </trkpt>
      <trkpt lat="43.42331" lon="6.58065">
        <ele>211.8</ele>
        <time>2014-02-09T09:27:39Z</time>
      </trkpt>
      <trkpt lat="43.42332" lon="6.58076">
        <ele>212.5</ele>
        <time>2014-02-09T09:27:46Z</time>
      </trkpt>
      <trkpt lat="43.42336" lon="6.58085">
        <ele>213.9</ele>
        <time>2014-02-09T09:27:53Z</time>
      </trkpt>
      <trkpt lat="43.42341" lon="6.58095">
        <ele>214.8</ele>
        <time>2014-02-09T09:28:04Z</time>
      </trkpt>
      <trkpt lat="43.42347" lon="6.58103">
        <ele>215.2</ele>
        <time>2014-02-09T09:28:19Z</time>
      </trkpt>
      <trkpt lat="43.42348" lon="6.58115">
        <ele>216</ele>
        <time>2014-02-09T09:31:59Z</time>
      </trkpt>
      <trkpt lat="43.42347" lon="6.58116">
        <ele>215.9</ele>
        <time>2014-02-09T09:32:00Z</time>
      </trkpt>
      <trkpt lat="43.42345" lon="6.58139">
        <ele>217.7</ele>
        <time>2014-02-09T09:32:18Z</time>
      </trkpt>
      <trkpt lat="43.4234" lon="6.58149">
        <ele>219.4</ele>
        <time>2014-02-09T09:32:27Z</time>
      </trkpt>
      <trkpt lat="43.42336" lon="6.58159">
        <ele>221.2</ele>
        <time>2014-02-09T09:32:37Z</time>
      </trkpt>
      <trkpt lat="43.42333" lon="6.58171">
        <ele>222.1</ele>
        <time>2014-02-09T09:32:47Z</time>
      </trkpt>
      <trkpt lat="43.42329" lon="6.58182">
        <ele>222.6</ele>
        <time>2014-02-09T09:32:56Z</time>
      </trkpt>
      <trkpt lat="43.42325" lon="6.58191">
        <ele>223.1</ele>
        <time>2014-02-09T09:33:03Z</time>
      </trkpt>
      <trkpt lat="43.42325" lon="6.58193">
        <ele>223.2</ele>
        <time>2014-02-09T09:33:04Z</time>
      </trkpt>
      <trkpt lat="43.42321" lon="6.58214">
        <ele>223.3</ele>
        <time>2014-02-09T09:33:19Z</time>
      </trkpt>
      <trkpt lat="43.4232" lon="6.58225">
        <ele>224.5</ele>
        <time>2014-02-09T09:33:26Z</time>
      </trkpt>
      <trkpt lat="43.4232" lon="6.58237">
        <ele>225</ele>
        <time>2014-02-09T09:33:33Z</time>
      </trkpt>
      <trkpt lat="43.42319" lon="6.58249">
        <ele>226.2</ele>
        <time>2014-02-09T09:33:41Z</time>
      </trkpt>
      <trkpt lat="43.42316" lon="6.5826">
        <ele>227.2</ele>
        <time>2014-02-09T09:33:50Z</time>
      </trkpt>
      <trkpt lat="43.42313" lon="6.5827">
        <ele>228.6</ele>
        <time>2014-02-09T09:33:59Z</time>
      </trkpt>
      <trkpt lat="43.4231" lon="6.58282">
        <ele>229.3</ele>
        <time>2014-02-09T09:34:08Z</time>
      </trkpt>
      <trkpt lat="43.4231" lon="6.58283">
        <ele>229.2</ele>
        <time>2014-02-09T09:34:09Z</time>
      </trkpt>
      <trkpt lat="43.42305" lon="6.58303">
        <ele>229.3</ele>
        <time>2014-02-09T09:34:23Z</time>
      </trkpt>
      <trkpt lat="43.42304" lon="6.58314">
        <ele>228.9</ele>
        <time>2014-02-09T09:34:30Z</time>
      </trkpt>
      <trkpt lat="43.42301" lon="6.58325">
        <ele>229.2</ele>
        <time>2014-02-09T09:34:37Z</time>
      </trkpt>
      <trkpt lat="43.42299" lon="6.58336">
        <ele>229.6</ele>
        <time>2014-02-09T09:34:46Z</time>
      </trkpt>
      <trkpt lat="43.42296" lon="6.58347">
        <ele>230.7</ele>
        <time>2014-02-09T09:34:53Z</time>
      </trkpt>
      <trkpt lat="43.42295" lon="6.58357">
        <ele>230.7</ele>
        <time>2014-02-09T09:35:00Z</time>
      </trkpt>
      <trkpt lat="43.42292" lon="6.58368">
        <ele>231</ele>
        <time>2014-02-09T09:35:06Z</time>
      </trkpt>
      <trkpt lat="43.4229" lon="6.58379">
        <ele>231.7</ele>
        <time>2014-02-09T09:35:14Z</time>
      </trkpt>
      <trkpt lat="43.4229" lon="6.58381">
        <ele>231.7</ele>
        <time>2014-02-09T09:35:15Z</time>
      </trkpt>
      <trkpt lat="43.42289" lon="6.58403">
        <ele>232.9</ele>
        <time>2014-02-09T09:35:29Z</time>
      </trkpt>
      <trkpt lat="43.42287" lon="6.58414">
        <ele>234.1</ele>
        <time>2014-02-09T09:35:37Z</time>
      </trkpt>
      <trkpt lat="43.42285" lon="6.58425">
        <ele>235.4</ele>
        <time>2014-02-09T09:35:46Z</time>
      </trkpt>
      <trkpt lat="43.42284" lon="6.58437">
        <ele>236</ele>
        <time>2014-02-09T09:35:54Z</time>
      </trkpt>
      <trkpt lat="43.42284" lon="6.58449">
        <ele>237</ele>
        <time>2014-02-09T09:36:03Z</time>
      </trkpt>
      <trkpt lat="43.42283" lon="6.5846">
        <ele>238.7</ele>
        <time>2014-02-09T09:36:12Z</time>
      </trkpt>
      <trkpt lat="43.42282" lon="6.58471">
        <ele>239.4</ele>
        <time>2014-02-09T09:36:20Z</time>
      </trkpt>
      <trkpt lat="43.42282" lon="6.58473">
        <ele>239.4</ele>
        <time>2014-02-09T09:36:21Z</time>
      </trkpt>
      <trkpt lat="43.42273" lon="6.5849">
        <ele>241.6</ele>
        <time>2014-02-09T09:36:38Z</time>
      </trkpt>
      <trkpt lat="43.42266" lon="6.58498">
        <ele>243.5</ele>
        <time>2014-02-09T09:36:47Z</time>
      </trkpt>
      <trkpt lat="43.42259" lon="6.58504">
        <ele>244.7</ele>
        <time>2014-02-09T09:36:58Z</time>
      </trkpt>
      <trkpt lat="43.42254" lon="6.58514">
        <ele>246.2</ele>
        <time>2014-02-09T09:37:07Z</time>
      </trkpt>
      <trkpt lat="43.42251" lon="6.58525">
        <ele>246.5</ele>
        <time>2014-02-09T09:37:16Z</time>
      </trkpt>
      <trkpt lat="43.42251" lon="6.58536">
        <ele>246.6</ele>
        <time>2014-02-09T09:37:24Z</time>
      </trkpt>
      <trkpt lat="43.42251" lon="6.58538">
        <ele>246.6</ele>
        <time>2014-02-09T09:37:25Z</time>
      </trkpt>
      <trkpt lat="43.42257" lon="6.58558">
        <ele>247.4</ele>
        <time>2014-02-09T09:37:38Z</time>
      </trkpt>
      <trkpt lat="43.42262" lon="6.58568">
        <ele>247.6</ele>
        <time>2014-02-09T09:37:45Z</time>
      </trkpt>
      <trkpt lat="43.42268" lon="6.58575">
        <ele>247.7</ele>
        <time>2014-02-09T09:37:51Z</time>
      </trkpt>
      <trkpt lat="43.42275" lon="6.58581">
        <ele>247.4</ele>
        <time>2014-02-09T09:37:58Z</time>
      </trkpt>
      <trkpt lat="43.42283" lon="6.58588">
        <ele>246.5</ele>
        <time>2014-02-09T09:38:07Z</time>
      </trkpt>
      <trkpt lat="43.42289" lon="6.58596">
        <ele>246.1</ele>
        <time>2014-02-09T09:38:15Z</time>
      </trkpt>
      <trkpt lat="43.42291" lon="6.58608">
        <ele>245.2</ele>
        <time>2014-02-09T09:39:02Z</time>
      </trkpt>
      <trkpt lat="43.42291" lon="6.58608">
        <ele>245</ele>
        <time>2014-02-09T09:39:03Z</time>
      </trkpt>
      <trkpt lat="43.42298" lon="6.58615">
        <ele>243.5</ele>
        <time>2014-02-09T09:40:08Z</time>
      </trkpt>
      <trkpt lat="43.42302" lon="6.58635">
        <ele>242.2</ele>
        <time>2014-02-09T09:40:24Z</time>
      </trkpt>
      <trkpt lat="43.42303" lon="6.58646">
        <ele>240.8</ele>
        <time>2014-02-09T09:40:31Z</time>
      </trkpt>
      <trkpt lat="43.42305" lon="6.58657">
        <ele>240.5</ele>
        <time>2014-02-09T09:40:37Z</time>
      </trkpt>
      <trkpt lat="43.42307" lon="6.58668">
        <ele>239.7</ele>
        <time>2014-02-09T09:40:44Z</time>
      </trkpt>
      <trkpt lat="43.4231" lon="6.58679">
        <ele>238.3</ele>
        <time>2014-02-09T09:40:52Z</time>
      </trkpt>
      <trkpt lat="43.42314" lon="6.58689">
        <ele>236.9</ele>
        <time>2014-02-09T09:41:00Z</time>
      </trkpt>
      <trkpt lat="43.42321" lon="6.58696">
        <ele>236.1</ele>
        <time>2014-02-09T09:41:32Z</time>
      </trkpt>
      <trkpt lat="43.42321" lon="6.58697">
        <ele>236.2</ele>
        <time>2014-02-09T09:41:33Z</time>
      </trkpt>
      <trkpt lat="43.42324" lon="6.5872">
        <ele>234.5</ele>
        <time>2014-02-09T09:41:49Z</time>
      </trkpt>
      <trkpt lat="43.42323" lon="6.58732">
        <ele>234.3</ele>
        <time>2014-02-09T09:41:56Z</time>
      </trkpt>
      <trkpt lat="43.42324" lon="6.58742">
        <ele>233.9</ele>
        <time>2014-02-09T09:42:03Z</time>
      </trkpt>
      <trkpt lat="43.42326" lon="6.58754">
        <ele>233.8</ele>
        <time>2014-02-09T09:42:09Z</time>
      </trkpt>
      <trkpt lat="43.42327" lon="6.58765">
        <ele>233.8</ele>
        <time>2014-02-09T09:42:14Z</time>
      </trkpt>
      <trkpt lat="43.42328" lon="6.58777">
        <ele>233.6</ele>
        <time>2014-02-09T09:42:20Z</time>
      </trkpt>
      <trkpt lat="43.42329" lon="6.58788">
        <ele>233.1</ele>
        <time>2014-02-09T09:42:26Z</time>
      </trkpt>
      <trkpt lat="43.42329" lon="6.588">
        <ele>232.5</ele>
        <time>2014-02-09T09:42:35Z</time>
      </trkpt>
      <trkpt lat="43.42329" lon="6.58802">
        <ele>232.5</ele>
        <time>2014-02-09T09:42:36Z</time>
      </trkpt>
      <trkpt lat="43.4233" lon="6.58823">
        <ele>231.2</ele>
        <time>2014-02-09T09:42:48Z</time>
      </trkpt>
      <trkpt lat="43.42328" lon="6.58835">
        <ele>229.5</ele>
        <time>2014-02-09T09:42:55Z</time>
      </trkpt>
      <trkpt lat="43.42328" lon="6.58846">
        <ele>228.5</ele>
        <time>2014-02-09T09:43:02Z</time>
      </trkpt>
      <trkpt lat="43.42328" lon="6.58858">
        <ele>228.2</ele>
        <time>2014-02-09T09:43:08Z</time>
      </trkpt>
      <trkpt lat="43.42328" lon="6.58871">
        <ele>227.6</ele>
        <time>2014-02-09T09:43:16Z</time>
      </trkpt>
      <trkpt lat="43.42329" lon="6.58881">
        <ele>226.9</ele>
        <time>2014-02-09T09:43:21Z</time>
      </trkpt>
      <trkpt lat="43.42331" lon="6.58892">
        <ele>225.8</ele>
        <time>2014-02-09T09:43:28Z</time>
      </trkpt>
      <trkpt lat="43.42334" lon="6.58903">
        <ele>225.8</ele>
        <time>2014-02-09T09:43:33Z</time>
      </trkpt>
      <trkpt lat="43.42336" lon="6.58914">
        <ele>225.2</ele>
        <time>2014-02-09T09:43:39Z</time>
      </trkpt>
      <trkpt lat="43.42336" lon="6.58916">
        <ele>225.4</ele>
        <time>2014-02-09T09:43:40Z</time>
      </trkpt>
      <trkpt lat="43.42336" lon="6.58936">
        <ele>224.2</ele>
        <time>2014-02-09T09:43:52Z</time>
      </trkpt>
      <trkpt lat="43.42336" lon="6.58948">
        <ele>223.7</ele>
        <time>2014-02-09T09:43:58Z</time>
      </trkpt>
      <trkpt lat="43.42332" lon="6.58959">
        <ele>222.1</ele>
        <time>2014-02-09T09:44:07Z</time>
      </trkpt>
      <trkpt lat="43.42323" lon="6.58958">
        <ele>221.6</ele>
        <time>2014-02-09T09:44:14Z</time>
      </trkpt>
      <trkpt lat="43.42317" lon="6.58952">
        <ele>220.6</ele>
        <time>2014-02-09T09:44:20Z</time>
      </trkpt>
      <trkpt lat="43.4231" lon="6.58944">
        <ele>219.9</ele>
        <time>2014-02-09T09:44:26Z</time>
      </trkpt>
      <trkpt lat="43.42303" lon="6.58937">
        <ele>218</ele>
        <time>2014-02-09T09:44:34Z</time>
      </trkpt>
      <trkpt lat="43.42296" lon="6.58933">
        <ele>217.3</ele>
        <time>2014-02-09T09:44:40Z</time>
      </trkpt>
      <trkpt lat="43.42295" lon="6.58932">
        <ele>217</ele>
        <time>2014-02-09T09:44:41Z</time>
      </trkpt>
      <trkpt lat="43.42282" lon="6.5894">
        <ele>215.9</ele>
        <time>2014-02-09T09:44:53Z</time>
      </trkpt>
      <trkpt lat="43.42279" lon="6.5895">
        <ele>215.5</ele>
        <time>2014-02-09T09:44:59Z</time>
      </trkpt>
      <trkpt lat="43.42277" lon="6.58959">
        <ele>214.9</ele>
        <time>2014-02-09T09:45:04Z</time>
      </trkpt>
      <trkpt lat="43.42275" lon="6.58971">
        <ele>214.6</ele>
        <time>2014-02-09T09:45:11Z</time>
      </trkpt>
      <trkpt lat="43.42273" lon="6.58981">
        <ele>214.2</ele>
        <time>2014-02-09T09:45:17Z</time>
      </trkpt>
      <trkpt lat="43.42271" lon="6.58993">
        <ele>213.8</ele>
        <time>2014-02-09T09:45:24Z</time>
      </trkpt>
      <trkpt lat="43.42271" lon="6.59004">
        <ele>213.6</ele>
        <time>2014-02-09T09:45:31Z</time>
      </trkpt>
      <trkpt lat="43.4227" lon="6.59016">
        <ele>213.4</ele>
        <time>2014-02-09T09:45:37Z</time>
      </trkpt>
      <trkpt lat="43.42266" lon="6.59025">
        <ele>213.1</ele>
        <time>2014-02-09T09:45:43Z</time>
      </trkpt>
      <trkpt lat="43.42265" lon="6.59027">
        <ele>212.9</ele>
        <time>2014-02-09T09:45:44Z</time>
      </trkpt>
      <trkpt lat="43.42253" lon="6.59038">
        <ele>212.3</ele>
        <time>2014-02-09T09:46:00Z</time>
      </trkpt>
      <trkpt lat="43.42246" lon="6.59042">
        <ele>211.2</ele>
        <time>2014-02-09T09:46:07Z</time>
      </trkpt>
      <trkpt lat="43.42237" lon="6.59043">
        <ele>210.4</ele>
        <time>2014-02-09T09:46:15Z</time>
      </trkpt>
      <trkpt lat="43.42229" lon="6.59044">
        <ele>209.9</ele>
        <time>2014-02-09T09:46:22Z</time>
      </trkpt>
      <trkpt lat="43.42222" lon="6.59043">
        <ele>209</ele>
        <time>2014-02-09T09:46:28Z</time>
      </trkpt>
      <trkpt lat="43.42214" lon="6.59042">
        <ele>208</ele>
        <time>2014-02-09T09:46:34Z</time>
      </trkpt>
      <trkpt lat="43.42205" lon="6.59043">
        <ele>207.8</ele>
        <time>2014-02-09T09:46:40Z</time>
      </trkpt>
      <trkpt lat="43.42196" lon="6.59045">
        <ele>207.9</ele>
        <time>2014-02-09T09:46:47Z</time>
      </trkpt>
      <trkpt lat="43.42195" lon="6.59045">
        <ele>207.8</ele>
        <time>2014-02-09T09:46:48Z</time>
      </trkpt>
      <trkpt lat="43.42182" lon="6.59058">
        <ele>208.3</ele>
        <time>2014-02-09T09:47:03Z</time>
      </trkpt>
      <trkpt lat="43.42175" lon="6.59065">
        <ele>207.7</ele>
        <time>2014-02-09T09:47:10Z</time>
      </trkpt>
      <trkpt lat="43.42169" lon="6.59073">
        <ele>208.1</ele>
        <time>2014-02-09T09:47:17Z</time>
      </trkpt>
      <trkpt lat="43.42161" lon="6.59079">
        <ele>207.9</ele>
        <time>2014-02-09T09:47:24Z</time>
      </trkpt>
      <trkpt lat="43.42154" lon="6.59084">
        <ele>208.3</ele>
        <time>2014-02-09T09:47:31Z</time>
      </trkpt>
      <trkpt lat="43.42148" lon="6.59093">
        <ele>207.8</ele>
        <time>2014-02-09T09:47:38Z</time>
      </trkpt>
      <trkpt lat="43.42142" lon="6.591">
        <ele>208</ele>
        <time>2014-02-09T09:47:44Z</time>
      </trkpt>
      <trkpt lat="43.42137" lon="6.59108">
        <ele>207.3</ele>
        <time>2014-02-09T09:47:51Z</time>
      </trkpt>
      <trkpt lat="43.42136" lon="6.59109">
        <ele>207.2</ele>
        <time>2014-02-09T09:47:52Z</time>
      </trkpt>
      <trkpt lat="43.42124" lon="6.59124">
        <ele>206.8</ele>
        <time>2014-02-09T09:48:04Z</time>
      </trkpt>
      <trkpt lat="43.42117" lon="6.59131">
        <ele>206.1</ele>
        <time>2014-02-09T09:48:12Z</time>
      </trkpt>
      <trkpt lat="43.4211" lon="6.59138">
        <ele>205.2</ele>
        <time>2014-02-09T09:48:20Z</time>
      </trkpt>
      <trkpt lat="43.42104" lon="6.59145">
        <ele>203.6</ele>
        <time>2014-02-09T09:48:28Z</time>
      </trkpt>
      <trkpt lat="43.42098" lon="6.59154">
        <ele>202.5</ele>
        <time>2014-02-09T09:48:34Z</time>
      </trkpt>
      <trkpt lat="43.42095" lon="6.59164">
        <ele>200.5</ele>
        <time>2014-02-09T09:48:42Z</time>
      </trkpt>
      <trkpt lat="43.4209" lon="6.59174">
        <ele>199.8</ele>
        <time>2014-02-09T09:48:50Z</time>
      </trkpt>
      <trkpt lat="43.42086" lon="6.59185">
        <ele>199.1</ele>
        <time>2014-02-09T09:48:57Z</time>
      </trkpt>
      <trkpt lat="43.42085" lon="6.59186">
        <ele>198.6</ele>
        <time>2014-02-09T09:48:58Z</time>
      </trkpt>
      <trkpt lat="43.42079" lon="6.59204">
        <ele>196.4</ele>
        <time>2014-02-09T09:49:12Z</time>
      </trkpt>
      <trkpt lat="43.42076" lon="6.59214">
        <ele>195.5</ele>
        <time>2014-02-09T09:49:20Z</time>
      </trkpt>
      <trkpt lat="43.42071" lon="6.59223">
        <ele>195</ele>
        <time>2014-02-09T09:49:26Z</time>
      </trkpt>
      <trkpt lat="43.42064" lon="6.59231">
        <ele>194.3</ele>
        <time>2014-02-09T09:49:34Z</time>
      </trkpt>
      <trkpt lat="43.42057" lon="6.59237">
        <ele>193.9</ele>
        <time>2014-02-09T09:49:42Z</time>
      </trkpt>
      <trkpt lat="43.42048" lon="6.5924">
        <ele>195.6</ele>
        <time>2014-02-09T09:49:51Z</time>
      </trkpt>
      <trkpt lat="43.42041" lon="6.5924">
        <ele>196.4</ele>
        <time>2014-02-09T09:50:00Z</time>
      </trkpt>
      <trkpt lat="43.42039" lon="6.5924">
        <ele>197.1</ele>
        <time>2014-02-09T09:50:01Z</time>
      </trkpt>
      <trkpt lat="43.42024" lon="6.5924">
        <ele>198.1</ele>
        <time>2014-02-09T09:50:14Z</time>
      </trkpt>
      <trkpt lat="43.42016" lon="6.59241">
        <ele>199.1</ele>
        <time>2014-02-09T09:50:23Z</time>
      </trkpt>
      <trkpt lat="43.42008" lon="6.59245">
        <ele>199.8</ele>
        <time>2014-02-09T09:50:31Z</time>
      </trkpt>
      <trkpt lat="43.41999" lon="6.59249">
        <ele>199.3</ele>
        <time>2014-02-09T09:50:40Z</time>
      </trkpt>
      <trkpt lat="43.41991" lon="6.59251">
        <ele>200</ele>
        <time>2014-02-09T09:51:00Z</time>
      </trkpt>
      <trkpt lat="43.41982" lon="6.59251">
        <ele>201.4</ele>
        <time>2014-02-09T09:51:13Z</time>
      </trkpt>
      <trkpt lat="43.41981" lon="6.59252">
        <ele>201.3</ele>
        <time>2014-02-09T09:51:14Z</time>
      </trkpt>
      <trkpt lat="43.41971" lon="6.59269">
        <ele>202.5</ele>
        <time>2014-02-09T09:51:35Z</time>
      </trkpt>
      <trkpt lat="43.41969" lon="6.59281">
        <ele>202.8</ele>
        <time>2014-02-09T09:51:43Z</time>
      </trkpt>
      <trkpt lat="43.41973" lon="6.59292">
        <ele>203.4</ele>
        <time>2014-02-09T09:51:50Z</time>
      </trkpt>
      <trkpt lat="43.41976" lon="6.59302">
        <ele>204.7</ele>
        <time>2014-02-09T09:51:56Z</time>
      </trkpt>
      <trkpt lat="43.41979" lon="6.59313">
        <ele>204.7</ele>
        <time>2014-02-09T09:52:01Z</time>
      </trkpt>
      <trkpt lat="43.41983" lon="6.59323">
        <ele>204.5</ele>
        <time>2014-02-09T09:52:07Z</time>
      </trkpt>
      <trkpt lat="43.41987" lon="6.59334">
        <ele>205.5</ele>
        <time>2014-02-09T09:52:15Z</time>
      </trkpt>
      <trkpt lat="43.41987" lon="6.59336">
        <ele>205.5</ele>
        <time>2014-02-09T09:52:16Z</time>
      </trkpt>
      <trkpt lat="43.41991" lon="6.59356">
        <ele>207.1</ele>
        <time>2014-02-09T09:52:30Z</time>
      </trkpt>
      <trkpt lat="43.41994" lon="6.59366">
        <ele>207.5</ele>
        <time>2014-02-09T09:52:36Z</time>
      </trkpt>
      <trkpt lat="43.41995" lon="6.59378">
        <ele>209</ele>
        <time>2014-02-09T09:52:44Z</time>
      </trkpt>
      <trkpt lat="43.41995" lon="6.5939">
        <ele>210.3</ele>
        <time>2014-02-09T09:52:51Z</time>
      </trkpt>
      <trkpt lat="43.41995" lon="6.59402">
        <ele>209.4</ele>
        <time>2014-02-09T09:53:04Z</time>
      </trkpt>
      <trkpt lat="43.41994" lon="6.59414">
        <ele>210.1</ele>
        <time>2014-02-09T09:53:16Z</time>
      </trkpt>
      <trkpt lat="43.41994" lon="6.59415">
        <ele>210.4</ele>
        <time>2014-02-09T09:53:17Z</time>
      </trkpt>
      <trkpt lat="43.41983" lon="6.5943">
        <ele>210.1</ele>
        <time>2014-02-09T09:53:30Z</time>
      </trkpt>
      <trkpt lat="43.41976" lon="6.59436">
        <ele>209.5</ele>
        <time>2014-02-09T09:53:37Z</time>
      </trkpt>
      <trkpt lat="43.41967" lon="6.59439">
        <ele>209.2</ele>
        <time>2014-02-09T09:53:43Z</time>
      </trkpt>
      <trkpt lat="43.41959" lon="6.5944">
        <ele>208.6</ele>
        <time>2014-02-09T09:53:50Z</time>
      </trkpt>
      <trkpt lat="43.41951" lon="6.59442">
        <ele>208.2</ele>
        <time>2014-02-09T09:53:56Z</time>
      </trkpt>
      <trkpt lat="43.41944" lon="6.59448">
        <ele>208.1</ele>
        <time>2014-02-09T09:54:04Z</time>
      </trkpt>
      <trkpt lat="43.41938" lon="6.59456">
        <ele>207.4</ele>
        <time>2014-02-09T09:54:10Z</time>
      </trkpt>
      <trkpt lat="43.4193" lon="6.59463">
        <ele>207.6</ele>
        <time>2014-02-09T09:54:17Z</time>
      </trkpt>
      <trkpt lat="43.41929" lon="6.59464">
        <ele>207.8</ele>
        <time>2014-02-09T09:54:18Z</time>
      </trkpt>
      <trkpt lat="43.41916" lon="6.59474">
        <ele>207.9</ele>
        <time>2014-02-09T09:54:29Z</time>
      </trkpt>
      <trkpt lat="43.41909" lon="6.59482">
        <ele>206.9</ele>
        <time>2014-02-09T09:54:36Z</time>
      </trkpt>
      <trkpt lat="43.41903" lon="6.5949">
        <ele>206.3</ele>
        <time>2014-02-09T09:54:42Z</time>
      </trkpt>
      <trkpt lat="43.41897" lon="6.59499">
        <ele>206.4</ele>
        <time>2014-02-09T09:54:50Z</time>
      </trkpt>
      <trkpt lat="43.41898" lon="6.59511">
        <ele>206</ele>
        <time>2014-02-09T09:54:57Z</time>
      </trkpt>
      <trkpt lat="43.41905" lon="6.59519">
        <ele>205.9</ele>
        <time>2014-02-09T09:55:25Z</time>
      </trkpt>
      <trkpt lat="43.41906" lon="6.59519">
        <ele>206</ele>
        <time>2014-02-09T09:55:26Z</time>
      </trkpt>
      <trkpt lat="43.41911" lon="6.59528">
        <ele>207</ele>
        <time>2014-02-09T09:58:26Z</time>
      </trkpt>
      <trkpt lat="43.41924" lon="6.59538">
        <ele>207.5</ele>
        <time>2014-02-09T09:58:37Z</time>
      </trkpt>
      <trkpt lat="43.4193" lon="6.59545">
        <ele>208.1</ele>
        <time>2014-02-09T09:58:43Z</time>
      </trkpt>
      <trkpt lat="43.41936" lon="6.59553">
        <ele>208.1</ele>
        <time>2014-02-09T09:58:47Z</time>
      </trkpt>
      <trkpt lat="43.41943" lon="6.5956">
        <ele>208.5</ele>
        <time>2014-02-09T09:58:54Z</time>
      </trkpt>
      <trkpt lat="43.41948" lon="6.59569">
        <ele>208.5</ele>
        <time>2014-02-09T09:59:01Z</time>
      </trkpt>
      <trkpt lat="43.41952" lon="6.59579">
        <ele>208.5</ele>
        <time>2014-02-09T09:59:07Z</time>
      </trkpt>
      <trkpt lat="43.41955" lon="6.59591">
        <ele>208.6</ele>
        <time>2014-02-09T09:59:15Z</time>
      </trkpt>
      <trkpt lat="43.41958" lon="6.59601">
        <ele>208.4</ele>
        <time>2014-02-09T09:59:22Z</time>
      </trkpt>
      <trkpt lat="43.41964" lon="6.59609">
        <ele>208.8</ele>
        <time>2014-02-09T09:59:29Z</time>
      </trkpt>
      <trkpt lat="43.41964" lon="6.59611">
        <ele>208.7</ele>
        <time>2014-02-09T09:59:30Z</time>
      </trkpt>
      <trkpt lat="43.41975" lon="6.59624">
        <ele>210.8</ele>
        <time>2014-02-09T09:59:41Z</time>
      </trkpt>
      <trkpt lat="43.41981" lon="6.59632">
        <ele>211.3</ele>
        <time>2014-02-09T09:59:45Z</time>
      </trkpt>
      <trkpt lat="43.41986" lon="6.5964">
        <ele>211.3</ele>
        <time>2014-02-09T09:59:49Z</time>
      </trkpt>
      <trkpt lat="43.41992" lon="6.59647">
        <ele>211.4</ele>
        <time>2014-02-09T09:59:53Z</time>
      </trkpt>
      <trkpt lat="43.41998" lon="6.59655">
        <ele>211.3</ele>
        <time>2014-02-09T10:00:00Z</time>
      </trkpt>
      <trkpt lat="43.42001" lon="6.59665">
        <ele>211.3</ele>
        <time>2014-02-09T10:00:06Z</time>
      </trkpt>
      <trkpt lat="43.42004" lon="6.59676">
        <ele>210.9</ele>
        <time>2014-02-09T10:00:11Z</time>
      </trkpt>
      <trkpt lat="43.42006" lon="6.59688">
        <ele>209.5</ele>
        <time>2014-02-09T10:00:20Z</time>
      </trkpt>
      <trkpt lat="43.42007" lon="6.59699">
        <ele>208.3</ele>
        <time>2014-02-09T10:00:26Z</time>
      </trkpt>
      <trkpt lat="43.4201" lon="6.5971">
        <ele>207.9</ele>
        <time>2014-02-09T10:00:32Z</time>
      </trkpt>
      <trkpt lat="43.42011" lon="6.59712">
        <ele>207.8</ele>
        <time>2014-02-09T10:00:33Z</time>
      </trkpt>
      <trkpt lat="43.42014" lon="6.59733">
        <ele>206.6</ele>
        <time>2014-02-09T10:00:44Z</time>
      </trkpt>
      <trkpt lat="43.42017" lon="6.59743">
        <ele>206.5</ele>
        <time>2014-02-09T10:00:50Z</time>
      </trkpt>
      <trkpt lat="43.42021" lon="6.59754">
        <ele>205.3</ele>
        <time>2014-02-09T10:00:55Z</time>
      </trkpt>
      <trkpt lat="43.42024" lon="6.59765">
        <ele>204.7</ele>
        <time>2014-02-09T10:00:59Z</time>
      </trkpt>
      <trkpt lat="43.42025" lon="6.59776">
        <ele>202.8</ele>
        <time>2014-02-09T10:01:07Z</time>
      </trkpt>
      <trkpt lat="43.42026" lon="6.59786">
        <ele>202.6</ele>
        <time>2014-02-09T10:01:12Z</time>
      </trkpt>
      <trkpt lat="43.42029" lon="6.59797">
        <ele>201.3</ele>
        <time>2014-02-09T10:01:17Z</time>
      </trkpt>
      <trkpt lat="43.42032" lon="6.59808">
        <ele>200.9</ele>
        <time>2014-02-09T10:01:23Z</time>
      </trkpt>
      <trkpt lat="43.42034" lon="6.5982">
        <ele>199</ele>
        <time>2014-02-09T10:01:31Z</time>
      </trkpt>
      <trkpt lat="43.42037" lon="6.59831">
        <ele>197.8</ele>
        <time>2014-02-09T10:01:37Z</time>
      </trkpt>
      <trkpt lat="43.42038" lon="6.59833">
        <ele>197.7</ele>
        <time>2014-02-09T10:01:38Z</time>
      </trkpt>
      <trkpt lat="43.42041" lon="6.59854">
        <ele>195.3</ele>
        <time>2014-02-09T10:01:50Z</time>
      </trkpt>
      <trkpt lat="43.42044" lon="6.59864">
        <ele>194.6</ele>
        <time>2014-02-09T10:01:58Z</time>
      </trkpt>
      <trkpt lat="43.42049" lon="6.59872">
        <ele>194.7</ele>
        <time>2014-02-09T10:02:03Z</time>
      </trkpt>
      <trkpt lat="43.42056" lon="6.59877">
        <ele>194.6</ele>
        <time>2014-02-09T10:02:08Z</time>
      </trkpt>
      <trkpt lat="43.42063" lon="6.59883">
        <ele>193.8</ele>
        <time>2014-02-09T10:02:16Z</time>
      </trkpt>
      <trkpt lat="43.42071" lon="6.59887">
        <ele>193.6</ele>
        <time>2014-02-09T10:02:21Z</time>
      </trkpt>
      <trkpt lat="43.42077" lon="6.59895">
        <ele>193.7</ele>
        <time>2014-02-09T10:02:25Z</time>
      </trkpt>
      <trkpt lat="43.42084" lon="6.59901">
        <ele>193.6</ele>
        <time>2014-02-09T10:02:30Z</time>
      </trkpt>
      <trkpt lat="43.42091" lon="6.59905">
        <ele>193.2</ele>
        <time>2014-02-09T10:02:37Z</time>
      </trkpt>
      <trkpt lat="43.42099" lon="6.59906">
        <ele>193.4</ele>
        <time>2014-02-09T10:02:45Z</time>
      </trkpt>
      <trkpt lat="43.421" lon="6.59906">
        <ele>193.5</ele>
        <time>2014-02-09T10:02:46Z</time>
      </trkpt>
      <trkpt lat="43.42116" lon="6.59905">
        <ele>194.7</ele>
        <time>2014-02-09T10:03:00Z</time>
      </trkpt>
      <trkpt lat="43.42124" lon="6.59903">
        <ele>195.9</ele>
        <time>2014-02-09T10:03:08Z</time>
      </trkpt>
      <trkpt lat="43.42133" lon="6.59901">
        <ele>197.7</ele>
        <time>2014-02-09T10:03:18Z</time>
      </trkpt>
      <trkpt lat="43.42141" lon="6.59898">
        <ele>200.6</ele>
        <time>2014-02-09T10:03:33Z</time>
      </trkpt>
      <trkpt lat="43.4215" lon="6.59898">
        <ele>203.2</ele>
        <time>2014-02-09T10:03:45Z</time>
      </trkpt>
      <trkpt lat="43.42158" lon="6.59895">
        <ele>205.7</ele>
        <time>2014-02-09T10:03:57Z</time>
      </trkpt>
      <trkpt lat="43.4216" lon="6.59896">
        <ele>205.7</ele>
        <time>2014-02-09T10:03:58Z</time>
      </trkpt>
      <trkpt lat="43.42175" lon="6.599">
        <ele>206.6</ele>
        <time>2014-02-09T10:04:11Z</time>
      </trkpt>
      <trkpt lat="43.42181" lon="6.59909">
        <ele>208.2</ele>
        <time>2014-02-09T10:04:21Z</time>
      </trkpt>
      <trkpt lat="43.42185" lon="6.59919">
        <ele>210.6</ele>
        <time>2014-02-09T10:04:33Z</time>
      </trkpt>
      <trkpt lat="43.4219" lon="6.5993">
        <ele>212.2</ele>
        <time>2014-02-09T10:04:42Z</time>
      </trkpt>
      <trkpt lat="43.42194" lon="6.5994">
        <ele>213.6</ele>
        <time>2014-02-09T10:04:50Z</time>
      </trkpt>
      <trkpt lat="43.42197" lon="6.59952">
        <ele>214.3</ele>
        <time>2014-02-09T10:04:59Z</time>
      </trkpt>
      <trkpt lat="43.42197" lon="6.59953">
        <ele>214.1</ele>
        <time>2014-02-09T10:05:00Z</time>
      </trkpt>
      <trkpt lat="43.422" lon="6.59975">
        <ele>215.6</ele>
        <time>2014-02-09T10:05:15Z</time>
      </trkpt>
      <trkpt lat="43.42201" lon="6.59987">
        <ele>215.8</ele>
        <time>2014-02-09T10:05:22Z</time>
      </trkpt>
      <trkpt lat="43.42202" lon="6.59998">
        <ele>215.2</ele>
        <time>2014-02-09T10:05:29Z</time>
      </trkpt>
      <trkpt lat="43.42203" lon="6.60011">
        <ele>216.3</ele>
        <time>2014-02-09T10:05:48Z</time>
      </trkpt>
      <trkpt lat="43.4221" lon="6.60019">
        <ele>216.8</ele>
        <time>2014-02-09T10:06:07Z</time>
      </trkpt>
      <trkpt lat="43.42211" lon="6.60018">
        <ele>216.7</ele>
        <time>2014-02-09T10:06:08Z</time>
      </trkpt>
      <trkpt lat="43.42195" lon="6.60017">
        <ele>215.4</ele>
        <time>2014-02-09T10:06:43Z</time>
      </trkpt>
      <trkpt lat="43.42188" lon="6.60025">
        <ele>215.8</ele>
        <time>2014-02-09T10:06:52Z</time>
      </trkpt>
      <trkpt lat="43.42182" lon="6.60033">
        <ele>215.7</ele>
        <time>2014-02-09T10:07:00Z</time>
      </trkpt>
      <trkpt lat="43.42176" lon="6.6004">
        <ele>215.8</ele>
        <time>2014-02-09T10:07:06Z</time>
      </trkpt>
      <trkpt lat="43.42171" lon="6.60048">
        <ele>216.5</ele>
        <time>2014-02-09T10:07:13Z</time>
      </trkpt>
      <trkpt lat="43.4217" lon="6.60049">
        <ele>216.5</ele>
        <time>2014-02-09T10:07:14Z</time>
      </trkpt>
      <trkpt lat="43.4216" lon="6.60066">
        <ele>217.8</ele>
        <time>2014-02-09T10:07:40Z</time>
      </trkpt>
      <trkpt lat="43.42154" lon="6.60074">
        <ele>218</ele>
        <time>2014-02-09T10:07:47Z</time>
      </trkpt>
      <trkpt lat="43.4215" lon="6.60083">
        <ele>217.7</ele>
        <time>2014-02-09T10:08:14Z</time>
      </trkpt>
      <trkpt lat="43.42149" lon="6.60084">
        <ele>217.6</ele>
        <time>2014-02-09T10:08:15Z</time>
      </trkpt>
      <trkpt lat="43.4214" lon="6.601">
        <ele>217.7</ele>
        <time>2014-02-09T10:08:26Z</time>
      </trkpt>
      <trkpt lat="43.42135" lon="6.6011">
        <ele>218.2</ele>
        <time>2014-02-09T10:08:35Z</time>
      </trkpt>
      <trkpt lat="43.4213" lon="6.60119">
        <ele>219.1</ele>
        <time>2014-02-09T10:08:42Z</time>
      </trkpt>
      <trkpt lat="43.42126" lon="6.60128">
        <ele>218.7</ele>
        <time>2014-02-09T10:08:50Z</time>
      </trkpt>
      <trkpt lat="43.42123" lon="6.60139">
        <ele>219.5</ele>
        <time>2014-02-09T10:08:58Z</time>
      </trkpt>
      <trkpt lat="43.42118" lon="6.60149">
        <ele>219.3</ele>
        <time>2014-02-09T10:09:05Z</time>
      </trkpt>
      <trkpt lat="43.42115" lon="6.60159">
        <ele>219.7</ele>
        <time>2014-02-09T10:09:13Z</time>
      </trkpt>
      <trkpt lat="43.42114" lon="6.60171">
        <ele>219.8</ele>
        <time>2014-02-09T10:09:22Z</time>
      </trkpt>
      <trkpt lat="43.42114" lon="6.60173">
        <ele>220.1</ele>
        <time>2014-02-09T10:09:23Z</time>
      </trkpt>
      <trkpt lat="43.42121" lon="6.60191">
        <ele>219.6</ele>
        <time>2014-02-09T10:09:36Z</time>
      </trkpt>
      <trkpt lat="43.42126" lon="6.60199">
        <ele>219.2</ele>
        <time>2014-02-09T10:09:41Z</time>
      </trkpt>
      <trkpt lat="43.4213" lon="6.6021">
        <ele>219.1</ele>
        <time>2014-02-09T10:09:48Z</time>
      </trkpt>
      <trkpt lat="43.42133" lon="6.6022">
        <ele>219.3</ele>
        <time>2014-02-09T10:09:58Z</time>
      </trkpt>
      <trkpt lat="43.42137" lon="6.60229">
        <ele>217.7</ele>
        <time>2014-02-09T10:10:05Z</time>
      </trkpt>
      <trkpt lat="43.42141" lon="6.6024">
        <ele>218.2</ele>
        <time>2014-02-09T10:10:12Z</time>
      </trkpt>
      <trkpt lat="43.42144" lon="6.60251">
        <ele>217.4</ele>
        <time>2014-02-09T10:10:20Z</time>
      </trkpt>
      <trkpt lat="43.42149" lon="6.60262">
        <ele>216.8</ele>
        <time>2014-02-09T10:10:40Z</time>
      </trkpt>
      <trkpt lat="43.42149" lon="6.60262">
        <ele>216.6</ele>
        <time>2014-02-09T10:10:41Z</time>
      </trkpt>
      <trkpt lat="43.42153" lon="6.60267">
        <ele>216.5</ele>
        <time>2014-02-09T10:12:07Z</time>
      </trkpt>
      <trkpt lat="43.42154" lon="6.60267">
        <ele>216.7</ele>
        <time>2014-02-09T10:12:08Z</time>
      </trkpt>
      <trkpt lat="43.42162" lon="6.60284">
        <ele>216.4</ele>
        <time>2014-02-09T10:12:17Z</time>
      </trkpt>
      <trkpt lat="43.42169" lon="6.60289">
        <ele>215.8</ele>
        <time>2014-02-09T10:12:37Z</time>
      </trkpt>
      <trkpt lat="43.42172" lon="6.60297">
        <ele>215.2</ele>
        <time>2014-02-09T10:12:40Z</time>
      </trkpt>
      <trkpt lat="43.42174" lon="6.60306">
        <ele>214.4</ele>
        <time>2014-02-09T10:12:43Z</time>
      </trkpt>
      <trkpt lat="43.42176" lon="6.60317">
        <ele>213</ele>
        <time>2014-02-09T10:12:50Z</time>
      </trkpt>
      <trkpt lat="43.4218" lon="6.60326">
        <ele>211.5</ele>
        <time>2014-02-09T10:12:54Z</time>
      </trkpt>
      <trkpt lat="43.42181" lon="6.60337">
        <ele>212.1</ele>
        <time>2014-02-09T10:13:11Z</time>
      </trkpt>
      <trkpt lat="43.4218" lon="6.60339">
        <ele>212.2</ele>
        <time>2014-02-09T10:13:12Z</time>
      </trkpt>
      <trkpt lat="43.42176" lon="6.60359">
        <ele>211.4</ele>
        <time>2014-02-09T10:13:24Z</time>
      </trkpt>
      <trkpt lat="43.42173" lon="6.60371">
        <ele>212.3</ele>
        <time>2014-02-09T10:13:31Z</time>
      </trkpt>
      <trkpt lat="43.42173" lon="6.60383">
        <ele>212.2</ele>
        <time>2014-02-09T10:13:38Z</time>
      </trkpt>
      <trkpt lat="43.42177" lon="6.60393">
        <ele>213.1</ele>
        <time>2014-02-09T10:13:47Z</time>
      </trkpt>
      <trkpt lat="43.42185" lon="6.60398">
        <ele>213.5</ele>
        <time>2014-02-09T10:13:55Z</time>
      </trkpt>
      <trkpt lat="43.42193" lon="6.60403">
        <ele>212.5</ele>
        <time>2014-02-09T10:14:01Z</time>
      </trkpt>
      <trkpt lat="43.42201" lon="6.60407">
        <ele>210.8</ele>
        <time>2014-02-09T10:14:08Z</time>
      </trkpt>
      <trkpt lat="43.42208" lon="6.60411">
        <ele>209.8</ele>
        <time>2014-02-09T10:14:14Z</time>
      </trkpt>
      <trkpt lat="43.4221" lon="6.60412">
        <ele>209.6</ele>
        <time>2014-02-09T10:14:15Z</time>
      </trkpt>
      <trkpt lat="43.42224" lon="6.60419">
        <ele>207.7</ele>
        <time>2014-02-09T10:14:26Z</time>
      </trkpt>
      <trkpt lat="43.42232" lon="6.60422">
        <ele>206.6</ele>
        <time>2014-02-09T10:14:33Z</time>
      </trkpt>
      <trkpt lat="43.4224" lon="6.60426">
        <ele>205.8</ele>
        <time>2014-02-09T10:14:41Z</time>
      </trkpt>
      <trkpt lat="43.42249" lon="6.60428">
        <ele>205.2</ele>
        <time>2014-02-09T10:14:50Z</time>
      </trkpt>
      <trkpt lat="43.42257" lon="6.60429">
        <ele>203.7</ele>
        <time>2014-02-09T10:14:58Z</time>
      </trkpt>
      <trkpt lat="43.42265" lon="6.60427">
        <ele>203.3</ele>
        <time>2014-02-09T10:15:04Z</time>
      </trkpt>
      <trkpt lat="43.42272" lon="6.60424">
        <ele>202.4</ele>
        <time>2014-02-09T10:15:12Z</time>
      </trkpt>
      <trkpt lat="43.4228" lon="6.60419">
        <ele>202</ele>
        <time>2014-02-09T10:15:19Z</time>
      </trkpt>
      <trkpt lat="43.42281" lon="6.60418">
        <ele>201.9</ele>
        <time>2014-02-09T10:15:20Z</time>
      </trkpt>
      <trkpt lat="43.42295" lon="6.60407">
        <ele>200.8</ele>
        <time>2014-02-09T10:15:33Z</time>
      </trkpt>
      <trkpt lat="43.42302" lon="6.60414">
        <ele>198.7</ele>
        <time>2014-02-09T10:15:47Z</time>
      </trkpt>
      <trkpt lat="43.42299" lon="6.60425">
        <ele>198.6</ele>
        <time>2014-02-09T10:15:56Z</time>
      </trkpt>
      <trkpt lat="43.42294" lon="6.60435">
        <ele>198.3</ele>
        <time>2014-02-09T10:16:06Z</time>
      </trkpt>
      <trkpt lat="43.42286" lon="6.6044">
        <ele>197</ele>
        <time>2014-02-09T10:16:14Z</time>
      </trkpt>
      <trkpt lat="43.42279" lon="6.60446">
        <ele>196.3</ele>
        <time>2014-02-09T10:16:22Z</time>
      </trkpt>
      <trkpt lat="43.42278" lon="6.60446">
        <ele>196.2</ele>
        <time>2014-02-09T10:16:23Z</time>
      </trkpt>
      <trkpt lat="43.42263" lon="6.60452">
        <ele>195.4</ele>
        <time>2014-02-09T10:16:40Z</time>
      </trkpt>
      <trkpt lat="43.42256" lon="6.60458">
        <ele>194</ele>
        <time>2014-02-09T10:16:47Z</time>
      </trkpt>
      <trkpt lat="43.42249" lon="6.60466">
        <ele>194.2</ele>
        <time>2014-02-09T10:16:54Z</time>
      </trkpt>
      <trkpt lat="43.42248" lon="6.60478">
        <ele>194.1</ele>
        <time>2014-02-09T10:17:02Z</time>
      </trkpt>
      <trkpt lat="43.42248" lon="6.6049">
        <ele>193.3</ele>
        <time>2014-02-09T10:17:09Z</time>
      </trkpt>
      <trkpt lat="43.42244" lon="6.60499">
        <ele>192.5</ele>
        <time>2014-02-09T10:17:16Z</time>
      </trkpt>
      <trkpt lat="43.42241" lon="6.6051">
        <ele>192.2</ele>
        <time>2014-02-09T10:17:23Z</time>
      </trkpt>
      <trkpt lat="43.42241" lon="6.60512">
        <ele>192.3</ele>
        <time>2014-02-09T10:17:24Z</time>
      </trkpt>
      <trkpt lat="43.42245" lon="6.60532">
        <ele>190.8</ele>
        <time>2014-02-09T10:17:35Z</time>
      </trkpt>
      <trkpt lat="43.42251" lon="6.60541">
        <ele>189.5</ele>
        <time>2014-02-09T10:17:43Z</time>
      </trkpt>
      <trkpt lat="43.42256" lon="6.60551">
        <ele>188.6</ele>
        <time>2014-02-09T10:17:52Z</time>
      </trkpt>
      <trkpt lat="43.42253" lon="6.60562">
        <ele>188</ele>
        <time>2014-02-09T10:18:03Z</time>
      </trkpt>
      <trkpt lat="43.42255" lon="6.60574">
        <ele>187.6</ele>
        <time>2014-02-09T10:18:26Z</time>
      </trkpt>
      <trkpt lat="43.42255" lon="6.60574">
        <ele>187.6</ele>
        <time>2014-02-09T10:18:27Z</time>
      </trkpt>
      <trkpt lat="43.42239" lon="6.60582">
        <ele>186.4</ele>
        <time>2014-02-09T10:18:50Z</time>
      </trkpt>
      <trkpt lat="43.42232" lon="6.60587">
        <ele>185.5</ele>
        <time>2014-02-09T10:18:57Z</time>
      </trkpt>
      <trkpt lat="43.42225" lon="6.60593">
        <ele>184.7</ele>
        <time>2014-02-09T10:19:04Z</time>
      </trkpt>
      <trkpt lat="43.42217" lon="6.60598">
        <ele>183</ele>
        <time>2014-02-09T10:19:11Z</time>
      </trkpt>
      <trkpt lat="43.42211" lon="6.60605">
        <ele>182.5</ele>
        <time>2014-02-09T10:19:16Z</time>
      </trkpt>
      <trkpt lat="43.42205" lon="6.6061">
        <ele>181.5</ele>
        <time>2014-02-09T10:19:20Z</time>
      </trkpt>
      <trkpt lat="43.42198" lon="6.60616">
        <ele>181.7</ele>
        <time>2014-02-09T10:19:29Z</time>
      </trkpt>
      <trkpt lat="43.42197" lon="6.60618">
        <ele>181.9</ele>
        <time>2014-02-09T10:19:30Z</time>
      </trkpt>
      <trkpt lat="43.42189" lon="6.60636">
        <ele>180.6</ele>
        <time>2014-02-09T10:19:43Z</time>
      </trkpt>
      <trkpt lat="43.42186" lon="6.60647">
        <ele>180</ele>
        <time>2014-02-09T10:19:51Z</time>
      </trkpt>
      <trkpt lat="43.42184" lon="6.60658">
        <ele>178.9</ele>
        <time>2014-02-09T10:19:59Z</time>
      </trkpt>
      <trkpt lat="43.42183" lon="6.60669">
        <ele>178.5</ele>
        <time>2014-02-09T10:20:05Z</time>
      </trkpt>
      <trkpt lat="43.4218" lon="6.60679">
        <ele>178</ele>
        <time>2014-02-09T10:20:12Z</time>
      </trkpt>
      <trkpt lat="43.42178" lon="6.6069">
        <ele>177.3</ele>
        <time>2014-02-09T10:20:18Z</time>
      </trkpt>
      <trkpt lat="43.42174" lon="6.607">
        <ele>177.5</ele>
        <time>2014-02-09T10:20:24Z</time>
      </trkpt>
      <trkpt lat="43.42173" lon="6.60711">
        <ele>177.7</ele>
        <time>2014-02-09T10:20:30Z</time>
      </trkpt>
      <trkpt lat="43.42173" lon="6.60713">
        <ele>177.7</ele>
        <time>2014-02-09T10:20:31Z</time>
      </trkpt>
      <trkpt lat="43.42177" lon="6.60734">
        <ele>178.3</ele>
        <time>2014-02-09T10:20:48Z</time>
      </trkpt>
      <trkpt lat="43.42175" lon="6.60745">
        <ele>178.5</ele>
        <time>2014-02-09T10:20:57Z</time>
      </trkpt>
      <trkpt lat="43.42169" lon="6.60754">
        <ele>177.4</ele>
        <time>2014-02-09T10:21:08Z</time>
      </trkpt>
      <trkpt lat="43.42164" lon="6.60763">
        <ele>178.1</ele>
        <time>2014-02-09T10:21:15Z</time>
      </trkpt>
      <trkpt lat="43.42156" lon="6.60765">
        <ele>178.5</ele>
        <time>2014-02-09T10:21:22Z</time>
      </trkpt>
      <trkpt lat="43.42148" lon="6.6077">
        <ele>179.3</ele>
        <time>2014-02-09T10:21:30Z</time>
      </trkpt>
      <trkpt lat="43.42141" lon="6.60776">
        <ele>179.7</ele>
        <time>2014-02-09T10:21:38Z</time>
      </trkpt>
      <trkpt lat="43.4214" lon="6.60777">
        <ele>179.7</ele>
        <time>2014-02-09T10:21:39Z</time>
      </trkpt>
      <trkpt lat="43.42131" lon="6.60792">
        <ele>180.4</ele>
        <time>2014-02-09T10:21:50Z</time>
      </trkpt>
      <trkpt lat="43.42126" lon="6.60801">
        <ele>181.1</ele>
        <time>2014-02-09T10:21:57Z</time>
      </trkpt>
      <trkpt lat="43.42122" lon="6.60811">
        <ele>181.5</ele>
        <time>2014-02-09T10:22:09Z</time>
      </trkpt>
      <trkpt lat="43.42117" lon="6.60821">
        <ele>181.9</ele>
        <time>2014-02-09T10:22:16Z</time>
      </trkpt>
      <trkpt lat="43.42114" lon="6.60832">
        <ele>182</ele>
        <time>2014-02-09T10:22:22Z</time>
      </trkpt>
      <trkpt lat="43.42111" lon="6.60843">
        <ele>182.5</ele>
        <time>2014-02-09T10:22:29Z</time>
      </trkpt>
      <trkpt lat="43.42105" lon="6.60853">
        <ele>182.6</ele>
        <time>2014-02-09T10:22:38Z</time>
      </trkpt>
      <trkpt lat="43.42099" lon="6.60861">
        <ele>183.3</ele>
        <time>2014-02-09T10:22:47Z</time>
      </trkpt>
      <trkpt lat="43.42098" lon="6.60861">
        <ele>183.3</ele>
        <time>2014-02-09T10:22:48Z</time>
      </trkpt>
      <trkpt lat="43.42088" lon="6.60877">
        <ele>183.9</ele>
        <time>2014-02-09T10:23:02Z</time>
      </trkpt>
      <trkpt lat="43.42081" lon="6.60883">
        <ele>184.1</ele>
        <time>2014-02-09T10:23:10Z</time>
      </trkpt>
      <trkpt lat="43.42076" lon="6.60893">
        <ele>184.4</ele>
        <time>2014-02-09T10:23:21Z</time>
      </trkpt>
      <trkpt lat="43.4207" lon="6.60901">
        <ele>185.5</ele>
        <time>2014-02-09T10:23:31Z</time>
      </trkpt>
      <trkpt lat="43.42063" lon="6.60907">
        <ele>186</ele>
        <time>2014-02-09T10:23:41Z</time>
      </trkpt>
      <trkpt lat="43.42056" lon="6.60912">
        <ele>186.3</ele>
        <time>2014-02-09T10:23:50Z</time>
      </trkpt>
      <trkpt lat="43.42055" lon="6.60913">
        <ele>186.2</ele>
        <time>2014-02-09T10:23:51Z</time>
      </trkpt>
      <trkpt lat="43.42039" lon="6.60918">
        <ele>186.4</ele>
        <time>2014-02-09T10:24:09Z</time>
      </trkpt>
      <trkpt lat="43.42032" lon="6.60922">
        <ele>187</ele>
        <time>2014-02-09T10:24:17Z</time>
      </trkpt>
      <trkpt lat="43.42023" lon="6.60925">
        <ele>186.8</ele>
        <time>2014-02-09T10:24:27Z</time>
      </trkpt>
      <trkpt lat="43.42016" lon="6.60932">
        <ele>186.4</ele>
        <time>2014-02-09T10:24:38Z</time>
      </trkpt>
      <trkpt lat="43.42009" lon="6.60938">
        <ele>187.6</ele>
        <time>2014-02-09T10:24:48Z</time>
      </trkpt>
      <trkpt lat="43.42002" lon="6.60945">
        <ele>188.2</ele>
        <time>2014-02-09T10:24:58Z</time>
      </trkpt>
      <trkpt lat="43.42002" lon="6.60946">
        <ele>188.3</ele>
        <time>2014-02-09T10:24:59Z</time>
      </trkpt>
      <trkpt lat="43.41989" lon="6.6096">
        <ele>187.7</ele>
        <time>2014-02-09T10:25:18Z</time>
      </trkpt>
      <trkpt lat="43.41982" lon="6.60964">
        <ele>187.8</ele>
        <time>2014-02-09T10:25:26Z</time>
      </trkpt>
      <trkpt lat="43.41975" lon="6.60971">
        <ele>188.7</ele>
        <time>2014-02-09T10:25:35Z</time>
      </trkpt>
      <trkpt lat="43.41967" lon="6.60975">
        <ele>189.8</ele>
        <time>2014-02-09T10:25:47Z</time>
      </trkpt>
      <trkpt lat="43.41958" lon="6.60977">
        <ele>191.1</ele>
        <time>2014-02-09T10:25:57Z</time>
      </trkpt>
      <trkpt lat="43.41951" lon="6.60969">
        <ele>192.1</ele>
        <time>2014-02-09T10:26:42Z</time>
      </trkpt>
      <trkpt lat="43.41952" lon="6.60968">
        <ele>192.5</ele>
        <time>2014-02-09T10:26:43Z</time>
      </trkpt>
      <trkpt lat="43.41959" lon="6.60947">
        <ele>195.3</ele>
        <time>2014-02-09T10:27:03Z</time>
      </trkpt>
      <trkpt lat="43.4196" lon="6.60936">
        <ele>195.6</ele>
        <time>2014-02-09T10:27:11Z</time>
      </trkpt>
      <trkpt lat="43.4196" lon="6.60924">
        <ele>195.5</ele>
        <time>2014-02-09T10:27:20Z</time>
      </trkpt>
      <trkpt lat="43.41962" lon="6.60913">
        <ele>195.5</ele>
        <time>2014-02-09T10:27:29Z</time>
      </trkpt>
      <trkpt lat="43.41966" lon="6.60903">
        <ele>195.6</ele>
        <time>2014-02-09T10:27:39Z</time>
      </trkpt>
      <trkpt lat="43.41969" lon="6.60892">
        <ele>196.6</ele>
        <time>2014-02-09T10:27:49Z</time>
      </trkpt>
      <trkpt lat="43.41969" lon="6.6089">
        <ele>196.6</ele>
        <time>2014-02-09T10:27:50Z</time>
      </trkpt>
      <trkpt lat="43.41976" lon="6.60869">
        <ele>196.6</ele>
        <time>2014-02-09T10:28:05Z</time>
      </trkpt>
      <trkpt lat="43.41978" lon="6.60859">
        <ele>196</ele>
        <time>2014-02-09T10:28:13Z</time>
      </trkpt>
      <trkpt lat="43.41982" lon="6.60848">
        <ele>195.8</ele>
        <time>2014-02-09T10:28:25Z</time>
      </trkpt>
      <trkpt lat="43.41986" lon="6.60837">
        <ele>195.3</ele>
        <time>2014-02-09T10:28:34Z</time>
      </trkpt>
      <trkpt lat="43.41987" lon="6.60825">
        <ele>195</ele>
        <time>2014-02-09T10:28:43Z</time>
      </trkpt>
      <trkpt lat="43.41988" lon="6.60813">
        <ele>195.9</ele>
        <time>2014-02-09T10:28:52Z</time>
      </trkpt>
      <trkpt lat="43.41988" lon="6.60813">
        <ele>196.1</ele>
        <time>2014-02-09T10:28:53Z</time>
      </trkpt>
      <trkpt lat="43.42002" lon="6.60801">
        <ele>196.3</ele>
        <time>2014-02-09T10:29:26Z</time>
      </trkpt>
      <trkpt lat="43.42009" lon="6.60796">
        <ele>196.6</ele>
        <time>2014-02-09T10:29:34Z</time>
      </trkpt>
      <trkpt lat="43.42013" lon="6.60786">
        <ele>196.8</ele>
        <time>2014-02-09T10:29:41Z</time>
      </trkpt>
      <trkpt lat="43.42013" lon="6.60774">
        <ele>197.4</ele>
        <time>2014-02-09T10:29:50Z</time>
      </trkpt>
      <trkpt lat="43.42015" lon="6.60763">
        <ele>197.9</ele>
        <time>2014-02-09T10:29:58Z</time>
      </trkpt>
      <trkpt lat="43.42015" lon="6.60761">
        <ele>197.8</ele>
        <time>2014-02-09T10:29:59Z</time>
      </trkpt>
      <trkpt lat="43.42014" lon="6.60739">
        <ele>198.9</ele>
        <time>2014-02-09T10:30:15Z</time>
      </trkpt>
      <trkpt lat="43.42011" lon="6.60728">
        <ele>200.2</ele>
        <time>2014-02-09T10:30:25Z</time>
      </trkpt>
      <trkpt lat="43.42006" lon="6.60718">
        <ele>201.6</ele>
        <time>2014-02-09T10:30:36Z</time>
      </trkpt>
      <trkpt lat="43.41999" lon="6.6071">
        <ele>201.7</ele>
        <time>2014-02-09T10:30:45Z</time>
      </trkpt>
      <trkpt lat="43.41992" lon="6.60705">
        <ele>203.5</ele>
        <time>2014-02-09T10:30:55Z</time>
      </trkpt>
      <trkpt lat="43.41986" lon="6.60697">
        <ele>203.9</ele>
        <time>2014-02-09T10:31:06Z</time>
      </trkpt>
      <trkpt lat="43.41984" lon="6.60696">
        <ele>204</ele>
        <time>2014-02-09T10:31:07Z</time>
      </trkpt>
      <trkpt lat="43.41974" lon="6.6068">
        <ele>207.1</ele>
        <time>2014-02-09T10:31:29Z</time>
      </trkpt>
      <trkpt lat="43.41971" lon="6.60668">
        <ele>209.8</ele>
        <time>2014-02-09T10:31:48Z</time>
      </trkpt>
      <trkpt lat="43.4197" lon="6.60657">
        <ele>211.2</ele>
        <time>2014-02-09T10:32:00Z</time>
      </trkpt>
      <trkpt lat="43.41971" lon="6.60645">
        <ele>212.8</ele>
        <time>2014-02-09T10:32:15Z</time>
      </trkpt>
      <trkpt lat="43.41971" lon="6.60644">
        <ele>213</ele>
        <time>2014-02-09T10:32:16Z</time>
      </trkpt>
      <trkpt lat="43.41972" lon="6.60622">
        <ele>215.4</ele>
        <time>2014-02-09T10:32:38Z</time>
      </trkpt>
      <trkpt lat="43.4197" lon="6.6061">
        <ele>216.5</ele>
        <time>2014-02-09T10:32:49Z</time>
      </trkpt>
      <trkpt lat="43.41969" lon="6.60598">
        <ele>217.5</ele>
        <time>2014-02-09T10:33:00Z</time>
      </trkpt>
      <trkpt lat="43.41966" lon="6.60588">
        <ele>217.7</ele>
        <time>2014-02-09T10:33:08Z</time>
      </trkpt>
      <trkpt lat="43.41967" lon="6.60576">
        <ele>218.3</ele>
        <time>2014-02-09T10:33:16Z</time>
      </trkpt>
      <trkpt lat="43.41967" lon="6.60575">
        <ele>218.5</ele>
        <time>2014-02-09T10:33:17Z</time>
      </trkpt>
      <trkpt lat="43.41968" lon="6.60554">
        <ele>219.8</ele>
        <time>2014-02-09T10:33:33Z</time>
      </trkpt>
      <trkpt lat="43.41973" lon="6.60544">
        <ele>221.1</ele>
        <time>2014-02-09T10:33:44Z</time>
      </trkpt>
      <trkpt lat="43.41979" lon="6.60536">
        <ele>222.1</ele>
        <time>2014-02-09T10:33:58Z</time>
      </trkpt>
      <trkpt lat="43.4198" lon="6.60524">
        <ele>222.1</ele>
        <time>2014-02-09T10:34:07Z</time>
      </trkpt>
      <trkpt lat="43.41978" lon="6.60513">
        <ele>221.1</ele>
        <time>2014-02-09T10:36:44Z</time>
      </trkpt>
      <trkpt lat="43.41978" lon="6.60512">
        <ele>221.3</ele>
        <time>2014-02-09T10:36:45Z</time>
      </trkpt>
      <trkpt lat="43.41974" lon="6.60524">
        <ele>221.1</ele>
        <time>2014-02-09T10:38:11Z</time>
      </trkpt>
      <trkpt lat="43.41974" lon="6.60544">
        <ele>219.9</ele>
        <time>2014-02-09T10:38:46Z</time>
      </trkpt>
      <trkpt lat="43.41969" lon="6.60554">
        <ele>219.2</ele>
        <time>2014-02-09T10:38:53Z</time>
      </trkpt>
      <trkpt lat="43.41966" lon="6.60565">
        <ele>218.5</ele>
        <time>2014-02-09T10:39:00Z</time>
      </trkpt>
      <trkpt lat="43.41963" lon="6.60576">
        <ele>217.8</ele>
        <time>2014-02-09T10:39:05Z</time>
      </trkpt>
      <trkpt lat="43.41961" lon="6.60586">
        <ele>218.2</ele>
        <time>2014-02-09T10:39:12Z</time>
      </trkpt>
      <trkpt lat="43.41961" lon="6.60588">
        <ele>218.1</ele>
        <time>2014-02-09T10:39:13Z</time>
      </trkpt>
      <trkpt lat="43.41959" lon="6.6061">
        <ele>216.5</ele>
        <time>2014-02-09T10:39:27Z</time>
      </trkpt>
      <trkpt lat="43.41961" lon="6.60621">
        <ele>215.7</ele>
        <time>2014-02-09T10:39:33Z</time>
      </trkpt>
      <trkpt lat="43.41962" lon="6.60632">
        <ele>214.2</ele>
        <time>2014-02-09T10:39:42Z</time>
      </trkpt>
      <trkpt lat="43.41963" lon="6.60644">
        <ele>213</ele>
        <time>2014-02-09T10:39:52Z</time>
      </trkpt>
      <trkpt lat="43.41961" lon="6.60656">
        <ele>211.1</ele>
        <time>2014-02-09T10:40:03Z</time>
      </trkpt>
      <trkpt lat="43.41959" lon="6.60666">
        <ele>210</ele>
        <time>2014-02-09T10:40:11Z</time>
      </trkpt>
      <trkpt lat="43.41962" lon="6.60678">
        <ele>209.5</ele>
        <time>2014-02-09T10:40:19Z</time>
      </trkpt>
      <trkpt lat="43.41963" lon="6.60679">
        <ele>209.4</ele>
        <time>2014-02-09T10:40:20Z</time>
      </trkpt>
      <trkpt lat="43.4197" lon="6.60697">
        <ele>205.8</ele>
        <time>2014-02-09T10:40:38Z</time>
      </trkpt>
      <trkpt lat="43.41978" lon="6.60704">
        <ele>203.8</ele>
        <time>2014-02-09T10:40:48Z</time>
      </trkpt>
      <trkpt lat="43.41985" lon="6.6071">
        <ele>203.2</ele>
        <time>2014-02-09T10:40:56Z</time>
      </trkpt>
      <trkpt lat="43.41993" lon="6.60715">
        <ele>201.7</ele>
        <time>2014-02-09T10:41:08Z</time>
      </trkpt>
      <trkpt lat="43.41999" lon="6.60722">
        <ele>200.9</ele>
        <time>2014-02-09T10:41:17Z</time>
      </trkpt>
      <trkpt lat="43.42003" lon="6.60734">
        <ele>200.2</ele>
        <time>2014-02-09T10:41:26Z</time>
      </trkpt>
      <trkpt lat="43.42003" lon="6.60734">
        <ele>200</ele>
        <time>2014-02-09T10:41:27Z</time>
      </trkpt>
      <trkpt lat="43.42009" lon="6.60755">
        <ele>198.7</ele>
        <time>2014-02-09T10:41:44Z</time>
      </trkpt>
      <trkpt lat="43.42009" lon="6.60766">
        <ele>197.8</ele>
        <time>2014-02-09T10:41:53Z</time>
      </trkpt>
      <trkpt lat="43.42005" lon="6.60777">
        <ele>197.2</ele>
        <time>2014-02-09T10:42:02Z</time>
      </trkpt>
      <trkpt lat="43.42" lon="6.60787">
        <ele>196.4</ele>
        <time>2014-02-09T10:42:11Z</time>
      </trkpt>
      <trkpt lat="43.41992" lon="6.60793">
        <ele>195.5</ele>
        <time>2014-02-09T10:42:20Z</time>
      </trkpt>
      <trkpt lat="43.41985" lon="6.608">
        <ele>195.2</ele>
        <time>2014-02-09T10:42:29Z</time>
      </trkpt>
      <trkpt lat="43.41985" lon="6.60801">
        <ele>195.3</ele>
        <time>2014-02-09T10:42:30Z</time>
      </trkpt>
      <trkpt lat="43.41979" lon="6.60821">
        <ele>195.8</ele>
        <time>2014-02-09T10:42:43Z</time>
      </trkpt>
      <trkpt lat="43.41978" lon="6.60832">
        <ele>195.1</ele>
        <time>2014-02-09T10:42:51Z</time>
      </trkpt>
      <trkpt lat="43.41976" lon="6.60844">
        <ele>195.4</ele>
        <time>2014-02-09T10:42:59Z</time>
      </trkpt>
      <trkpt lat="43.41972" lon="6.60854">
        <ele>195.3</ele>
        <time>2014-02-09T10:43:06Z</time>
      </trkpt>
      <trkpt lat="43.4197" lon="6.60865">
        <ele>196.3</ele>
        <time>2014-02-09T10:43:13Z</time>
      </trkpt>
      <trkpt lat="43.41968" lon="6.60877">
        <ele>197</ele>
        <time>2014-02-09T10:43:20Z</time>
      </trkpt>
      <trkpt lat="43.41965" lon="6.60888">
        <ele>196.3</ele>
        <time>2014-02-09T10:43:28Z</time>
      </trkpt>
      <trkpt lat="43.41961" lon="6.60898">
        <ele>196.5</ele>
        <time>2014-02-09T10:43:36Z</time>
      </trkpt>
      <trkpt lat="43.4196" lon="6.60899">
        <ele>196.4</ele>
        <time>2014-02-09T10:43:37Z</time>
      </trkpt>
      <trkpt lat="43.41953" lon="6.60918">
        <ele>196.1</ele>
        <time>2014-02-09T10:43:52Z</time>
      </trkpt>
      <trkpt lat="43.41952" lon="6.60929">
        <ele>196.1</ele>
        <time>2014-02-09T10:43:59Z</time>
      </trkpt>
      <trkpt lat="43.4195" lon="6.60939">
        <ele>195.6</ele>
        <time>2014-02-09T10:44:06Z</time>
      </trkpt>
      <trkpt lat="43.41949" lon="6.60951">
        <ele>194.7</ele>
        <time>2014-02-09T10:44:13Z</time>
      </trkpt>
      <trkpt lat="43.41945" lon="6.60961">
        <ele>193.9</ele>
        <time>2014-02-09T10:44:22Z</time>
      </trkpt>
      <trkpt lat="43.41937" lon="6.60964">
        <ele>194.6</ele>
        <time>2014-02-09T10:44:36Z</time>
      </trkpt>
      <trkpt lat="43.41928" lon="6.60964">
        <ele>195.7</ele>
        <time>2014-02-09T10:44:50Z</time>
      </trkpt>
      <trkpt lat="43.41927" lon="6.60964">
        <ele>195.7</ele>
        <time>2014-02-09T10:44:51Z</time>
      </trkpt>
      <trkpt lat="43.41912" lon="6.60972">
        <ele>197.7</ele>
        <time>2014-02-09T10:45:11Z</time>
      </trkpt>
      <trkpt lat="43.41904" lon="6.60978">
        <ele>199.3</ele>
        <time>2014-02-09T10:45:22Z</time>
      </trkpt>
      <trkpt lat="43.41898" lon="6.60987">
        <ele>200.4</ele>
        <time>2014-02-09T10:45:33Z</time>
      </trkpt>
      <trkpt lat="43.41895" lon="6.60997">
        <ele>201.3</ele>
        <time>2014-02-09T10:45:43Z</time>
      </trkpt>
      <trkpt lat="43.41895" lon="6.61009">
        <ele>202.3</ele>
        <time>2014-02-09T10:45:51Z</time>
      </trkpt>
      <trkpt lat="43.41895" lon="6.6101">
        <ele>202.5</ele>
        <time>2014-02-09T10:45:52Z</time>
      </trkpt>
      <trkpt lat="43.41908" lon="6.61024">
        <ele>203.7</ele>
        <time>2014-02-09T10:46:09Z</time>
      </trkpt>
      <trkpt lat="43.41917" lon="6.61027">
        <ele>204.9</ele>
        <time>2014-02-09T10:46:20Z</time>
      </trkpt>
      <trkpt lat="43.41925" lon="6.61031">
        <ele>206.1</ele>
        <time>2014-02-09T10:46:30Z</time>
      </trkpt>
      <trkpt lat="43.41932" lon="6.61039">
        <ele>207</ele>
        <time>2014-02-09T10:46:40Z</time>
      </trkpt>
      <trkpt lat="43.41939" lon="6.61045">
        <ele>207.6</ele>
        <time>2014-02-09T10:46:48Z</time>
      </trkpt>
      <trkpt lat="43.41943" lon="6.61056">
        <ele>208.5</ele>
        <time>2014-02-09T10:47:00Z</time>
      </trkpt>
      <trkpt lat="43.41943" lon="6.61057">
        <ele>208.5</ele>
        <time>2014-02-09T10:47:01Z</time>
      </trkpt>
      <trkpt lat="43.41938" lon="6.61077">
        <ele>211.1</ele>
        <time>2014-02-09T10:47:21Z</time>
      </trkpt>
      <trkpt lat="43.41933" lon="6.61086">
        <ele>210.7</ele>
        <time>2014-02-09T10:47:29Z</time>
      </trkpt>
      <trkpt lat="43.41928" lon="6.61095">
        <ele>212.5</ele>
        <time>2014-02-09T10:47:39Z</time>
      </trkpt>
      <trkpt lat="43.41922" lon="6.61103">
        <ele>213</ele>
        <time>2014-02-09T10:47:49Z</time>
      </trkpt>
      <trkpt lat="43.41915" lon="6.6111">
        <ele>213.9</ele>
        <time>2014-02-09T10:48:00Z</time>
      </trkpt>
      <trkpt lat="43.41907" lon="6.61112">
        <ele>214.3</ele>
        <time>2014-02-09T10:48:08Z</time>
      </trkpt>
      <trkpt lat="43.41906" lon="6.61112">
        <ele>214.4</ele>
        <time>2014-02-09T10:48:09Z</time>
      </trkpt>
      <trkpt lat="43.41889" lon="6.61115">
        <ele>216</ele>
        <time>2014-02-09T10:48:29Z</time>
      </trkpt>
      <trkpt lat="43.41881" lon="6.61119">
        <ele>216.5</ele>
        <time>2014-02-09T10:48:39Z</time>
      </trkpt>
      <trkpt lat="43.41874" lon="6.61123">
        <ele>216.9</ele>
        <time>2014-02-09T10:48:47Z</time>
      </trkpt>
      <trkpt lat="43.41866" lon="6.61126">
        <ele>217.7</ele>
        <time>2014-02-09T10:48:54Z</time>
      </trkpt>
      <trkpt lat="43.41858" lon="6.61128">
        <ele>217.9</ele>
        <time>2014-02-09T10:49:02Z</time>
      </trkpt>
      <trkpt lat="43.41849" lon="6.6113">
        <ele>218.2</ele>
        <time>2014-02-09T10:49:11Z</time>
      </trkpt>
      <trkpt lat="43.41848" lon="6.6113">
        <ele>218.4</ele>
        <time>2014-02-09T10:49:12Z</time>
      </trkpt>
      <trkpt lat="43.41831" lon="6.61129">
        <ele>220</ele>
        <time>2014-02-09T10:49:30Z</time>
      </trkpt>
      <trkpt lat="43.41823" lon="6.61131">
        <ele>220.1</ele>
        <time>2014-02-09T10:49:38Z</time>
      </trkpt>
      <trkpt lat="43.41815" lon="6.61134">
        <ele>220.2</ele>
        <time>2014-02-09T10:49:46Z</time>
      </trkpt>
      <trkpt lat="43.41807" lon="6.61136">
        <ele>221.5</ele>
        <time>2014-02-09T10:49:53Z</time>
      </trkpt>
      <trkpt lat="43.41799" lon="6.61139">
        <ele>222.3</ele>
        <time>2014-02-09T10:50:01Z</time>
      </trkpt>
      <trkpt lat="43.41791" lon="6.6114">
        <ele>223.7</ele>
        <time>2014-02-09T10:50:09Z</time>
      </trkpt>
      <trkpt lat="43.41783" lon="6.61139">
        <ele>224.4</ele>
        <time>2014-02-09T10:50:18Z</time>
      </trkpt>
      <trkpt lat="43.41781" lon="6.61139">
        <ele>224.4</ele>
        <time>2014-02-09T10:50:19Z</time>
      </trkpt>
      <trkpt lat="43.41767" lon="6.61132">
        <ele>225.7</ele>
        <time>2014-02-09T10:50:36Z</time>
      </trkpt>
      <trkpt lat="43.41759" lon="6.61128">
        <ele>226</ele>
        <time>2014-02-09T10:50:46Z</time>
      </trkpt>
      <trkpt lat="43.41751" lon="6.61128">
        <ele>226.8</ele>
        <time>2014-02-09T10:50:54Z</time>
      </trkpt>
      <trkpt lat="43.41743" lon="6.61126">
        <ele>227.3</ele>
        <time>2014-02-09T10:51:00Z</time>
      </trkpt>
      <trkpt lat="43.41734" lon="6.61127">
        <ele>227.7</ele>
        <time>2014-02-09T10:51:08Z</time>
      </trkpt>
      <trkpt lat="43.41729" lon="6.61137">
        <ele>226.9</ele>
        <time>2014-02-09T10:51:32Z</time>
      </trkpt>
      <trkpt lat="43.41729" lon="6.61138">
        <ele>226.6</ele>
        <time>2014-02-09T10:51:33Z</time>
      </trkpt>
      <trkpt lat="43.41722" lon="6.61157">
        <ele>222.8</ele>
        <time>2014-02-09T10:52:04Z</time>
      </trkpt>
      <trkpt lat="43.41716" lon="6.61166">
        <ele>222.9</ele>
        <time>2014-02-09T10:53:15Z</time>
      </trkpt>
      <trkpt lat="43.41716" lon="6.61166">
        <ele>222.9</ele>
        <time>2014-02-09T10:53:16Z</time>
      </trkpt>
      <trkpt lat="43.41723" lon="6.61186">
        <ele>223</ele>
        <time>2014-02-09T10:53:50Z</time>
      </trkpt>
      <trkpt lat="43.41718" lon="6.61194">
        <ele>223.2</ele>
        <time>2014-02-09T10:54:15Z</time>
      </trkpt>
      <trkpt lat="43.41712" lon="6.61202">
        <ele>222.7</ele>
        <time>2014-02-09T10:54:22Z</time>
      </trkpt>
      <trkpt lat="43.41712" lon="6.61203">
        <ele>222.7</ele>
        <time>2014-02-09T10:54:23Z</time>
      </trkpt>
      <trkpt lat="43.41704" lon="6.61223">
        <ele>221.9</ele>
        <time>2014-02-09T10:54:41Z</time>
      </trkpt>
      <trkpt lat="43.41702" lon="6.61234">
        <ele>223</ele>
        <time>2014-02-09T10:54:59Z</time>
      </trkpt>
      <trkpt lat="43.41707" lon="6.61244">
        <ele>221.5</ele>
        <time>2014-02-09T10:55:18Z</time>
      </trkpt>
      <trkpt lat="43.41713" lon="6.61251">
        <ele>222.3</ele>
        <time>2014-02-09T10:55:27Z</time>
      </trkpt>
      <trkpt lat="43.41714" lon="6.61252">
        <ele>222.3</ele>
        <time>2014-02-09T10:55:28Z</time>
      </trkpt>
      <trkpt lat="43.4173" lon="6.61259">
        <ele>220.5</ele>
        <time>2014-02-09T10:55:45Z</time>
      </trkpt>
      <trkpt lat="43.41739" lon="6.61258">
        <ele>220.1</ele>
        <time>2014-02-09T10:55:54Z</time>
      </trkpt>
      <trkpt lat="43.41747" lon="6.61255">
        <ele>219</ele>
        <time>2014-02-09T10:56:06Z</time>
      </trkpt>
      <trkpt lat="43.41755" lon="6.61249">
        <ele>218.8</ele>
        <time>2014-02-09T10:56:19Z</time>
      </trkpt>
      <trkpt lat="43.41762" lon="6.61245">
        <ele>216.4</ele>
        <time>2014-02-09T10:56:40Z</time>
      </trkpt>
      <trkpt lat="43.41763" lon="6.61244">
        <ele>216.4</ele>
        <time>2014-02-09T10:56:41Z</time>
      </trkpt>
      <trkpt lat="43.4178" lon="6.61241">
        <ele>213.7</ele>
        <time>2014-02-09T10:57:35Z</time>
      </trkpt>
      <trkpt lat="43.41788" lon="6.61241">
        <ele>212.7</ele>
        <time>2014-02-09T10:57:48Z</time>
      </trkpt>
      <trkpt lat="43.41789" lon="6.61241">
        <ele>212.7</ele>
        <time>2014-02-09T10:57:49Z</time>
      </trkpt>
      <trkpt lat="43.41804" lon="6.61236">
        <ele>212.3</ele>
        <time>2014-02-09T10:58:08Z</time>
      </trkpt>
      <trkpt lat="43.41811" lon="6.6123">
        <ele>212.2</ele>
        <time>2014-02-09T10:58:18Z</time>
      </trkpt>
      <trkpt lat="43.41819" lon="6.61225">
        <ele>210.2</ele>
        <time>2014-02-09T10:58:54Z</time>
      </trkpt>
      <trkpt lat="43.4182" lon="6.61225">
        <ele>210.2</ele>
        <time>2014-02-09T10:58:55Z</time>
      </trkpt>
      <trkpt lat="43.41836" lon="6.61222">
        <ele>211.3</ele>
        <time>2014-02-09T10:59:27Z</time>
      </trkpt>
      <trkpt lat="43.41844" lon="6.61216">
        <ele>211.8</ele>
        <time>2014-02-09T10:59:37Z</time>
      </trkpt>
      <trkpt lat="43.41852" lon="6.6121">
        <ele>211.2</ele>
        <time>2014-02-09T10:59:48Z</time>
      </trkpt>
      <trkpt lat="43.41859" lon="6.61206">
        <ele>210.9</ele>
        <time>2014-02-09T10:59:55Z</time>
      </trkpt>
      <trkpt lat="43.4186" lon="6.61205">
        <ele>210.8</ele>
        <time>2014-02-09T10:59:56Z</time>
      </trkpt>
      <trkpt lat="43.41875" lon="6.61196">
        <ele>210.8</ele>
        <time>2014-02-09T11:00:12Z</time>
      </trkpt>
      <trkpt lat="43.41881" lon="6.61189">
        <ele>210.2</ele>
        <time>2014-02-09T11:00:20Z</time>
      </trkpt>
      <trkpt lat="43.41889" lon="6.61184">
        <ele>209.3</ele>
        <time>2014-02-09T11:00:40Z</time>
      </trkpt>
      <trkpt lat="43.41896" lon="6.61178">
        <ele>207.5</ele>
        <time>2014-02-09T11:00:54Z</time>
      </trkpt>
      <trkpt lat="43.41902" lon="6.6117">
        <ele>206.2</ele>
        <time>2014-02-09T11:01:05Z</time>
      </trkpt>
      <trkpt lat="43.41903" lon="6.61169">
        <ele>206.2</ele>
        <time>2014-02-09T11:01:06Z</time>
      </trkpt>
      <trkpt lat="43.41918" lon="6.61161">
        <ele>204.6</ele>
        <time>2014-02-09T11:01:23Z</time>
      </trkpt>
      <trkpt lat="43.41926" lon="6.61158">
        <ele>203.6</ele>
        <time>2014-02-09T11:01:37Z</time>
      </trkpt>
      <trkpt lat="43.41933" lon="6.61153">
        <ele>203.1</ele>
        <time>2014-02-09T11:02:05Z</time>
      </trkpt>
      <trkpt lat="43.41942" lon="6.6115">
        <ele>202.3</ele>
        <time>2014-02-09T11:02:12Z</time>
      </trkpt>
      <trkpt lat="43.41942" lon="6.61149">
        <ele>202.1</ele>
        <time>2014-02-09T11:02:13Z</time>
      </trkpt>
      <trkpt lat="43.41957" lon="6.61142">
        <ele>201.6</ele>
        <time>2014-02-09T11:02:27Z</time>
      </trkpt>
      <trkpt lat="43.41962" lon="6.61133">
        <ele>200.5</ele>
        <time>2014-02-09T11:02:36Z</time>
      </trkpt>
      <trkpt lat="43.41969" lon="6.61126">
        <ele>199.1</ele>
        <time>2014-02-09T11:02:43Z</time>
      </trkpt>
      <trkpt lat="43.41977" lon="6.6112">
        <ele>199</ele>
        <time>2014-02-09T11:02:52Z</time>
      </trkpt>
      <trkpt lat="43.41982" lon="6.61111">
        <ele>198.1</ele>
        <time>2014-02-09T11:03:33Z</time>
      </trkpt>
      <trkpt lat="43.41982" lon="6.6111">
        <ele>198.1</ele>
        <time>2014-02-09T11:03:34Z</time>
      </trkpt>
      <trkpt lat="43.41991" lon="6.61111">
        <ele>199.1</ele>
        <time>2014-02-09T11:04:56Z</time>
      </trkpt>
      <trkpt lat="43.4199" lon="6.61101">
        <ele>197.4</ele>
        <time>2014-02-09T11:08:41Z</time>
      </trkpt>
      <trkpt lat="43.4199" lon="6.611">
        <ele>197.5</ele>
        <time>2014-02-09T11:08:42Z</time>
      </trkpt>
      <trkpt lat="43.41987" lon="6.61077">
        <ele>196.8</ele>
        <time>2014-02-09T11:09:13Z</time>
      </trkpt>
      <trkpt lat="43.41989" lon="6.61066">
        <ele>196.9</ele>
        <time>2014-02-09T11:09:24Z</time>
      </trkpt>
      <trkpt lat="43.4199" lon="6.61054">
        <ele>196</ele>
        <time>2014-02-09T11:09:37Z</time>
      </trkpt>
      <trkpt lat="43.41991" lon="6.61043">
        <ele>195.9</ele>
        <time>2014-02-09T11:09:48Z</time>
      </trkpt>
      <trkpt lat="43.41992" lon="6.61041">
        <ele>195.8</ele>
        <time>2014-02-09T11:09:49Z</time>
      </trkpt>
      <trkpt lat="43.41996" lon="6.6102">
        <ele>193.7</ele>
        <time>2014-02-09T11:10:11Z</time>
      </trkpt>
      <trkpt lat="43.42" lon="6.6101">
        <ele>192.5</ele>
        <time>2014-02-09T11:10:21Z</time>
      </trkpt>
      <trkpt lat="43.42002" lon="6.60999">
        <ele>191.9</ele>
        <time>2014-02-09T11:10:29Z</time>
      </trkpt>
      <trkpt lat="43.42005" lon="6.60988">
        <ele>189.6</ele>
        <time>2014-02-09T11:10:43Z</time>
      </trkpt>
      <trkpt lat="43.42005" lon="6.60976">
        <ele>188.8</ele>
        <time>2014-02-09T11:11:10Z</time>
      </trkpt>
      <trkpt lat="43.42005" lon="6.60975">
        <ele>188.6</ele>
        <time>2014-02-09T11:11:11Z</time>
      </trkpt>
      <trkpt lat="43.41999" lon="6.60955">
        <ele>185.9</ele>
        <time>2014-02-09T11:11:37Z</time>
      </trkpt>
      <trkpt lat="43.41991" lon="6.60957">
        <ele>185.5</ele>
        <time>2014-02-09T11:11:44Z</time>
      </trkpt>
      <trkpt lat="43.41982" lon="6.60959">
        <ele>185.5</ele>
        <time>2014-02-09T11:11:52Z</time>
      </trkpt>
      <trkpt lat="43.41984" lon="6.6097">
        <ele>185.7</ele>
        <time>2014-02-09T11:12:03Z</time>
      </trkpt>
      <trkpt lat="43.41994" lon="6.60968">
        <ele>182.6</ele>
        <time>2014-02-09T12:05:38Z</time>
      </trkpt>
      <trkpt lat="43.42005" lon="6.60953">
        <ele>183</ele>
        <time>2014-02-09T12:05:55Z</time>
      </trkpt>
      <trkpt lat="43.42012" lon="6.60949">
        <ele>182.7</ele>
        <time>2014-02-09T12:06:04Z</time>
      </trkpt>
      <trkpt lat="43.4202" lon="6.60943">
        <ele>182.3</ele>
        <time>2014-02-09T12:06:11Z</time>
      </trkpt>
      <trkpt lat="43.42027" lon="6.60938">
        <ele>182.3</ele>
        <time>2014-02-09T12:06:19Z</time>
      </trkpt>
      <trkpt lat="43.42036" lon="6.60934">
        <ele>181.4</ele>
        <time>2014-02-09T12:06:28Z</time>
      </trkpt>
      <trkpt lat="43.42044" lon="6.60931">
        <ele>180.6</ele>
        <time>2014-02-09T12:06:36Z</time>
      </trkpt>
      <trkpt lat="43.42052" lon="6.60928">
        <ele>180.2</ele>
        <time>2014-02-09T12:06:43Z</time>
      </trkpt>
      <trkpt lat="43.42053" lon="6.60927">
        <ele>180.2</ele>
        <time>2014-02-09T12:06:44Z</time>
      </trkpt>
      <trkpt lat="43.42068" lon="6.60917">
        <ele>179.5</ele>
        <time>2014-02-09T12:06:59Z</time>
      </trkpt>
      <trkpt lat="43.42075" lon="6.6091">
        <ele>179.3</ele>
        <time>2014-02-09T12:07:06Z</time>
      </trkpt>
      <trkpt lat="43.42082" lon="6.60903">
        <ele>178.6</ele>
        <time>2014-02-09T12:07:11Z</time>
      </trkpt>
      <trkpt lat="43.42088" lon="6.60895">
        <ele>178.4</ele>
        <time>2014-02-09T12:07:19Z</time>
      </trkpt>
      <trkpt lat="43.42095" lon="6.60888">
        <ele>178.6</ele>
        <time>2014-02-09T12:07:27Z</time>
      </trkpt>
      <trkpt lat="43.42101" lon="6.6088">
        <ele>178.2</ele>
        <time>2014-02-09T12:07:34Z</time>
      </trkpt>
      <trkpt lat="43.42108" lon="6.60873">
        <ele>177.8</ele>
        <time>2014-02-09T12:07:40Z</time>
      </trkpt>
      <trkpt lat="43.42113" lon="6.60865">
        <ele>177.2</ele>
        <time>2014-02-09T12:07:46Z</time>
      </trkpt>
      <trkpt lat="43.42114" lon="6.60863">
        <ele>177.1</ele>
        <time>2014-02-09T12:07:47Z</time>
      </trkpt>
      <trkpt lat="43.4212" lon="6.60844">
        <ele>176.7</ele>
        <time>2014-02-09T12:08:00Z</time>
      </trkpt>
      <trkpt lat="43.42126" lon="6.60836">
        <ele>176.5</ele>
        <time>2014-02-09T12:08:06Z</time>
      </trkpt>
      <trkpt lat="43.42131" lon="6.60826">
        <ele>176.3</ele>
        <time>2014-02-09T12:08:16Z</time>
      </trkpt>
      <trkpt lat="43.42134" lon="6.60815">
        <ele>176.4</ele>
        <time>2014-02-09T12:08:22Z</time>
      </trkpt>
      <trkpt lat="43.42139" lon="6.60807">
        <ele>176</ele>
        <time>2014-02-09T12:08:30Z</time>
      </trkpt>
      <trkpt lat="43.42144" lon="6.60798">
        <ele>174.9</ele>
        <time>2014-02-09T12:08:37Z</time>
      </trkpt>
      <trkpt lat="43.42149" lon="6.6079">
        <ele>174.8</ele>
        <time>2014-02-09T12:08:44Z</time>
      </trkpt>
      <trkpt lat="43.42155" lon="6.60781">
        <ele>174.8</ele>
        <time>2014-02-09T12:08:51Z</time>
      </trkpt>
      <trkpt lat="43.42156" lon="6.6078">
        <ele>174.6</ele>
        <time>2014-02-09T12:08:52Z</time>
      </trkpt>
      <trkpt lat="43.42167" lon="6.60766">
        <ele>173.9</ele>
        <time>2014-02-09T12:09:05Z</time>
      </trkpt>
      <trkpt lat="43.42175" lon="6.60761">
        <ele>173.9</ele>
        <time>2014-02-09T12:09:11Z</time>
      </trkpt>
      <trkpt lat="43.42181" lon="6.60752">
        <ele>174.2</ele>
        <time>2014-02-09T12:09:19Z</time>
      </trkpt>
      <trkpt lat="43.42186" lon="6.60743">
        <ele>173.5</ele>
        <time>2014-02-09T12:09:24Z</time>
      </trkpt>
      <trkpt lat="43.42192" lon="6.60736">
        <ele>174</ele>
        <time>2014-02-09T12:09:31Z</time>
      </trkpt>
      <trkpt lat="43.42199" lon="6.6073">
        <ele>173.7</ele>
        <time>2014-02-09T12:09:38Z</time>
      </trkpt>
      <trkpt lat="43.42204" lon="6.60721">
        <ele>174</ele>
        <time>2014-02-09T12:09:44Z</time>
      </trkpt>
      <trkpt lat="43.4221" lon="6.60711">
        <ele>173.4</ele>
        <time>2014-02-09T12:09:51Z</time>
      </trkpt>
      <trkpt lat="43.42215" lon="6.60702">
        <ele>174.4</ele>
        <time>2014-02-09T12:09:59Z</time>
      </trkpt>
      <trkpt lat="43.42216" lon="6.60699">
        <ele>174.5</ele>
        <time>2014-02-09T12:10:00Z</time>
      </trkpt>
      <trkpt lat="43.42226" lon="6.60683">
        <ele>174.3</ele>
        <time>2014-02-09T12:10:12Z</time>
      </trkpt>
      <trkpt lat="43.42232" lon="6.60675">
        <ele>173.8</ele>
        <time>2014-02-09T12:10:20Z</time>
      </trkpt>
      <trkpt lat="43.4224" lon="6.60671">
        <ele>174.2</ele>
        <time>2014-02-09T12:10:28Z</time>
      </trkpt>
      <trkpt lat="43.42249" lon="6.60668">
        <ele>173.9</ele>
        <time>2014-02-09T12:10:36Z</time>
      </trkpt>
      <trkpt lat="43.42256" lon="6.60661">
        <ele>173.6</ele>
        <time>2014-02-09T12:10:45Z</time>
      </trkpt>
      <trkpt lat="43.42263" lon="6.60657">
        <ele>172.7</ele>
        <time>2014-02-09T12:10:54Z</time>
      </trkpt>
      <trkpt lat="43.42271" lon="6.60652">
        <ele>172.4</ele>
        <time>2014-02-09T12:11:01Z</time>
      </trkpt>
      <trkpt lat="43.42272" lon="6.60652">
        <ele>172.6</ele>
        <time>2014-02-09T12:11:02Z</time>
      </trkpt>
      <trkpt lat="43.42286" lon="6.60644">
        <ele>172</ele>
        <time>2014-02-09T12:11:17Z</time>
      </trkpt>
      <trkpt lat="43.42294" lon="6.60642">
        <ele>170.9</ele>
        <time>2014-02-09T12:11:26Z</time>
      </trkpt>
      <trkpt lat="43.42302" lon="6.60643">
        <ele>170.4</ele>
        <time>2014-02-09T12:11:35Z</time>
      </trkpt>
      <trkpt lat="43.42311" lon="6.60645">
        <ele>169.5</ele>
        <time>2014-02-09T12:11:44Z</time>
      </trkpt>
      <trkpt lat="43.42319" lon="6.60649">
        <ele>168.5</ele>
        <time>2014-02-09T12:11:56Z</time>
      </trkpt>
      <trkpt lat="43.42326" lon="6.60654">
        <ele>168</ele>
        <time>2014-02-09T12:12:03Z</time>
      </trkpt>
      <trkpt lat="43.42327" lon="6.60655">
        <ele>167.9</ele>
        <time>2014-02-09T12:12:04Z</time>
      </trkpt>
      <trkpt lat="43.4234" lon="6.60666">
        <ele>166.4</ele>
        <time>2014-02-09T12:12:19Z</time>
      </trkpt>
      <trkpt lat="43.42347" lon="6.6067">
        <ele>165.1</ele>
        <time>2014-02-09T12:12:25Z</time>
      </trkpt>
      <trkpt lat="43.42351" lon="6.6068">
        <ele>163.9</ele>
        <time>2014-02-09T12:12:33Z</time>
      </trkpt>
      <trkpt lat="43.4235" lon="6.60692">
        <ele>162.1</ele>
        <time>2014-02-09T12:12:41Z</time>
      </trkpt>
      <trkpt lat="43.42348" lon="6.60704">
        <ele>160.5</ele>
        <time>2014-02-09T12:12:50Z</time>
      </trkpt>
      <trkpt lat="43.42352" lon="6.60716">
        <ele>160</ele>
        <time>2014-02-09T12:12:59Z</time>
      </trkpt>
      <trkpt lat="43.42359" lon="6.6072">
        <ele>159.4</ele>
        <time>2014-02-09T12:13:05Z</time>
      </trkpt>
      <trkpt lat="43.42361" lon="6.60721">
        <ele>159.4</ele>
        <time>2014-02-09T12:13:06Z</time>
      </trkpt>
      <trkpt lat="43.42374" lon="6.60731">
        <ele>158.4</ele>
        <time>2014-02-09T12:13:18Z</time>
      </trkpt>
      <trkpt lat="43.42382" lon="6.60736">
        <ele>157</ele>
        <time>2014-02-09T12:13:25Z</time>
      </trkpt>
      <trkpt lat="43.4239" lon="6.60735">
        <ele>155.9</ele>
        <time>2014-02-09T12:13:31Z</time>
      </trkpt>
      <trkpt lat="43.42398" lon="6.60737">
        <ele>155.3</ele>
        <time>2014-02-09T12:13:37Z</time>
      </trkpt>
      <trkpt lat="43.42406" lon="6.60737">
        <ele>154.6</ele>
        <time>2014-02-09T12:13:44Z</time>
      </trkpt>
      <trkpt lat="43.42415" lon="6.60738">
        <ele>154.6</ele>
        <time>2014-02-09T12:13:52Z</time>
      </trkpt>
      <trkpt lat="43.42423" lon="6.60737">
        <ele>154.3</ele>
        <time>2014-02-09T12:13:58Z</time>
      </trkpt>
      <trkpt lat="43.42431" lon="6.60739">
        <ele>153.4</ele>
        <time>2014-02-09T12:14:06Z</time>
      </trkpt>
      <trkpt lat="43.42432" lon="6.60739">
        <ele>153.3</ele>
        <time>2014-02-09T12:14:07Z</time>
      </trkpt>
      <trkpt lat="43.42448" lon="6.60742">
        <ele>152.7</ele>
        <time>2014-02-09T12:14:21Z</time>
      </trkpt>
      <trkpt lat="43.42456" lon="6.60746">
        <ele>152.8</ele>
        <time>2014-02-09T12:14:28Z</time>
      </trkpt>
      <trkpt lat="43.42464" lon="6.60753">
        <ele>151.3</ele>
        <time>2014-02-09T12:14:36Z</time>
      </trkpt>
      <trkpt lat="43.4247" lon="6.60761">
        <ele>151.2</ele>
        <time>2014-02-09T12:14:46Z</time>
      </trkpt>
      <trkpt lat="43.42477" lon="6.60767">
        <ele>150.5</ele>
        <time>2014-02-09T12:14:54Z</time>
      </trkpt>
      <trkpt lat="43.42485" lon="6.60769">
        <ele>150.4</ele>
        <time>2014-02-09T12:15:02Z</time>
      </trkpt>
      <trkpt lat="43.42492" lon="6.60775">
        <ele>149.9</ele>
        <time>2014-02-09T12:15:08Z</time>
      </trkpt>
      <trkpt lat="43.42493" lon="6.60777">
        <ele>149.7</ele>
        <time>2014-02-09T12:15:09Z</time>
      </trkpt>
      <trkpt lat="43.42509" lon="6.60778">
        <ele>150.3</ele>
        <time>2014-02-09T12:15:21Z</time>
      </trkpt>
      <trkpt lat="43.42518" lon="6.60779">
        <ele>149.8</ele>
        <time>2014-02-09T12:15:30Z</time>
      </trkpt>
      <trkpt lat="43.42526" lon="6.60783">
        <ele>149.8</ele>
        <time>2014-02-09T12:16:02Z</time>
      </trkpt>
      <trkpt lat="43.42533" lon="6.60789">
        <ele>150.4</ele>
        <time>2014-02-09T12:16:09Z</time>
      </trkpt>
      <trkpt lat="43.42534" lon="6.60789">
        <ele>150.5</ele>
        <time>2014-02-09T12:16:10Z</time>
      </trkpt>
      <trkpt lat="43.42547" lon="6.60775">
        <ele>143</ele>
        <time>2014-02-09T12:17:09Z</time>
      </trkpt>
      <trkpt lat="43.42547" lon="6.60775">
        <ele>142.6</ele>
        <time>2014-02-09T12:17:10Z</time>
      </trkpt>
      <trkpt lat="43.42557" lon="6.60792">
        <ele>138.6</ele>
        <time>2014-02-09T12:17:43Z</time>
      </trkpt>
      <trkpt lat="43.42563" lon="6.60784">
        <ele>134.9</ele>
        <time>2014-02-09T12:18:05Z</time>
      </trkpt>
      <trkpt lat="43.42564" lon="6.60772">
        <ele>134.6</ele>
        <time>2014-02-09T12:18:13Z</time>
      </trkpt>
      <trkpt lat="43.42564" lon="6.60772">
        <ele>134.5</ele>
        <time>2014-02-09T12:18:14Z</time>
      </trkpt>
      <trkpt lat="43.42564" lon="6.6075">
        <ele>130</ele>
        <time>2014-02-09T12:18:35Z</time>
      </trkpt>
      <trkpt lat="43.42568" lon="6.60759">
        <ele>127.5</ele>
        <time>2014-02-09T12:19:15Z</time>
      </trkpt>
      <trkpt lat="43.42569" lon="6.60762">
        <ele>127.1</ele>
        <time>2014-02-09T12:19:16Z</time>
      </trkpt>
      <trkpt lat="43.42574" lon="6.6078">
        <ele>125.2</ele>
        <time>2014-02-09T12:19:30Z</time>
      </trkpt>
      <trkpt lat="43.42578" lon="6.60791">
        <ele>124.4</ele>
        <time>2014-02-09T12:19:36Z</time>
      </trkpt>
      <trkpt lat="43.42583" lon="6.608">
        <ele>124</ele>
        <time>2014-02-09T12:19:48Z</time>
      </trkpt>
      <trkpt lat="43.42587" lon="6.60811">
        <ele>123</ele>
        <time>2014-02-09T12:20:01Z</time>
      </trkpt>
      <trkpt lat="43.4259" lon="6.60822">
        <ele>121.4</ele>
        <time>2014-02-09T12:20:14Z</time>
      </trkpt>
      <trkpt lat="43.42595" lon="6.60831">
        <ele>120.7</ele>
        <time>2014-02-09T12:20:25Z</time>
      </trkpt>
      <trkpt lat="43.42596" lon="6.60832">
        <ele>120.7</ele>
        <time>2014-02-09T12:20:26Z</time>
      </trkpt>
      <trkpt lat="43.426" lon="6.60853">
        <ele>119.3</ele>
        <time>2014-02-09T12:20:40Z</time>
      </trkpt>
      <trkpt lat="43.42605" lon="6.60844">
        <ele>117.5</ele>
        <time>2014-02-09T12:21:20Z</time>
      </trkpt>
      <trkpt lat="43.42603" lon="6.60834">
        <ele>116.9</ele>
        <time>2014-02-09T12:21:29Z</time>
      </trkpt>
      <trkpt lat="43.42604" lon="6.60832">
        <ele>117</ele>
        <time>2014-02-09T12:21:30Z</time>
      </trkpt>
      <trkpt lat="43.42604" lon="6.60811">
        <ele>116.2</ele>
        <time>2014-02-09T12:21:44Z</time>
      </trkpt>
      <trkpt lat="43.42606" lon="6.60802">
        <ele>115.7</ele>
        <time>2014-02-09T12:21:48Z</time>
      </trkpt>
      <trkpt lat="43.42607" lon="6.60791">
        <ele>114.7</ele>
        <time>2014-02-09T12:21:55Z</time>
      </trkpt>
      <trkpt lat="43.42608" lon="6.60779">
        <ele>113.3</ele>
        <time>2014-02-09T12:22:05Z</time>
      </trkpt>
      <trkpt lat="43.42612" lon="6.6077">
        <ele>112.7</ele>
        <time>2014-02-09T12:22:11Z</time>
      </trkpt>
      <trkpt lat="43.42614" lon="6.6076">
        <ele>111.4</ele>
        <time>2014-02-09T12:22:17Z</time>
      </trkpt>
      <trkpt lat="43.42617" lon="6.6075">
        <ele>110.9</ele>
        <time>2014-02-09T12:22:23Z</time>
      </trkpt>
      <trkpt lat="43.42622" lon="6.6074">
        <ele>109.1</ele>
        <time>2014-02-09T12:22:31Z</time>
      </trkpt>
      <trkpt lat="43.42623" lon="6.60739">
        <ele>109</ele>
        <time>2014-02-09T12:22:32Z</time>
      </trkpt>
      <trkpt lat="43.42634" lon="6.60725">
        <ele>106.4</ele>
        <time>2014-02-09T12:22:51Z</time>
      </trkpt>
      <trkpt lat="43.42641" lon="6.60718">
        <ele>105.3</ele>
        <time>2014-02-09T12:23:00Z</time>
      </trkpt>
      <trkpt lat="43.42648" lon="6.60712">
        <ele>104</ele>
        <time>2014-02-09T12:23:10Z</time>
      </trkpt>
      <trkpt lat="43.42655" lon="6.60708">
        <ele>102.8</ele>
        <time>2014-02-09T12:23:19Z</time>
      </trkpt>
      <trkpt lat="43.42663" lon="6.60711">
        <ele>101.8</ele>
        <time>2014-02-09T12:23:27Z</time>
      </trkpt>
      <trkpt lat="43.42658" lon="6.60721">
        <ele>100.5</ele>
        <time>2014-02-09T12:23:50Z</time>
      </trkpt>
      <trkpt lat="43.42658" lon="6.60721">
        <ele>100.3</ele>
        <time>2014-02-09T12:23:51Z</time>
      </trkpt>
      <trkpt lat="43.42649" lon="6.60741">
        <ele>98.9</ele>
        <time>2014-02-09T12:24:11Z</time>
      </trkpt>
      <trkpt lat="43.42646" lon="6.60751">
        <ele>97.5</ele>
        <time>2014-02-09T12:24:23Z</time>
      </trkpt>
      <trkpt lat="43.42644" lon="6.60763">
        <ele>96.7</ele>
        <time>2014-02-09T12:24:32Z</time>
      </trkpt>
      <trkpt lat="43.42648" lon="6.60772">
        <ele>96</ele>
        <time>2014-02-09T12:24:41Z</time>
      </trkpt>
      <trkpt lat="43.42654" lon="6.6078">
        <ele>95.4</ele>
        <time>2014-02-09T12:24:47Z</time>
      </trkpt>
      <trkpt lat="43.42661" lon="6.60786">
        <ele>95.3</ele>
        <time>2014-02-09T12:24:53Z</time>
      </trkpt>
      <trkpt lat="43.42662" lon="6.60787">
        <ele>95.3</ele>
        <time>2014-02-09T12:24:54Z</time>
      </trkpt>
      <trkpt lat="43.42673" lon="6.60803">
        <ele>94.2</ele>
        <time>2014-02-09T12:25:11Z</time>
      </trkpt>
      <trkpt lat="43.42679" lon="6.60811">
        <ele>94.4</ele>
        <time>2014-02-09T12:25:18Z</time>
      </trkpt>
      <trkpt lat="43.42683" lon="6.60822">
        <ele>93.2</ele>
        <time>2014-02-09T12:25:31Z</time>
      </trkpt>
      <trkpt lat="43.42682" lon="6.60833">
        <ele>91.7</ele>
        <time>2014-02-09T12:25:41Z</time>
      </trkpt>
      <trkpt lat="43.42683" lon="6.60845">
        <ele>90</ele>
        <time>2014-02-09T12:25:51Z</time>
      </trkpt>
      <trkpt lat="43.4269" lon="6.60853">
        <ele>88.3</ele>
        <time>2014-02-09T12:26:05Z</time>
      </trkpt>
      <trkpt lat="43.4269" lon="6.60853">
        <ele>88.2</ele>
        <time>2014-02-09T12:26:06Z</time>
      </trkpt>
      <trkpt lat="43.42704" lon="6.60841">
        <ele>85.3</ele>
        <time>2014-02-09T12:26:28Z</time>
      </trkpt>
      <trkpt lat="43.42712" lon="6.60837">
        <ele>84.8</ele>
        <time>2014-02-09T12:26:40Z</time>
      </trkpt>
      <trkpt lat="43.4272" lon="6.60831">
        <ele>82.8</ele>
        <time>2014-02-09T12:26:52Z</time>
      </trkpt>
      <trkpt lat="43.42727" lon="6.60824">
        <ele>82.1</ele>
        <time>2014-02-09T12:27:09Z</time>
      </trkpt>
      <trkpt lat="43.42728" lon="6.60823">
        <ele>82.1</ele>
        <time>2014-02-09T12:27:10Z</time>
      </trkpt>
      <trkpt lat="43.42736" lon="6.60805">
        <ele>80.7</ele>
        <time>2014-02-09T12:27:26Z</time>
      </trkpt>
      <trkpt lat="43.42733" lon="6.60794">
        <ele>80.1</ele>
        <time>2014-02-09T12:27:32Z</time>
      </trkpt>
      <trkpt lat="43.4273" lon="6.60782">
        <ele>78.8</ele>
        <time>2014-02-09T12:27:46Z</time>
      </trkpt>
      <trkpt lat="43.42737" lon="6.60776">
        <ele>77.9</ele>
        <time>2014-02-09T12:27:56Z</time>
      </trkpt>
      <trkpt lat="43.42741" lon="6.60766">
        <ele>77.9</ele>
        <time>2014-02-09T12:28:06Z</time>
      </trkpt>
      <trkpt lat="43.42748" lon="6.60758">
        <ele>78.9</ele>
        <time>2014-02-09T12:28:16Z</time>
      </trkpt>
      <trkpt lat="43.42748" lon="6.60757">
        <ele>78.6</ele>
        <time>2014-02-09T12:28:17Z</time>
      </trkpt>
      <trkpt lat="43.42764" lon="6.6075">
        <ele>75.3</ele>
        <time>2014-02-09T12:28:41Z</time>
      </trkpt>
      <trkpt lat="43.42771" lon="6.60741">
        <ele>72.8</ele>
        <time>2014-02-09T12:28:54Z</time>
      </trkpt>
      <trkpt lat="43.42777" lon="6.60734">
        <ele>70.7</ele>
        <time>2014-02-09T12:29:09Z</time>
      </trkpt>
      <trkpt lat="43.42779" lon="6.60723">
        <ele>70.5</ele>
        <time>2014-02-09T12:29:17Z</time>
      </trkpt>
      <trkpt lat="43.4278" lon="6.60721">
        <ele>70.4</ele>
        <time>2014-02-09T12:29:18Z</time>
      </trkpt>
      <trkpt lat="43.42795" lon="6.60711">
        <ele>69.8</ele>
        <time>2014-02-09T12:29:36Z</time>
      </trkpt>
      <trkpt lat="43.42802" lon="6.60706">
        <ele>67.9</ele>
        <time>2014-02-09T12:29:48Z</time>
      </trkpt>
      <trkpt lat="43.4281" lon="6.607">
        <ele>67.7</ele>
        <time>2014-02-09T12:29:54Z</time>
      </trkpt>
      <trkpt lat="43.42817" lon="6.60696">
        <ele>66.4</ele>
        <time>2014-02-09T12:30:02Z</time>
      </trkpt>
      <trkpt lat="43.42825" lon="6.60691">
        <ele>65.1</ele>
        <time>2014-02-09T12:30:10Z</time>
      </trkpt>
      <trkpt lat="43.42834" lon="6.60689">
        <ele>64.2</ele>
        <time>2014-02-09T12:30:23Z</time>
      </trkpt>
      <trkpt lat="43.42834" lon="6.60689">
        <ele>64</ele>
        <time>2014-02-09T12:30:24Z</time>
      </trkpt>
      <trkpt lat="43.42849" lon="6.60683">
        <ele>62.7</ele>
        <time>2014-02-09T12:30:46Z</time>
      </trkpt>
      <trkpt lat="43.42855" lon="6.60675">
        <ele>62.7</ele>
        <time>2014-02-09T12:30:58Z</time>
      </trkpt>
      <trkpt lat="43.42864" lon="6.60672">
        <ele>61.5</ele>
        <time>2014-02-09T12:31:10Z</time>
      </trkpt>
      <trkpt lat="43.42872" lon="6.60672">
        <ele>60.4</ele>
        <time>2014-02-09T12:31:19Z</time>
      </trkpt>
      <trkpt lat="43.4288" lon="6.60674">
        <ele>60</ele>
        <time>2014-02-09T12:31:28Z</time>
      </trkpt>
      <trkpt lat="43.42882" lon="6.60675">
        <ele>60</ele>
        <time>2014-02-09T12:31:29Z</time>
      </trkpt>
      <trkpt lat="43.42896" lon="6.60683">
        <ele>58.5</ele>
        <time>2014-02-09T12:31:45Z</time>
      </trkpt>
      <trkpt lat="43.42903" lon="6.60685">
        <ele>58.1</ele>
        <time>2014-02-09T12:31:54Z</time>
      </trkpt>
      <trkpt lat="43.42911" lon="6.60685">
        <ele>57.4</ele>
        <time>2014-02-09T12:32:00Z</time>
      </trkpt>
      <trkpt lat="43.4292" lon="6.60682">
        <ele>56.5</ele>
        <time>2014-02-09T12:32:08Z</time>
      </trkpt>
      <trkpt lat="43.42928" lon="6.60682">
        <ele>55.2</ele>
        <time>2014-02-09T12:32:17Z</time>
      </trkpt>
      <trkpt lat="43.42936" lon="6.6068">
        <ele>54.1</ele>
        <time>2014-02-09T12:32:27Z</time>
      </trkpt>
      <trkpt lat="43.42943" lon="6.60685">
        <ele>53.2</ele>
        <time>2014-02-09T12:32:36Z</time>
      </trkpt>
      <trkpt lat="43.42944" lon="6.60686">
        <ele>53</ele>
        <time>2014-02-09T12:32:37Z</time>
      </trkpt>
      <trkpt lat="43.42958" lon="6.60698">
        <ele>51.6</ele>
        <time>2014-02-09T12:33:10Z</time>
      </trkpt>
      <trkpt lat="43.42963" lon="6.60707">
        <ele>51.9</ele>
        <time>2014-02-09T12:33:24Z</time>
      </trkpt>
      <trkpt lat="43.4297" lon="6.60713">
        <ele>52.4</ele>
        <time>2014-02-09T12:33:33Z</time>
      </trkpt>
      <trkpt lat="43.42976" lon="6.60721">
        <ele>53.7</ele>
        <time>2014-02-09T12:33:45Z</time>
      </trkpt>
      <trkpt lat="43.42977" lon="6.60722">
        <ele>53.5</ele>
        <time>2014-02-09T12:33:46Z</time>
      </trkpt>
      <trkpt lat="43.42987" lon="6.60739">
        <ele>53.6</ele>
        <time>2014-02-09T12:34:01Z</time>
      </trkpt>
      <trkpt lat="43.42994" lon="6.60734">
        <ele>53.2</ele>
        <time>2014-02-09T12:34:22Z</time>
      </trkpt>
      <trkpt lat="43.43003" lon="6.60732">
        <ele>53.2</ele>
        <time>2014-02-09T12:34:59Z</time>
      </trkpt>
      <trkpt lat="43.43004" lon="6.60731">
        <ele>53.2</ele>
        <time>2014-02-09T12:35:00Z</time>
      </trkpt>
      <trkpt lat="43.43" lon="6.60725">
        <ele>52.2</ele>
        <time>2014-02-09T12:36:05Z</time>
      </trkpt>
      <trkpt lat="43.42999" lon="6.60726">
        <ele>52.1</ele>
        <time>2014-02-09T12:36:06Z</time>
      </trkpt>
      <trkpt lat="43.42984" lon="6.60735">
        <ele>54.1</ele>
        <time>2014-02-09T12:39:59Z</time>
      </trkpt>
      <trkpt lat="43.42984" lon="6.60735">
        <ele>54.2</ele>
        <time>2014-02-09T12:40:00Z</time>
      </trkpt>
      <trkpt lat="43.42982" lon="6.60757">
        <ele>54.7</ele>
        <time>2014-02-09T12:40:36Z</time>
      </trkpt>
      <trkpt lat="43.4298" lon="6.60768">
        <ele>54.8</ele>
        <time>2014-02-09T12:40:47Z</time>
      </trkpt>
      <trkpt lat="43.42982" lon="6.6078">
        <ele>54.8</ele>
        <time>2014-02-09T12:41:03Z</time>
      </trkpt>
      <trkpt lat="43.42981" lon="6.60782">
        <ele>54.6</ele>
        <time>2014-02-09T12:41:04Z</time>
      </trkpt>
      <trkpt lat="43.42983" lon="6.60803">
        <ele>55.2</ele>
        <time>2014-02-09T12:41:21Z</time>
      </trkpt>
      <trkpt lat="43.42984" lon="6.60814">
        <ele>56.2</ele>
        <time>2014-02-09T12:41:30Z</time>
      </trkpt>
      <trkpt lat="43.42986" lon="6.60826">
        <ele>57</ele>
        <time>2014-02-09T12:41:36Z</time>
      </trkpt>
      <trkpt lat="43.42987" lon="6.60837">
        <ele>58.8</ele>
        <time>2014-02-09T12:41:44Z</time>
      </trkpt>
      <trkpt lat="43.4299" lon="6.60849">
        <ele>60.1</ele>
        <time>2014-02-09T12:41:53Z</time>
      </trkpt>
      <trkpt lat="43.42994" lon="6.6086">
        <ele>61</ele>
        <time>2014-02-09T12:42:03Z</time>
      </trkpt>
      <trkpt lat="43.42996" lon="6.60871">
        <ele>61.7</ele>
        <time>2014-02-09T12:42:08Z</time>
      </trkpt>
      <trkpt lat="43.42997" lon="6.60872">
        <ele>61.8</ele>
        <time>2014-02-09T12:42:09Z</time>
      </trkpt>
      <trkpt lat="43.43002" lon="6.60893">
        <ele>64.1</ele>
        <time>2014-02-09T12:42:40Z</time>
      </trkpt>
      <trkpt lat="43.43004" lon="6.60904">
        <ele>65</ele>
        <time>2014-02-09T12:42:48Z</time>
      </trkpt>
      <trkpt lat="43.43007" lon="6.60914">
        <ele>65.8</ele>
        <time>2014-02-09T12:42:55Z</time>
      </trkpt>
      <trkpt lat="43.43009" lon="6.60925">
        <ele>65.5</ele>
        <time>2014-02-09T12:43:02Z</time>
      </trkpt>
      <trkpt lat="43.43014" lon="6.60933">
        <ele>65.8</ele>
        <time>2014-02-09T12:43:08Z</time>
      </trkpt>
      <trkpt lat="43.43019" lon="6.60943">
        <ele>65.8</ele>
        <time>2014-02-09T12:43:17Z</time>
      </trkpt>
      <trkpt lat="43.43019" lon="6.60944">
        <ele>66</ele>
        <time>2014-02-09T12:43:18Z</time>
      </trkpt>
      <trkpt lat="43.43027" lon="6.60963">
        <ele>66.1</ele>
        <time>2014-02-09T12:43:31Z</time>
      </trkpt>
      <trkpt lat="43.43033" lon="6.60972">
        <ele>67.2</ele>
        <time>2014-02-09T12:43:39Z</time>
      </trkpt>
      <trkpt lat="43.43038" lon="6.60982">
        <ele>67.6</ele>
        <time>2014-02-09T12:43:46Z</time>
      </trkpt>
      <trkpt lat="43.4304" lon="6.60993">
        <ele>68.3</ele>
        <time>2014-02-09T12:43:53Z</time>
      </trkpt>
      <trkpt lat="43.43045" lon="6.61003">
        <ele>69.1</ele>
        <time>2014-02-09T12:44:01Z</time>
      </trkpt>
      <trkpt lat="43.43049" lon="6.61012">
        <ele>70.1</ele>
        <time>2014-02-09T12:44:08Z</time>
      </trkpt>
      <trkpt lat="43.43052" lon="6.61022">
        <ele>70.9</ele>
        <time>2014-02-09T12:44:16Z</time>
      </trkpt>
      <trkpt lat="43.43059" lon="6.61028">
        <ele>71.7</ele>
        <time>2014-02-09T12:44:24Z</time>
      </trkpt>
      <trkpt lat="43.4306" lon="6.61029">
        <ele>71.6</ele>
        <time>2014-02-09T12:44:25Z</time>
      </trkpt>
      <trkpt lat="43.43075" lon="6.61035">
        <ele>72.2</ele>
        <time>2014-02-09T12:44:42Z</time>
      </trkpt>
      <trkpt lat="43.43082" lon="6.61042">
        <ele>70.1</ele>
        <time>2014-02-09T12:44:57Z</time>
      </trkpt>
      <trkpt lat="43.43085" lon="6.61031">
        <ele>71.2</ele>
        <time>2014-02-09T12:48:30Z</time>
      </trkpt>
      <trkpt lat="43.43085" lon="6.61031">
        <ele>71.4</ele>
        <time>2014-02-09T12:48:31Z</time>
      </trkpt>
      <trkpt lat="43.43068" lon="6.61029">
        <ele>72.2</ele>
        <time>2014-02-09T12:49:22Z</time>
      </trkpt>
      <trkpt lat="43.43064" lon="6.61019">
        <ele>72.1</ele>
        <time>2014-02-09T12:50:04Z</time>
      </trkpt>
      <trkpt lat="43.43064" lon="6.61018">
        <ele>72</ele>
        <time>2014-02-09T12:50:05Z</time>
      </trkpt>
      <trkpt lat="43.43055" lon="6.60999">
        <ele>70.4</ele>
        <time>2014-02-09T12:50:24Z</time>
      </trkpt>
      <trkpt lat="43.4305" lon="6.60989">
        <ele>69</ele>
        <time>2014-02-09T12:50:33Z</time>
      </trkpt>
      <trkpt lat="43.43047" lon="6.60978">
        <ele>68.6</ele>
        <time>2014-02-09T12:50:40Z</time>
      </trkpt>
      <trkpt lat="43.43044" lon="6.60968">
        <ele>67.5</ele>
        <time>2014-02-09T12:50:48Z</time>
      </trkpt>
      <trkpt lat="43.4304" lon="6.60959">
        <ele>66.5</ele>
        <time>2014-02-09T12:50:55Z</time>
      </trkpt>
      <trkpt lat="43.43034" lon="6.6095">
        <ele>65.6</ele>
        <time>2014-02-09T12:51:02Z</time>
      </trkpt>
      <trkpt lat="43.43028" lon="6.60941">
        <ele>65.4</ele>
        <time>2014-02-09T12:51:10Z</time>
      </trkpt>
      <trkpt lat="43.43027" lon="6.6094">
        <ele>65.2</ele>
        <time>2014-02-09T12:51:11Z</time>
      </trkpt>
      <trkpt lat="43.43019" lon="6.60922">
        <ele>64</ele>
        <time>2014-02-09T12:51:29Z</time>
      </trkpt>
      <trkpt lat="43.43015" lon="6.60911">
        <ele>64.1</ele>
        <time>2014-02-09T12:51:37Z</time>
      </trkpt>
      <trkpt lat="43.43014" lon="6.60899">
        <ele>64.1</ele>
        <time>2014-02-09T12:51:44Z</time>
      </trkpt>
      <trkpt lat="43.4301" lon="6.60889">
        <ele>62.6</ele>
        <time>2014-02-09T12:51:52Z</time>
      </trkpt>
      <trkpt lat="43.43007" lon="6.60879">
        <ele>61.7</ele>
        <time>2014-02-09T12:51:59Z</time>
      </trkpt>
      <trkpt lat="43.43003" lon="6.60869">
        <ele>60.9</ele>
        <time>2014-02-09T12:52:07Z</time>
      </trkpt>
      <trkpt lat="43.43" lon="6.6086">
        <ele>60</ele>
        <time>2014-02-09T12:52:14Z</time>
      </trkpt>
      <trkpt lat="43.43" lon="6.60858">
        <ele>59.9</ele>
        <time>2014-02-09T12:52:15Z</time>
      </trkpt>
      <trkpt lat="43.42994" lon="6.60838">
        <ele>56.8</ele>
        <time>2014-02-09T12:52:29Z</time>
      </trkpt>
      <trkpt lat="43.42991" lon="6.60827">
        <ele>55.7</ele>
        <time>2014-02-09T12:52:37Z</time>
      </trkpt>
      <trkpt lat="43.42989" lon="6.60816">
        <ele>55</ele>
        <time>2014-02-09T12:52:46Z</time>
      </trkpt>
      <trkpt lat="43.42988" lon="6.60805">
        <ele>53.8</ele>
        <time>2014-02-09T12:52:54Z</time>
      </trkpt>
      <trkpt lat="43.42987" lon="6.60794">
        <ele>53.2</ele>
        <time>2014-02-09T12:53:01Z</time>
      </trkpt>
      <trkpt lat="43.42985" lon="6.60782">
        <ele>52.6</ele>
        <time>2014-02-09T12:53:08Z</time>
      </trkpt>
      <trkpt lat="43.42986" lon="6.60771">
        <ele>51.4</ele>
        <time>2014-02-09T12:53:16Z</time>
      </trkpt>
      <trkpt lat="43.42987" lon="6.6077">
        <ele>50.9</ele>
        <time>2014-02-09T12:53:17Z</time>
      </trkpt>
      <trkpt lat="43.42991" lon="6.6075">
        <ele>49.5</ele>
        <time>2014-02-09T12:53:33Z</time>
      </trkpt>
      <trkpt lat="43.42995" lon="6.6074">
        <ele>50.3</ele>
        <time>2014-02-09T12:53:42Z</time>
      </trkpt>
      <trkpt lat="43.43002" lon="6.60733">
        <ele>50.2</ele>
        <time>2014-02-09T12:53:49Z</time>
      </trkpt>
      <trkpt lat="43.43009" lon="6.60726">
        <ele>50.3</ele>
        <time>2014-02-09T12:53:58Z</time>
      </trkpt>
      <trkpt lat="43.43017" lon="6.60721">
        <ele>49.8</ele>
        <time>2014-02-09T12:54:07Z</time>
      </trkpt>
      <trkpt lat="43.43025" lon="6.60719">
        <ele>50.4</ele>
        <time>2014-02-09T12:54:16Z</time>
      </trkpt>
      <trkpt lat="43.43033" lon="6.60719">
        <ele>49.5</ele>
        <time>2014-02-09T12:54:23Z</time>
      </trkpt>
      <trkpt lat="43.43034" lon="6.60719">
        <ele>49.4</ele>
        <time>2014-02-09T12:54:24Z</time>
      </trkpt>
      <trkpt lat="43.43049" lon="6.60727">
        <ele>49.8</ele>
        <time>2014-02-09T12:54:38Z</time>
      </trkpt>
      <trkpt lat="43.43057" lon="6.60733">
        <ele>49</ele>
        <time>2014-02-09T12:54:47Z</time>
      </trkpt>
      <trkpt lat="43.43065" lon="6.60738">
        <ele>49.1</ele>
        <time>2014-02-09T12:54:55Z</time>
      </trkpt>
      <trkpt lat="43.43072" lon="6.60743">
        <ele>48.9</ele>
        <time>2014-02-09T12:55:03Z</time>
      </trkpt>
      <trkpt lat="43.4308" lon="6.60749">
        <ele>48.3</ele>
        <time>2014-02-09T12:55:11Z</time>
      </trkpt>
      <trkpt lat="43.43088" lon="6.60753">
        <ele>48.2</ele>
        <time>2014-02-09T12:55:20Z</time>
      </trkpt>
      <trkpt lat="43.43097" lon="6.60755">
        <ele>47.5</ele>
        <time>2014-02-09T12:55:34Z</time>
      </trkpt>
      <trkpt lat="43.43098" lon="6.60755">
        <ele>47.5</ele>
        <time>2014-02-09T12:55:35Z</time>
      </trkpt>
      <trkpt lat="43.43099" lon="6.60732">
        <ele>46</ele>
        <time>2014-02-09T12:56:54Z</time>
      </trkpt>
      <trkpt lat="43.431" lon="6.60732">
        <ele>45.9</ele>
        <time>2014-02-09T12:56:55Z</time>
      </trkpt>
      <trkpt lat="43.4309" lon="6.60714">
        <ele>45.8</ele>
        <time>2014-02-09T12:57:43Z</time>
      </trkpt>
      <trkpt lat="43.43094" lon="6.60724">
        <ele>44.5</ele>
        <time>2014-02-09T13:00:04Z</time>
      </trkpt>
      <trkpt lat="43.43095" lon="6.60724">
        <ele>44.3</ele>
        <time>2014-02-09T13:00:05Z</time>
      </trkpt>
      <trkpt lat="43.43101" lon="6.60744">
        <ele>44.9</ele>
        <time>2014-02-09T13:00:29Z</time>
      </trkpt>
      <trkpt lat="43.43109" lon="6.6075">
        <ele>44</ele>
        <time>2014-02-09T13:02:15Z</time>
      </trkpt>
      <trkpt lat="43.4311" lon="6.60749">
        <ele>43.9</ele>
        <time>2014-02-09T13:02:16Z</time>
      </trkpt>
      <trkpt lat="43.43118" lon="6.60745">
        <ele>43.9</ele>
        <time>2014-02-09T13:04:30Z</time>
      </trkpt>
      <trkpt lat="43.43133" lon="6.60742">
        <ele>45</ele>
        <time>2014-02-09T13:05:06Z</time>
      </trkpt>
      <trkpt lat="43.43142" lon="6.60742">
        <ele>45.8</ele>
        <time>2014-02-09T13:05:50Z</time>
      </trkpt>
      <trkpt lat="43.43142" lon="6.60742">
        <ele>45.8</ele>
        <time>2014-02-09T13:05:51Z</time>
      </trkpt>
      <trkpt lat="43.43156" lon="6.60754">
        <ele>48.7</ele>
        <time>2014-02-09T13:06:17Z</time>
      </trkpt>
      <trkpt lat="43.43163" lon="6.60761">
        <ele>49.5</ele>
        <time>2014-02-09T13:06:26Z</time>
      </trkpt>
      <trkpt lat="43.43171" lon="6.60758">
        <ele>51.5</ele>
        <time>2014-02-09T13:06:35Z</time>
      </trkpt>
      <trkpt lat="43.43177" lon="6.60749">
        <ele>52.9</ele>
        <time>2014-02-09T13:06:43Z</time>
      </trkpt>
      <trkpt lat="43.4318" lon="6.60738">
        <ele>53.8</ele>
        <time>2014-02-09T13:06:51Z</time>
      </trkpt>
      <trkpt lat="43.4318" lon="6.60737">
        <ele>53.7</ele>
        <time>2014-02-09T13:06:52Z</time>
      </trkpt>
      <trkpt lat="43.4318" lon="6.60715">
        <ele>55.3</ele>
        <time>2014-02-09T13:07:09Z</time>
      </trkpt>
      <trkpt lat="43.4318" lon="6.60703">
        <ele>55.9</ele>
        <time>2014-02-09T13:07:18Z</time>
      </trkpt>
      <trkpt lat="43.43181" lon="6.60691">
        <ele>57.9</ele>
        <time>2014-02-09T13:07:28Z</time>
      </trkpt>
      <trkpt lat="43.43186" lon="6.60701">
        <ele>60.1</ele>
        <time>2014-02-09T13:07:53Z</time>
      </trkpt>
      <trkpt lat="43.43186" lon="6.60702">
        <ele>60.5</ele>
        <time>2014-02-09T13:07:54Z</time>
      </trkpt>
      <trkpt lat="43.432" lon="6.60712">
        <ele>63.6</ele>
        <time>2014-02-09T13:08:16Z</time>
      </trkpt>
      <trkpt lat="43.43209" lon="6.60708">
        <ele>65.1</ele>
        <time>2014-02-09T13:08:34Z</time>
      </trkpt>
      <trkpt lat="43.43217" lon="6.60705">
        <ele>65.9</ele>
        <time>2014-02-09T13:08:43Z</time>
      </trkpt>
      <trkpt lat="43.43225" lon="6.60702">
        <ele>67.7</ele>
        <time>2014-02-09T13:08:52Z</time>
      </trkpt>
      <trkpt lat="43.43233" lon="6.60699">
        <ele>68.1</ele>
        <time>2014-02-09T13:09:01Z</time>
      </trkpt>
      <trkpt lat="43.43234" lon="6.60699">
        <ele>68.5</ele>
        <time>2014-02-09T13:09:02Z</time>
      </trkpt>
      <trkpt lat="43.4325" lon="6.60698">
        <ele>69.9</ele>
        <time>2014-02-09T13:09:21Z</time>
      </trkpt>
      <trkpt lat="43.43259" lon="6.60701">
        <ele>70.7</ele>
        <time>2014-02-09T13:09:29Z</time>
      </trkpt>
      <trkpt lat="43.43265" lon="6.60708">
        <ele>71.3</ele>
        <time>2014-02-09T13:09:38Z</time>
      </trkpt>
      <trkpt lat="43.43272" lon="6.60717">
        <ele>73</ele>
        <time>2014-02-09T13:09:50Z</time>
      </trkpt>
      <trkpt lat="43.43275" lon="6.60728">
        <ele>72.5</ele>
        <time>2014-02-09T13:10:01Z</time>
      </trkpt>
      <trkpt lat="43.43279" lon="6.60739">
        <ele>73.8</ele>
        <time>2014-02-09T13:10:10Z</time>
      </trkpt>
      <trkpt lat="43.43279" lon="6.6074">
        <ele>73.8</ele>
        <time>2014-02-09T13:10:11Z</time>
      </trkpt>
      <trkpt lat="43.43289" lon="6.60757">
        <ele>76</ele>
        <time>2014-02-09T13:10:28Z</time>
      </trkpt>
      <trkpt lat="43.43295" lon="6.60766">
        <ele>76.7</ele>
        <time>2014-02-09T13:10:37Z</time>
      </trkpt>
      <trkpt lat="43.43302" lon="6.60774">
        <ele>78.1</ele>
        <time>2014-02-09T13:10:47Z</time>
      </trkpt>
      <trkpt lat="43.43309" lon="6.60778">
        <ele>79.2</ele>
        <time>2014-02-09T13:10:56Z</time>
      </trkpt>
      <trkpt lat="43.43317" lon="6.60785">
        <ele>80.3</ele>
        <time>2014-02-09T13:11:05Z</time>
      </trkpt>
      <trkpt lat="43.43323" lon="6.60794">
        <ele>80.9</ele>
        <time>2014-02-09T13:11:15Z</time>
      </trkpt>
      <trkpt lat="43.43323" lon="6.60795">
        <ele>81.1</ele>
        <time>2014-02-09T13:11:16Z</time>
      </trkpt>
      <trkpt lat="43.43333" lon="6.60814">
        <ele>83.7</ele>
        <time>2014-02-09T13:11:34Z</time>
      </trkpt>
      <trkpt lat="43.43338" lon="6.60824">
        <ele>85.3</ele>
        <time>2014-02-09T13:11:43Z</time>
      </trkpt>
      <trkpt lat="43.43345" lon="6.60829">
        <ele>86.1</ele>
        <time>2014-02-09T13:11:51Z</time>
      </trkpt>
      <trkpt lat="43.43354" lon="6.6083">
        <ele>87.2</ele>
        <time>2014-02-09T13:12:02Z</time>
      </trkpt>
      <trkpt lat="43.43363" lon="6.60833">
        <ele>88</ele>
        <time>2014-02-09T13:12:15Z</time>
      </trkpt>
      <trkpt lat="43.43371" lon="6.60834">
        <ele>89.9</ele>
        <time>2014-02-09T13:12:43Z</time>
      </trkpt>
      <trkpt lat="43.43372" lon="6.60834">
        <ele>89.8</ele>
        <time>2014-02-09T13:12:44Z</time>
      </trkpt>
      <trkpt lat="43.43387" lon="6.60838">
        <ele>89.8</ele>
        <time>2014-02-09T13:13:01Z</time>
      </trkpt>
      <trkpt lat="43.43396" lon="6.6084">
        <ele>90.1</ele>
        <time>2014-02-09T13:13:09Z</time>
      </trkpt>
      <trkpt lat="43.43404" lon="6.60839">
        <ele>90.9</ele>
        <time>2014-02-09T13:13:16Z</time>
      </trkpt>
      <trkpt lat="43.43413" lon="6.6084">
        <ele>92.1</ele>
        <time>2014-02-09T13:13:25Z</time>
      </trkpt>
      <trkpt lat="43.43421" lon="6.60838">
        <ele>93.4</ele>
        <time>2014-02-09T13:13:34Z</time>
      </trkpt>
      <trkpt lat="43.43429" lon="6.60835">
        <ele>93.8</ele>
        <time>2014-02-09T13:13:42Z</time>
      </trkpt>
      <trkpt lat="43.43438" lon="6.60836">
        <ele>95.2</ele>
        <time>2014-02-09T13:13:51Z</time>
      </trkpt>
      <trkpt lat="43.43439" lon="6.60836">
        <ele>95.3</ele>
        <time>2014-02-09T13:13:52Z</time>
      </trkpt>
      <trkpt lat="43.43447" lon="6.60855">
        <ele>95.7</ele>
        <time>2014-02-09T13:14:10Z</time>
      </trkpt>
      <trkpt lat="43.43451" lon="6.60865">
        <ele>95.3</ele>
        <time>2014-02-09T13:14:18Z</time>
      </trkpt>
      <trkpt lat="43.43456" lon="6.60874">
        <ele>96.8</ele>
        <time>2014-02-09T13:14:26Z</time>
      </trkpt>
      <trkpt lat="43.43462" lon="6.60882">
        <ele>97.2</ele>
        <time>2014-02-09T13:14:34Z</time>
      </trkpt>
      <trkpt lat="43.43467" lon="6.60892">
        <ele>98.1</ele>
        <time>2014-02-09T13:14:43Z</time>
      </trkpt>
      <trkpt lat="43.43475" lon="6.60895">
        <ele>99.1</ele>
        <time>2014-02-09T13:14:52Z</time>
      </trkpt>
      <trkpt lat="43.43483" lon="6.60892">
        <ele>99</ele>
        <time>2014-02-09T13:15:00Z</time>
      </trkpt>
      <trkpt lat="43.43484" lon="6.60892">
        <ele>99.1</ele>
        <time>2014-02-09T13:15:01Z</time>
      </trkpt>
      <trkpt lat="43.43498" lon="6.60884">
        <ele>100.3</ele>
        <time>2014-02-09T13:15:14Z</time>
      </trkpt>
      <trkpt lat="43.43506" lon="6.6088">
        <ele>100.5</ele>
        <time>2014-02-09T13:15:21Z</time>
      </trkpt>
      <trkpt lat="43.43514" lon="6.60879">
        <ele>101.1</ele>
        <time>2014-02-09T13:15:29Z</time>
      </trkpt>
      <trkpt lat="43.43523" lon="6.60878">
        <ele>103.8</ele>
        <time>2014-02-09T13:15:41Z</time>
      </trkpt>
      <trkpt lat="43.43531" lon="6.60877">
        <ele>104</ele>
        <time>2014-02-09T13:15:48Z</time>
      </trkpt>
      <trkpt lat="43.4354" lon="6.60876">
        <ele>104.5</ele>
        <time>2014-02-09T13:15:56Z</time>
      </trkpt>
      <trkpt lat="43.43548" lon="6.60879">
        <ele>105.2</ele>
        <time>2014-02-09T13:16:05Z</time>
      </trkpt>
      <trkpt lat="43.43549" lon="6.60879">
        <ele>105.4</ele>
        <time>2014-02-09T13:16:06Z</time>
      </trkpt>
      <trkpt lat="43.43564" lon="6.60888">
        <ele>104.6</ele>
        <time>2014-02-09T13:16:23Z</time>
      </trkpt>
      <trkpt lat="43.43572" lon="6.60889">
        <ele>104.8</ele>
        <time>2014-02-09T13:16:35Z</time>
      </trkpt>
      <trkpt lat="43.43577" lon="6.6088">
        <ele>105.9</ele>
        <time>2014-02-09T13:16:46Z</time>
      </trkpt>
      <trkpt lat="43.43575" lon="6.60869">
        <ele>107.3</ele>
        <time>2014-02-09T13:16:57Z</time>
      </trkpt>
      <trkpt lat="43.4357" lon="6.6086">
        <ele>108.9</ele>
        <time>2014-02-09T13:17:07Z</time>
      </trkpt>
      <trkpt lat="43.43569" lon="6.60859">
        <ele>108.9</ele>
        <time>2014-02-09T13:17:08Z</time>
      </trkpt>
      <trkpt lat="43.43558" lon="6.60842">
        <ele>111.5</ele>
        <time>2014-02-09T13:17:34Z</time>
      </trkpt>
      <trkpt lat="43.43554" lon="6.60831">
        <ele>112.5</ele>
        <time>2014-02-09T13:17:47Z</time>
      </trkpt>
      <trkpt lat="43.43549" lon="6.60822">
        <ele>113.9</ele>
        <time>2014-02-09T13:17:58Z</time>
      </trkpt>
      <trkpt lat="43.43542" lon="6.60814">
        <ele>115.3</ele>
        <time>2014-02-09T13:18:08Z</time>
      </trkpt>
      <trkpt lat="43.43535" lon="6.60808">
        <ele>116.3</ele>
        <time>2014-02-09T13:18:17Z</time>
      </trkpt>
      <trkpt lat="43.43534" lon="6.60807">
        <ele>116.4</ele>
        <time>2014-02-09T13:18:18Z</time>
      </trkpt>
      <trkpt lat="43.4352" lon="6.608">
        <ele>118.3</ele>
        <time>2014-02-09T13:18:35Z</time>
      </trkpt>
      <trkpt lat="43.43515" lon="6.60789">
        <ele>119.3</ele>
        <time>2014-02-09T13:18:48Z</time>
      </trkpt>
      <trkpt lat="43.43517" lon="6.60778">
        <ele>120.8</ele>
        <time>2014-02-09T13:19:00Z</time>
      </trkpt>
      <trkpt lat="43.43521" lon="6.60767">
        <ele>122.5</ele>
        <time>2014-02-09T13:19:24Z</time>
      </trkpt>
      <trkpt lat="43.43522" lon="6.60766">
        <ele>122.4</ele>
        <time>2014-02-09T13:19:25Z</time>
      </trkpt>
      <trkpt lat="43.43529" lon="6.60747">
        <ele>125.1</ele>
        <time>2014-02-09T13:19:46Z</time>
      </trkpt>
      <trkpt lat="43.4353" lon="6.60736">
        <ele>125.4</ele>
        <time>2014-02-09T13:19:55Z</time>
      </trkpt>
      <trkpt lat="43.43528" lon="6.60724">
        <ele>126.6</ele>
        <time>2014-02-09T13:20:04Z</time>
      </trkpt>
      <trkpt lat="43.43528" lon="6.60712">
        <ele>129.3</ele>
        <time>2014-02-09T13:20:16Z</time>
      </trkpt>
      <trkpt lat="43.43529" lon="6.607">
        <ele>130</ele>
        <time>2014-02-09T13:20:25Z</time>
      </trkpt>
      <trkpt lat="43.43529" lon="6.60699">
        <ele>130</ele>
        <time>2014-02-09T13:20:26Z</time>
      </trkpt>
      <trkpt lat="43.43535" lon="6.60678">
        <ele>131.9</ele>
        <time>2014-02-09T13:20:43Z</time>
      </trkpt>
      <trkpt lat="43.43536" lon="6.60667">
        <ele>132.4</ele>
        <time>2014-02-09T13:20:51Z</time>
      </trkpt>
      <trkpt lat="43.43536" lon="6.60656">
        <ele>133.1</ele>
        <time>2014-02-09T13:20:59Z</time>
      </trkpt>
      <trkpt lat="43.43538" lon="6.60645">
        <ele>134.1</ele>
        <time>2014-02-09T13:21:08Z</time>
      </trkpt>
      <trkpt lat="43.43538" lon="6.60633">
        <ele>135</ele>
        <time>2014-02-09T13:21:18Z</time>
      </trkpt>
      <trkpt lat="43.43537" lon="6.60621">
        <ele>136.2</ele>
        <time>2014-02-09T13:21:31Z</time>
      </trkpt>
      <trkpt lat="43.43537" lon="6.6062">
        <ele>136.5</ele>
        <time>2014-02-09T13:21:32Z</time>
      </trkpt>
      <trkpt lat="43.43539" lon="6.60597">
        <ele>138</ele>
        <time>2014-02-09T13:21:50Z</time>
      </trkpt>
      <trkpt lat="43.4354" lon="6.60586">
        <ele>139.2</ele>
        <time>2014-02-09T13:21:57Z</time>
      </trkpt>
      <trkpt lat="43.43542" lon="6.60575">
        <ele>139.5</ele>
        <time>2014-02-09T13:22:05Z</time>
      </trkpt>
      <trkpt lat="43.43543" lon="6.60564">
        <ele>140.1</ele>
        <time>2014-02-09T13:22:13Z</time>
      </trkpt>
      <trkpt lat="43.43541" lon="6.60552">
        <ele>141.4</ele>
        <time>2014-02-09T13:22:22Z</time>
      </trkpt>
      <trkpt lat="43.4354" lon="6.60541">
        <ele>142.7</ele>
        <time>2014-02-09T13:22:30Z</time>
      </trkpt>
      <trkpt lat="43.43539" lon="6.6053">
        <ele>143.8</ele>
        <time>2014-02-09T13:22:38Z</time>
      </trkpt>
      <trkpt lat="43.43539" lon="6.60528">
        <ele>143.7</ele>
        <time>2014-02-09T13:22:39Z</time>
      </trkpt>
      <trkpt lat="43.43538" lon="6.60506">
        <ele>145</ele>
        <time>2014-02-09T13:23:00Z</time>
      </trkpt>
      <trkpt lat="43.43532" lon="6.60497">
        <ele>145.7</ele>
        <time>2014-02-09T13:23:11Z</time>
      </trkpt>
      <trkpt lat="43.43529" lon="6.60487">
        <ele>146.6</ele>
        <time>2014-02-09T13:23:20Z</time>
      </trkpt>
      <trkpt lat="43.43523" lon="6.60477">
        <ele>148.1</ele>
        <time>2014-02-09T13:23:29Z</time>
      </trkpt>
      <trkpt lat="43.43523" lon="6.60465">
        <ele>149.4</ele>
        <time>2014-02-09T13:23:40Z</time>
      </trkpt>
      <trkpt lat="43.43523" lon="6.60464">
        <ele>149.4</ele>
        <time>2014-02-09T13:23:41Z</time>
      </trkpt>
      <trkpt lat="43.43537" lon="6.60452">
        <ele>153.8</ele>
        <time>2014-02-09T13:24:48Z</time>
      </trkpt>
      <trkpt lat="43.43538" lon="6.60451">
        <ele>153.8</ele>
        <time>2014-02-09T13:24:49Z</time>
      </trkpt>
      <trkpt lat="43.43551" lon="6.60441">
        <ele>154.8</ele>
        <time>2014-02-09T13:25:00Z</time>
      </trkpt>
      <trkpt lat="43.43557" lon="6.60434">
        <ele>155.7</ele>
        <time>2014-02-09T13:25:08Z</time>
      </trkpt>
      <trkpt lat="43.43559" lon="6.60422">
        <ele>157.5</ele>
        <time>2014-02-09T13:25:22Z</time>
      </trkpt>
      <trkpt lat="43.43555" lon="6.6041">
        <ele>159</ele>
        <time>2014-02-09T13:25:33Z</time>
      </trkpt>
      <trkpt lat="43.43548" lon="6.60403">
        <ele>160.9</ele>
        <time>2014-02-09T13:25:44Z</time>
      </trkpt>
      <trkpt lat="43.43545" lon="6.60392">
        <ele>161.6</ele>
        <time>2014-02-09T13:25:56Z</time>
      </trkpt>
      <trkpt lat="43.43545" lon="6.60392">
        <ele>161.8</ele>
        <time>2014-02-09T13:25:57Z</time>
      </trkpt>
      <trkpt lat="43.43555" lon="6.60374">
        <ele>165.5</ele>
        <time>2014-02-09T13:26:30Z</time>
      </trkpt>
      <trkpt lat="43.43561" lon="6.60366">
        <ele>167.2</ele>
        <time>2014-02-09T13:26:43Z</time>
      </trkpt>
      <trkpt lat="43.43566" lon="6.60357">
        <ele>168.5</ele>
        <time>2014-02-09T13:26:56Z</time>
      </trkpt>
      <trkpt lat="43.43571" lon="6.60347">
        <ele>170.8</ele>
        <time>2014-02-09T13:27:10Z</time>
      </trkpt>
      <trkpt lat="43.43571" lon="6.60346">
        <ele>171</ele>
        <time>2014-02-09T13:27:11Z</time>
      </trkpt>
      <trkpt lat="43.43577" lon="6.60324">
        <ele>172.2</ele>
        <time>2014-02-09T13:27:31Z</time>
      </trkpt>
      <trkpt lat="43.43579" lon="6.60313">
        <ele>172.3</ele>
        <time>2014-02-09T13:27:44Z</time>
      </trkpt>
      <trkpt lat="43.43577" lon="6.60301">
        <ele>173.4</ele>
        <time>2014-02-09T13:27:56Z</time>
      </trkpt>
      <trkpt lat="43.43574" lon="6.6029">
        <ele>175.7</ele>
        <time>2014-02-09T13:28:09Z</time>
      </trkpt>
      <trkpt lat="43.43567" lon="6.60283">
        <ele>177.3</ele>
        <time>2014-02-09T13:28:19Z</time>
      </trkpt>
      <trkpt lat="43.43567" lon="6.60282">
        <ele>177.7</ele>
        <time>2014-02-09T13:28:20Z</time>
      </trkpt>
      <trkpt lat="43.43554" lon="6.60268">
        <ele>179.6</ele>
        <time>2014-02-09T13:28:45Z</time>
      </trkpt>
      <trkpt lat="43.43551" lon="6.60256">
        <ele>182.7</ele>
        <time>2014-02-09T13:29:00Z</time>
      </trkpt>
      <trkpt lat="43.43546" lon="6.60247">
        <ele>184.2</ele>
        <time>2014-02-09T13:29:15Z</time>
      </trkpt>
      <trkpt lat="43.43541" lon="6.60237">
        <ele>185.9</ele>
        <time>2014-02-09T13:29:26Z</time>
      </trkpt>
      <trkpt lat="43.4354" lon="6.60237">
        <ele>186.3</ele>
        <time>2014-02-09T13:29:27Z</time>
      </trkpt>
      <trkpt lat="43.43534" lon="6.60216">
        <ele>189.3</ele>
        <time>2014-02-09T13:29:54Z</time>
      </trkpt>
      <trkpt lat="43.43536" lon="6.60205">
        <ele>191.4</ele>
        <time>2014-02-09T13:30:09Z</time>
      </trkpt>
      <trkpt lat="43.43534" lon="6.60193">
        <ele>191.8</ele>
        <time>2014-02-09T13:30:26Z</time>
      </trkpt>
      <trkpt lat="43.43533" lon="6.60182">
        <ele>193.4</ele>
        <time>2014-02-09T13:30:37Z</time>
      </trkpt>
      <trkpt lat="43.43532" lon="6.60181">
        <ele>193.4</ele>
        <time>2014-02-09T13:30:38Z</time>
      </trkpt>
      <trkpt lat="43.43535" lon="6.60158">
        <ele>197.2</ele>
        <time>2014-02-09T13:31:00Z</time>
      </trkpt>
      <trkpt lat="43.43534" lon="6.60147">
        <ele>198.9</ele>
        <time>2014-02-09T13:31:16Z</time>
      </trkpt>
      <trkpt lat="43.43529" lon="6.60136">
        <ele>200.2</ele>
        <time>2014-02-09T13:31:27Z</time>
      </trkpt>
      <trkpt lat="43.43523" lon="6.60129">
        <ele>202</ele>
        <time>2014-02-09T13:31:38Z</time>
      </trkpt>
      <trkpt lat="43.43522" lon="6.60129">
        <ele>202.1</ele>
        <time>2014-02-09T13:31:39Z</time>
      </trkpt>
      <trkpt lat="43.43515" lon="6.6011">
        <ele>204.6</ele>
        <time>2014-02-09T13:31:58Z</time>
      </trkpt>
      <trkpt lat="43.43517" lon="6.60098">
        <ele>204.7</ele>
        <time>2014-02-09T13:32:07Z</time>
      </trkpt>
      <trkpt lat="43.43512" lon="6.60088">
        <ele>204.6</ele>
        <time>2014-02-09T13:32:25Z</time>
      </trkpt>
      <trkpt lat="43.43509" lon="6.60077">
        <ele>207.2</ele>
        <time>2014-02-09T13:35:36Z</time>
      </trkpt>
      <trkpt lat="43.43508" lon="6.60077">
        <ele>207.2</ele>
        <time>2014-02-09T13:35:37Z</time>
      </trkpt>
      <trkpt lat="43.43511" lon="6.60089">
        <ele>207.8</ele>
        <time>2014-02-09T13:41:09Z</time>
      </trkpt>
      <trkpt lat="43.43521" lon="6.60069">
        <ele>206.8</ele>
        <time>2014-02-09T13:41:33Z</time>
      </trkpt>
      <trkpt lat="43.43528" lon="6.60065">
        <ele>206.6</ele>
        <time>2014-02-09T13:41:42Z</time>
      </trkpt>
      <trkpt lat="43.43535" lon="6.60059">
        <ele>206.9</ele>
        <time>2014-02-09T13:41:49Z</time>
      </trkpt>
      <trkpt lat="43.43543" lon="6.60053">
        <ele>206.8</ele>
        <time>2014-02-09T13:41:57Z</time>
      </trkpt>
      <trkpt lat="43.43546" lon="6.60042">
        <ele>206.3</ele>
        <time>2014-02-09T13:42:04Z</time>
      </trkpt>
      <trkpt lat="43.43549" lon="6.60032">
        <ele>205.5</ele>
        <time>2014-02-09T13:42:12Z</time>
      </trkpt>
      <trkpt lat="43.43549" lon="6.6003">
        <ele>205.4</ele>
        <time>2014-02-09T13:42:13Z</time>
      </trkpt>
      <trkpt lat="43.43556" lon="6.6001">
        <ele>203.7</ele>
        <time>2014-02-09T13:42:32Z</time>
      </trkpt>
      <trkpt lat="43.4356" lon="6.6">
        <ele>202.5</ele>
        <time>2014-02-09T13:42:39Z</time>
      </trkpt>
      <trkpt lat="43.4356" lon="6.59988">
        <ele>201.6</ele>
        <time>2014-02-09T13:42:45Z</time>
      </trkpt>
      <trkpt lat="43.4356" lon="6.59975">
        <ele>202</ele>
        <time>2014-02-09T13:42:53Z</time>
      </trkpt>
      <trkpt lat="43.43561" lon="6.59965">
        <ele>202.1</ele>
        <time>2014-02-09T13:42:58Z</time>
      </trkpt>
      <trkpt lat="43.43564" lon="6.59954">
        <ele>201.5</ele>
        <time>2014-02-09T13:43:05Z</time>
      </trkpt>
      <trkpt lat="43.43566" lon="6.59942">
        <ele>200.5</ele>
        <time>2014-02-09T13:43:12Z</time>
      </trkpt>
      <trkpt lat="43.43568" lon="6.59932">
        <ele>200.7</ele>
        <time>2014-02-09T13:43:20Z</time>
      </trkpt>
      <trkpt lat="43.43568" lon="6.5993">
        <ele>200.6</ele>
        <time>2014-02-09T13:43:21Z</time>
      </trkpt>
      <trkpt lat="43.43571" lon="6.59911">
        <ele>200.3</ele>
        <time>2014-02-09T13:43:31Z</time>
      </trkpt>
      <trkpt lat="43.43571" lon="6.59899">
        <ele>200</ele>
        <time>2014-02-09T13:43:41Z</time>
      </trkpt>
      <trkpt lat="43.43572" lon="6.59888">
        <ele>199.5</ele>
        <time>2014-02-09T13:43:52Z</time>
      </trkpt>
      <trkpt lat="43.43573" lon="6.59877">
        <ele>200.1</ele>
        <time>2014-02-09T13:43:59Z</time>
      </trkpt>
      <trkpt lat="43.43576" lon="6.59865">
        <ele>200.5</ele>
        <time>2014-02-09T13:44:06Z</time>
      </trkpt>
      <trkpt lat="43.43576" lon="6.59853">
        <ele>200</ele>
        <time>2014-02-09T13:44:16Z</time>
      </trkpt>
      <trkpt lat="43.43578" lon="6.59842">
        <ele>200.3</ele>
        <time>2014-02-09T13:44:24Z</time>
      </trkpt>
      <trkpt lat="43.43578" lon="6.5984">
        <ele>200.3</ele>
        <time>2014-02-09T13:44:25Z</time>
      </trkpt>
      <trkpt lat="43.43584" lon="6.59822">
        <ele>200.1</ele>
        <time>2014-02-09T13:44:35Z</time>
      </trkpt>
      <trkpt lat="43.43584" lon="6.59811">
        <ele>200.5</ele>
        <time>2014-02-09T13:44:43Z</time>
      </trkpt>
      <trkpt lat="43.43584" lon="6.59799">
        <ele>200.5</ele>
        <time>2014-02-09T13:44:53Z</time>
      </trkpt>
      <trkpt lat="43.43586" lon="6.59787">
        <ele>201.8</ele>
        <time>2014-02-09T13:45:05Z</time>
      </trkpt>
      <trkpt lat="43.43592" lon="6.59777">
        <ele>202.3</ele>
        <time>2014-02-09T13:45:14Z</time>
      </trkpt>
      <trkpt lat="43.43591" lon="6.59765">
        <ele>201.9</ele>
        <time>2014-02-09T13:45:24Z</time>
      </trkpt>
      <trkpt lat="43.43588" lon="6.59754">
        <ele>202.6</ele>
        <time>2014-02-09T13:45:32Z</time>
      </trkpt>
      <trkpt lat="43.43588" lon="6.59753">
        <ele>202.8</ele>
        <time>2014-02-09T13:45:33Z</time>
      </trkpt>
      <trkpt lat="43.43588" lon="6.5973">
        <ele>204.7</ele>
        <time>2014-02-09T13:45:49Z</time>
      </trkpt>
      <trkpt lat="43.43588" lon="6.59718">
        <ele>205.5</ele>
        <time>2014-02-09T13:45:59Z</time>
      </trkpt>
      <trkpt lat="43.43585" lon="6.59707">
        <ele>206</ele>
        <time>2014-02-09T13:46:09Z</time>
      </trkpt>
      <trkpt lat="43.43588" lon="6.59695">
        <ele>206</ele>
        <time>2014-02-09T13:46:17Z</time>
      </trkpt>
      <trkpt lat="43.43588" lon="6.59684">
        <ele>206.1</ele>
        <time>2014-02-09T13:46:24Z</time>
      </trkpt>
      <trkpt lat="43.43587" lon="6.59673">
        <ele>205.7</ele>
        <time>2014-02-09T13:46:32Z</time>
      </trkpt>
      <trkpt lat="43.43587" lon="6.59661">
        <ele>205.2</ele>
        <time>2014-02-09T13:46:42Z</time>
      </trkpt>
      <trkpt lat="43.43587" lon="6.59659">
        <ele>205.2</ele>
        <time>2014-02-09T13:46:43Z</time>
      </trkpt>
      <trkpt lat="43.43589" lon="6.59636">
        <ele>204.9</ele>
        <time>2014-02-09T13:46:58Z</time>
      </trkpt>
      <trkpt lat="43.43587" lon="6.59625">
        <ele>204.1</ele>
        <time>2014-02-09T13:47:06Z</time>
      </trkpt>
      <trkpt lat="43.4359" lon="6.59614">
        <ele>203.7</ele>
        <time>2014-02-09T13:47:13Z</time>
      </trkpt>
      <trkpt lat="43.43592" lon="6.59602">
        <ele>204.1</ele>
        <time>2014-02-09T13:47:22Z</time>
      </trkpt>
      <trkpt lat="43.43593" lon="6.5959">
        <ele>204.2</ele>
        <time>2014-02-09T13:47:30Z</time>
      </trkpt>
      <trkpt lat="43.43592" lon="6.59579">
        <ele>203.7</ele>
        <time>2014-02-09T13:47:37Z</time>
      </trkpt>
      <trkpt lat="43.43593" lon="6.59568">
        <ele>203.6</ele>
        <time>2014-02-09T13:47:44Z</time>
      </trkpt>
      <trkpt lat="43.43594" lon="6.59566">
        <ele>203.6</ele>
        <time>2014-02-09T13:47:45Z</time>
      </trkpt>
      <trkpt lat="43.43597" lon="6.59546">
        <ele>203.8</ele>
        <time>2014-02-09T13:47:58Z</time>
      </trkpt>
      <trkpt lat="43.43597" lon="6.59534">
        <ele>203.8</ele>
        <time>2014-02-09T13:48:10Z</time>
      </trkpt>
      <trkpt lat="43.43597" lon="6.59523">
        <ele>204.1</ele>
        <time>2014-02-09T13:48:17Z</time>
      </trkpt>
      <trkpt lat="43.43598" lon="6.59512">
        <ele>203.6</ele>
        <time>2014-02-09T13:48:26Z</time>
      </trkpt>
      <trkpt lat="43.43601" lon="6.59501">
        <ele>203.5</ele>
        <time>2014-02-09T13:48:36Z</time>
      </trkpt>
      <trkpt lat="43.43604" lon="6.5949">
        <ele>203.9</ele>
        <time>2014-02-09T13:48:42Z</time>
      </trkpt>
      <trkpt lat="43.43609" lon="6.59482">
        <ele>204.4</ele>
        <time>2014-02-09T13:48:50Z</time>
      </trkpt>
      <trkpt lat="43.4361" lon="6.59481">
        <ele>204.4</ele>
        <time>2014-02-09T13:48:51Z</time>
      </trkpt>
      <trkpt lat="43.43619" lon="6.59462">
        <ele>204.9</ele>
        <time>2014-02-09T13:49:05Z</time>
      </trkpt>
      <trkpt lat="43.43622" lon="6.59452">
        <ele>205.4</ele>
        <time>2014-02-09T13:49:12Z</time>
      </trkpt>
      <trkpt lat="43.43626" lon="6.59441">
        <ele>204.7</ele>
        <time>2014-02-09T13:49:19Z</time>
      </trkpt>
      <trkpt lat="43.43629" lon="6.59431">
        <ele>204.5</ele>
        <time>2014-02-09T13:49:25Z</time>
      </trkpt>
      <trkpt lat="43.43631" lon="6.5942">
        <ele>204.8</ele>
        <time>2014-02-09T13:49:31Z</time>
      </trkpt>
      <trkpt lat="43.43633" lon="6.59409">
        <ele>205.4</ele>
        <time>2014-02-09T13:49:42Z</time>
      </trkpt>
      <trkpt lat="43.43636" lon="6.59398">
        <ele>206.1</ele>
        <time>2014-02-09T13:49:51Z</time>
      </trkpt>
      <trkpt lat="43.43636" lon="6.59396">
        <ele>206.4</ele>
        <time>2014-02-09T13:49:52Z</time>
      </trkpt>
      <trkpt lat="43.43641" lon="6.59375">
        <ele>207.2</ele>
        <time>2014-02-09T13:50:08Z</time>
      </trkpt>
      <trkpt lat="43.43643" lon="6.59363">
        <ele>209.1</ele>
        <time>2014-02-09T13:50:21Z</time>
      </trkpt>
      <trkpt lat="43.43647" lon="6.59353">
        <ele>209.3</ele>
        <time>2014-02-09T13:50:29Z</time>
      </trkpt>
      <trkpt lat="43.43649" lon="6.59341">
        <ele>210.5</ele>
        <time>2014-02-09T13:50:38Z</time>
      </trkpt>
      <trkpt lat="43.43651" lon="6.5933">
        <ele>210.9</ele>
        <time>2014-02-09T13:50:47Z</time>
      </trkpt>
      <trkpt lat="43.43652" lon="6.59318">
        <ele>211.9</ele>
        <time>2014-02-09T13:50:56Z</time>
      </trkpt>
      <trkpt lat="43.43651" lon="6.59317">
        <ele>212</ele>
        <time>2014-02-09T13:50:57Z</time>
      </trkpt>
      <trkpt lat="43.43655" lon="6.59294">
        <ele>212.4</ele>
        <time>2014-02-09T13:51:15Z</time>
      </trkpt>
      <trkpt lat="43.43655" lon="6.59283">
        <ele>212.7</ele>
        <time>2014-02-09T13:51:21Z</time>
      </trkpt>
      <trkpt lat="43.43653" lon="6.59271">
        <ele>213.5</ele>
        <time>2014-02-09T13:51:30Z</time>
      </trkpt>
      <trkpt lat="43.43653" lon="6.59259">
        <ele>213.8</ele>
        <time>2014-02-09T13:51:38Z</time>
      </trkpt>
      <trkpt lat="43.43652" lon="6.59247">
        <ele>215.1</ele>
        <time>2014-02-09T13:51:46Z</time>
      </trkpt>
      <trkpt lat="43.43653" lon="6.59235">
        <ele>216.1</ele>
        <time>2014-02-09T13:52:01Z</time>
      </trkpt>
      <trkpt lat="43.43652" lon="6.59234">
        <ele>216.4</ele>
        <time>2014-02-09T13:52:02Z</time>
      </trkpt>
      <trkpt lat="43.43656" lon="6.59212">
        <ele>218.5</ele>
        <time>2014-02-09T13:52:23Z</time>
      </trkpt>
      <trkpt lat="43.4366" lon="6.59202">
        <ele>219.2</ele>
        <time>2014-02-09T13:52:30Z</time>
      </trkpt>
      <trkpt lat="43.4366" lon="6.59191">
        <ele>220.5</ele>
        <time>2014-02-09T13:52:42Z</time>
      </trkpt>
      <trkpt lat="43.43659" lon="6.59178">
        <ele>221.6</ele>
        <time>2014-02-09T13:52:51Z</time>
      </trkpt>
      <trkpt lat="43.43664" lon="6.59168">
        <ele>221.7</ele>
        <time>2014-02-09T13:53:00Z</time>
      </trkpt>
      <trkpt lat="43.43668" lon="6.59157">
        <ele>222.5</ele>
        <time>2014-02-09T13:53:10Z</time>
      </trkpt>
      <trkpt lat="43.43668" lon="6.59155">
        <ele>222.6</ele>
        <time>2014-02-09T13:53:11Z</time>
      </trkpt>
      <trkpt lat="43.43668" lon="6.59134">
        <ele>223.6</ele>
        <time>2014-02-09T13:53:28Z</time>
      </trkpt>
      <trkpt lat="43.43669" lon="6.59123">
        <ele>223.6</ele>
        <time>2014-02-09T13:53:34Z</time>
      </trkpt>
      <trkpt lat="43.43672" lon="6.59113">
        <ele>224.1</ele>
        <time>2014-02-09T13:53:42Z</time>
      </trkpt>
      <trkpt lat="43.43673" lon="6.59102">
        <ele>224.9</ele>
        <time>2014-02-09T13:53:49Z</time>
      </trkpt>
      <trkpt lat="43.43675" lon="6.59091">
        <ele>225.5</ele>
        <time>2014-02-09T13:53:56Z</time>
      </trkpt>
      <trkpt lat="43.43677" lon="6.59079">
        <ele>225.7</ele>
        <time>2014-02-09T13:54:05Z</time>
      </trkpt>
      <trkpt lat="43.43675" lon="6.59068">
        <ele>226.2</ele>
        <time>2014-02-09T13:54:18Z</time>
      </trkpt>
      <trkpt lat="43.43675" lon="6.59066">
        <ele>226.1</ele>
        <time>2014-02-09T13:54:19Z</time>
      </trkpt>
      <trkpt lat="43.43678" lon="6.59045">
        <ele>227.2</ele>
        <time>2014-02-09T13:54:41Z</time>
      </trkpt>
      <trkpt lat="43.43678" lon="6.59032">
        <ele>227.2</ele>
        <time>2014-02-09T13:54:50Z</time>
      </trkpt>
      <trkpt lat="43.4368" lon="6.59022">
        <ele>227.3</ele>
        <time>2014-02-09T13:54:57Z</time>
      </trkpt>
      <trkpt lat="43.43681" lon="6.5901">
        <ele>227</ele>
        <time>2014-02-09T13:55:07Z</time>
      </trkpt>
      <trkpt lat="43.4369" lon="6.59006">
        <ele>226.2</ele>
        <time>2014-02-09T13:55:24Z</time>
      </trkpt>
      <trkpt lat="43.43691" lon="6.59005">
        <ele>226.2</ele>
        <time>2014-02-09T13:55:25Z</time>
      </trkpt>
      <trkpt lat="43.43702" lon="6.58989">
        <ele>226.2</ele>
        <time>2014-02-09T13:55:49Z</time>
      </trkpt>
      <trkpt lat="43.43707" lon="6.58982">
        <ele>225.7</ele>
        <time>2014-02-09T13:55:56Z</time>
      </trkpt>
      <trkpt lat="43.43712" lon="6.58973">
        <ele>226.1</ele>
        <time>2014-02-09T13:56:01Z</time>
      </trkpt>
      <trkpt lat="43.43716" lon="6.58962">
        <ele>226.3</ele>
        <time>2014-02-09T13:56:09Z</time>
      </trkpt>
      <trkpt lat="43.43716" lon="6.5895">
        <ele>225.9</ele>
        <time>2014-02-09T13:56:16Z</time>
      </trkpt>
      <trkpt lat="43.43715" lon="6.58938">
        <ele>226.5</ele>
        <time>2014-02-09T13:56:24Z</time>
      </trkpt>
      <trkpt lat="43.43719" lon="6.58927">
        <ele>226.5</ele>
        <time>2014-02-09T13:56:32Z</time>
      </trkpt>
      <trkpt lat="43.4372" lon="6.58926">
        <ele>226.4</ele>
        <time>2014-02-09T13:56:33Z</time>
      </trkpt>
      <trkpt lat="43.43723" lon="6.58905">
        <ele>226.2</ele>
        <time>2014-02-09T13:56:47Z</time>
      </trkpt>
      <trkpt lat="43.4372" lon="6.58893">
        <ele>226.9</ele>
        <time>2014-02-09T13:56:56Z</time>
      </trkpt>
      <trkpt lat="43.43721" lon="6.58882">
        <ele>227.4</ele>
        <time>2014-02-09T13:57:05Z</time>
      </trkpt>
      <trkpt lat="43.43726" lon="6.58873">
        <ele>227</ele>
        <time>2014-02-09T13:57:10Z</time>
      </trkpt>
      <trkpt lat="43.4373" lon="6.58862">
        <ele>227.5</ele>
        <time>2014-02-09T13:57:18Z</time>
      </trkpt>
      <trkpt lat="43.43735" lon="6.58853">
        <ele>227.7</ele>
        <time>2014-02-09T13:57:27Z</time>
      </trkpt>
      <trkpt lat="43.43742" lon="6.58846">
        <ele>227.6</ele>
        <time>2014-02-09T13:57:42Z</time>
      </trkpt>
      <trkpt lat="43.43743" lon="6.58845">
        <ele>227.6</ele>
        <time>2014-02-09T13:57:43Z</time>
      </trkpt>
      <trkpt lat="43.43755" lon="6.58832">
        <ele>227.1</ele>
        <time>2014-02-09T13:58:04Z</time>
      </trkpt>
      <trkpt lat="43.43762" lon="6.58827">
        <ele>227</ele>
        <time>2014-02-09T13:58:11Z</time>
      </trkpt>
      <trkpt lat="43.43767" lon="6.58819">
        <ele>226.7</ele>
        <time>2014-02-09T13:58:19Z</time>
      </trkpt>
      <trkpt lat="43.43773" lon="6.58809">
        <ele>226.9</ele>
        <time>2014-02-09T13:58:27Z</time>
      </trkpt>
      <trkpt lat="43.43778" lon="6.58799">
        <ele>226.7</ele>
        <time>2014-02-09T13:58:39Z</time>
      </trkpt>
      <trkpt lat="43.43786" lon="6.58797">
        <ele>227.9</ele>
        <time>2014-02-09T13:58:47Z</time>
      </trkpt>
      <trkpt lat="43.43787" lon="6.58796">
        <ele>228.1</ele>
        <time>2014-02-09T13:58:48Z</time>
      </trkpt>
      <trkpt lat="43.438" lon="6.58788">
        <ele>226.5</ele>
        <time>2014-02-09T13:58:56Z</time>
      </trkpt>
      <trkpt lat="43.43808" lon="6.58783">
        <ele>228</ele>
        <time>2014-02-09T13:59:01Z</time>
      </trkpt>
      <trkpt lat="43.43817" lon="6.58781">
        <ele>226.5</ele>
        <time>2014-02-09T13:59:13Z</time>
      </trkpt>
      <trkpt lat="43.43825" lon="6.58784">
        <ele>226.4</ele>
        <time>2014-02-09T13:59:20Z</time>
      </trkpt>
      <trkpt lat="43.43833" lon="6.58779">
        <ele>226.2</ele>
        <time>2014-02-09T13:59:30Z</time>
      </trkpt>
      <trkpt lat="43.43841" lon="6.58775">
        <ele>226.6</ele>
        <time>2014-02-09T13:59:39Z</time>
      </trkpt>
      <trkpt lat="43.43848" lon="6.5877">
        <ele>226.9</ele>
        <time>2014-02-09T13:59:50Z</time>
      </trkpt>
      <trkpt lat="43.4385" lon="6.58768">
        <ele>227</ele>
        <time>2014-02-09T13:59:51Z</time>
      </trkpt>
      <trkpt lat="43.4386" lon="6.58755">
        <ele>228.9</ele>
        <time>2014-02-09T14:00:05Z</time>
      </trkpt>
      <trkpt lat="43.43866" lon="6.5875">
        <ele>228.7</ele>
        <time>2014-02-09T14:00:10Z</time>
      </trkpt>
      <trkpt lat="43.43864" lon="6.58761">
        <ele>226.8</ele>
        <time>2014-02-09T14:00:50Z</time>
      </trkpt>
      <trkpt lat="43.4387" lon="6.58769">
        <ele>227.2</ele>
        <time>2014-02-09T14:01:00Z</time>
      </trkpt>
      <trkpt lat="43.43871" lon="6.5877">
        <ele>227.1</ele>
        <time>2014-02-09T14:01:01Z</time>
      </trkpt>
      <trkpt lat="43.43886" lon="6.58773">
        <ele>224.5</ele>
        <time>2014-02-09T14:01:41Z</time>
      </trkpt>
      <trkpt lat="43.43894" lon="6.58774">
        <ele>224</ele>
        <time>2014-02-09T14:01:47Z</time>
      </trkpt>
      <trkpt lat="43.43903" lon="6.58776">
        <ele>224</ele>
        <time>2014-02-09T14:01:54Z</time>
      </trkpt>
      <trkpt lat="43.43911" lon="6.58776">
        <ele>223</ele>
        <time>2014-02-09T14:02:04Z</time>
      </trkpt>
      <trkpt lat="43.43913" lon="6.58776">
        <ele>222.8</ele>
        <time>2014-02-09T14:02:05Z</time>
      </trkpt>
      <trkpt lat="43.43927" lon="6.58782">
        <ele>221.8</ele>
        <time>2014-02-09T14:02:20Z</time>
      </trkpt>
      <trkpt lat="43.43936" lon="6.58783">
        <ele>220.9</ele>
        <time>2014-02-09T14:02:29Z</time>
      </trkpt>
      <trkpt lat="43.43944" lon="6.58783">
        <ele>220.1</ele>
        <time>2014-02-09T14:02:34Z</time>
      </trkpt>
      <trkpt lat="43.43952" lon="6.58781">
        <ele>219.4</ele>
        <time>2014-02-09T14:02:43Z</time>
      </trkpt>
      <trkpt lat="43.43959" lon="6.58775">
        <ele>218.8</ele>
        <time>2014-02-09T14:02:52Z</time>
      </trkpt>
      <trkpt lat="43.43967" lon="6.58777">
        <ele>218.4</ele>
        <time>2014-02-09T14:03:03Z</time>
      </trkpt>
      <trkpt lat="43.43975" lon="6.58777">
        <ele>218.4</ele>
        <time>2014-02-09T14:03:08Z</time>
      </trkpt>
      <trkpt lat="43.43976" lon="6.58777">
        <ele>218.4</ele>
        <time>2014-02-09T14:03:09Z</time>
      </trkpt>
      <trkpt lat="43.4399" lon="6.58786">
        <ele>218.4</ele>
        <time>2014-02-09T14:03:22Z</time>
      </trkpt>
      <trkpt lat="43.43998" lon="6.58784">
        <ele>219</ele>
        <time>2014-02-09T14:03:28Z</time>
      </trkpt>
      <trkpt lat="43.44006" lon="6.58783">
        <ele>218.4</ele>
        <time>2014-02-09T14:03:34Z</time>
      </trkpt>
      <trkpt lat="43.44013" lon="6.5878">
        <ele>218.8</ele>
        <time>2014-02-09T14:03:41Z</time>
      </trkpt>
      <trkpt lat="43.44022" lon="6.58776">
        <ele>218.9</ele>
        <time>2014-02-09T14:03:49Z</time>
      </trkpt>
      <trkpt lat="43.4403" lon="6.58776">
        <ele>218.8</ele>
        <time>2014-02-09T14:04:01Z</time>
      </trkpt>
      <trkpt lat="43.44039" lon="6.58777">
        <ele>218.3</ele>
        <time>2014-02-09T14:04:14Z</time>
      </trkpt>
      <trkpt lat="43.44039" lon="6.58776">
        <ele>218.4</ele>
        <time>2014-02-09T14:04:15Z</time>
      </trkpt>
      <trkpt lat="43.44045" lon="6.58768">
        <ele>218.8</ele>
        <time>2014-02-09T14:06:47Z</time>
      </trkpt>
      <trkpt lat="43.4406" lon="6.58766">
        <ele>218.9</ele>
        <time>2014-02-09T14:07:03Z</time>
      </trkpt>
      <trkpt lat="43.44068" lon="6.58772">
        <ele>219</ele>
        <time>2014-02-09T14:07:24Z</time>
      </trkpt>
      <trkpt lat="43.44076" lon="6.5877">
        <ele>218.8</ele>
        <time>2014-02-09T14:07:47Z</time>
      </trkpt>
      <trkpt lat="43.44084" lon="6.58776">
        <ele>217.9</ele>
        <time>2014-02-09T14:07:56Z</time>
      </trkpt>
      <trkpt lat="43.44085" lon="6.58777">
        <ele>217.8</ele>
        <time>2014-02-09T14:07:57Z</time>
      </trkpt>
      <trkpt lat="43.441" lon="6.58777">
        <ele>216.8</ele>
        <time>2014-02-09T14:08:11Z</time>
      </trkpt>
      <trkpt lat="43.44108" lon="6.58774">
        <ele>217.1</ele>
        <time>2014-02-09T14:08:17Z</time>
      </trkpt>
      <trkpt lat="43.44117" lon="6.58776">
        <ele>216.5</ele>
        <time>2014-02-09T14:08:27Z</time>
      </trkpt>
      <trkpt lat="43.44125" lon="6.58776">
        <ele>216.8</ele>
        <time>2014-02-09T14:08:44Z</time>
      </trkpt>
      <trkpt lat="43.44133" lon="6.58778">
        <ele>217.1</ele>
        <time>2014-02-09T14:08:53Z</time>
      </trkpt>
      <trkpt lat="43.44134" lon="6.58789">
        <ele>217</ele>
        <time>2014-02-09T14:09:09Z</time>
      </trkpt>
      <trkpt lat="43.44134" lon="6.58791">
        <ele>217.1</ele>
        <time>2014-02-09T14:09:10Z</time>
      </trkpt>
      <trkpt lat="43.44137" lon="6.58813">
        <ele>216.7</ele>
        <time>2014-02-09T14:09:33Z</time>
      </trkpt>
      <trkpt lat="43.44143" lon="6.58822">
        <ele>215.4</ele>
        <time>2014-02-09T14:09:44Z</time>
      </trkpt>
      <trkpt lat="43.44148" lon="6.5883">
        <ele>215.1</ele>
        <time>2014-02-09T14:10:00Z</time>
      </trkpt>
      <trkpt lat="43.44156" lon="6.58827">
        <ele>213.9</ele>
        <time>2014-02-09T14:10:44Z</time>
      </trkpt>
      <trkpt lat="43.44157" lon="6.58826">
        <ele>213.9</ele>
        <time>2014-02-09T14:10:45Z</time>
      </trkpt>
      <trkpt lat="43.44171" lon="6.58814">
        <ele>214.2</ele>
        <time>2014-02-09T14:11:00Z</time>
      </trkpt>
      <trkpt lat="43.44178" lon="6.58807">
        <ele>214.6</ele>
        <time>2014-02-09T14:11:09Z</time>
      </trkpt>
      <trkpt lat="43.44183" lon="6.58799">
        <ele>214.6</ele>
        <time>2014-02-09T14:11:15Z</time>
      </trkpt>
      <trkpt lat="43.44187" lon="6.58788">
        <ele>215.4</ele>
        <time>2014-02-09T14:11:26Z</time>
      </trkpt>
      <trkpt lat="43.44189" lon="6.58777">
        <ele>214.7</ele>
        <time>2014-02-09T14:11:38Z</time>
      </trkpt>
      <trkpt lat="43.44189" lon="6.58765">
        <ele>214.2</ele>
        <time>2014-02-09T14:11:53Z</time>
      </trkpt>
      <trkpt lat="43.44189" lon="6.58764">
        <ele>214.3</ele>
        <time>2014-02-09T14:11:54Z</time>
      </trkpt>
      <trkpt lat="43.44202" lon="6.58749">
        <ele>213.3</ele>
        <time>2014-02-09T14:12:10Z</time>
      </trkpt>
      <trkpt lat="43.44206" lon="6.58739">
        <ele>213.9</ele>
        <time>2014-02-09T14:12:20Z</time>
      </trkpt>
      <trkpt lat="43.44213" lon="6.58733">
        <ele>214.2</ele>
        <time>2014-02-09T14:12:25Z</time>
      </trkpt>
      <trkpt lat="43.44216" lon="6.58722">
        <ele>213.7</ele>
        <time>2014-02-09T14:12:33Z</time>
      </trkpt>
      <trkpt lat="43.44221" lon="6.58713">
        <ele>214.2</ele>
        <time>2014-02-09T14:12:41Z</time>
      </trkpt>
      <trkpt lat="43.44225" lon="6.58703">
        <ele>214.2</ele>
        <time>2014-02-09T14:12:49Z</time>
      </trkpt>
      <trkpt lat="43.44231" lon="6.58698">
        <ele>214.2</ele>
        <time>2014-02-09T14:12:53Z</time>
      </trkpt>
      <trkpt lat="43.44238" lon="6.58693">
        <ele>214.1</ele>
        <time>2014-02-09T14:12:58Z</time>
      </trkpt>
      <trkpt lat="43.44239" lon="6.58693">
        <ele>214.1</ele>
        <time>2014-02-09T14:12:59Z</time>
      </trkpt>
      <trkpt lat="43.4425" lon="6.58678">
        <ele>214.7</ele>
        <time>2014-02-09T14:13:19Z</time>
      </trkpt>
      <trkpt lat="43.44253" lon="6.58668">
        <ele>214.8</ele>
        <time>2014-02-09T14:13:26Z</time>
      </trkpt>
      <trkpt lat="43.44259" lon="6.58659">
        <ele>214.7</ele>
        <time>2014-02-09T14:13:32Z</time>
      </trkpt>
      <trkpt lat="43.44264" lon="6.58649">
        <ele>215</ele>
        <time>2014-02-09T14:13:41Z</time>
      </trkpt>
      <trkpt lat="43.44269" lon="6.58639">
        <ele>215.6</ele>
        <time>2014-02-09T14:13:51Z</time>
      </trkpt>
      <trkpt lat="43.44274" lon="6.58632">
        <ele>215.8</ele>
        <time>2014-02-09T14:14:00Z</time>
      </trkpt>
      <trkpt lat="43.44275" lon="6.5863">
        <ele>215.9</ele>
        <time>2014-02-09T14:14:01Z</time>
      </trkpt>
      <trkpt lat="43.44285" lon="6.58615">
        <ele>216.6</ele>
        <time>2014-02-09T14:14:19Z</time>
      </trkpt>
      <trkpt lat="43.44289" lon="6.58604">
        <ele>216.7</ele>
        <time>2014-02-09T14:14:32Z</time>
      </trkpt>
      <trkpt lat="43.44295" lon="6.58596">
        <ele>216.7</ele>
        <time>2014-02-09T14:14:42Z</time>
      </trkpt>
      <trkpt lat="43.44301" lon="6.58587">
        <ele>215.8</ele>
        <time>2014-02-09T14:15:03Z</time>
      </trkpt>
      <trkpt lat="43.44302" lon="6.58586">
        <ele>216</ele>
        <time>2014-02-09T14:15:04Z</time>
      </trkpt>
      <trkpt lat="43.44318" lon="6.58582">
        <ele>216.2</ele>
        <time>2014-02-09T14:15:23Z</time>
      </trkpt>
      <trkpt lat="43.44327" lon="6.58581">
        <ele>215.8</ele>
        <time>2014-02-09T14:15:37Z</time>
      </trkpt>
      <trkpt lat="43.44332" lon="6.58591">
        <ele>216.7</ele>
        <time>2014-02-09T14:15:53Z</time>
      </trkpt>
      <trkpt lat="43.44341" lon="6.58589">
        <ele>216.2</ele>
        <time>2014-02-09T14:16:08Z</time>
      </trkpt>
      <trkpt lat="43.44341" lon="6.5859">
        <ele>216.3</ele>
        <time>2014-02-09T14:16:09Z</time>
      </trkpt>
      <trkpt lat="43.44357" lon="6.58594">
        <ele>216.2</ele>
        <time>2014-02-09T14:16:22Z</time>
      </trkpt>
      <trkpt lat="43.44365" lon="6.58595">
        <ele>216.4</ele>
        <time>2014-02-09T14:16:29Z</time>
      </trkpt>
      <trkpt lat="43.44373" lon="6.58596">
        <ele>216.8</ele>
        <time>2014-02-09T14:16:35Z</time>
      </trkpt>
      <trkpt lat="43.44381" lon="6.58597">
        <ele>216.5</ele>
        <time>2014-02-09T14:16:43Z</time>
      </trkpt>
      <trkpt lat="43.44389" lon="6.58601">
        <ele>216.7</ele>
        <time>2014-02-09T14:16:55Z</time>
      </trkpt>
      <trkpt lat="43.44397" lon="6.58604">
        <ele>216.5</ele>
        <time>2014-02-09T14:17:02Z</time>
      </trkpt>
      <trkpt lat="43.44406" lon="6.58606">
        <ele>216.3</ele>
        <time>2014-02-09T14:17:10Z</time>
      </trkpt>
      <trkpt lat="43.44407" lon="6.58606">
        <ele>216.6</ele>
        <time>2014-02-09T14:17:11Z</time>
      </trkpt>
      <trkpt lat="43.44422" lon="6.5861">
        <ele>216.4</ele>
        <time>2014-02-09T14:17:24Z</time>
      </trkpt>
      <trkpt lat="43.4443" lon="6.58612">
        <ele>215.8</ele>
        <time>2014-02-09T14:17:33Z</time>
      </trkpt>
      <trkpt lat="43.44438" lon="6.58614">
        <ele>215.6</ele>
        <time>2014-02-09T14:17:40Z</time>
      </trkpt>
      <trkpt lat="43.44446" lon="6.58619">
        <ele>215.1</ele>
        <time>2014-02-09T14:17:46Z</time>
      </trkpt>
      <trkpt lat="43.44454" lon="6.58625">
        <ele>216.3</ele>
        <time>2014-02-09T14:18:06Z</time>
      </trkpt>
      <trkpt lat="43.44461" lon="6.58632">
        <ele>215.9</ele>
        <time>2014-02-09T14:18:14Z</time>
      </trkpt>
      <trkpt lat="43.44461" lon="6.58633">
        <ele>215.9</ele>
        <time>2014-02-09T14:18:15Z</time>
      </trkpt>
      <trkpt lat="43.44474" lon="6.58645">
        <ele>216.2</ele>
        <time>2014-02-09T14:18:28Z</time>
      </trkpt>
      <trkpt lat="43.44481" lon="6.58649">
        <ele>216</ele>
        <time>2014-02-09T14:18:35Z</time>
      </trkpt>
      <trkpt lat="43.44489" lon="6.58655">
        <ele>215.8</ele>
        <time>2014-02-09T14:18:41Z</time>
      </trkpt>
      <trkpt lat="43.44498" lon="6.58656">
        <ele>215.6</ele>
        <time>2014-02-09T14:18:52Z</time>
      </trkpt>
      <trkpt lat="43.44507" lon="6.58659">
        <ele>215.3</ele>
        <time>2014-02-09T14:19:02Z</time>
      </trkpt>
      <trkpt lat="43.4451" lon="6.58648">
        <ele>214.7</ele>
        <time>2014-02-09T14:19:14Z</time>
      </trkpt>
      <trkpt lat="43.44512" lon="6.58637">
        <ele>213.1</ele>
        <time>2014-02-09T14:19:24Z</time>
      </trkpt>
      <trkpt lat="43.44511" lon="6.58635">
        <ele>213</ele>
        <time>2014-02-09T14:19:25Z</time>
      </trkpt>
      <trkpt lat="43.44516" lon="6.58613">
        <ele>211.5</ele>
        <time>2014-02-09T14:19:40Z</time>
      </trkpt>
      <trkpt lat="43.44522" lon="6.58605">
        <ele>211.3</ele>
        <time>2014-02-09T14:19:46Z</time>
      </trkpt>
      <trkpt lat="43.44527" lon="6.58596">
        <ele>210.9</ele>
        <time>2014-02-09T14:19:57Z</time>
      </trkpt>
      <trkpt lat="43.44534" lon="6.5859">
        <ele>210.5</ele>
        <time>2014-02-09T14:20:07Z</time>
      </trkpt>
      <trkpt lat="43.44538" lon="6.5858">
        <ele>210.5</ele>
        <time>2014-02-09T14:20:14Z</time>
      </trkpt>
      <trkpt lat="43.4454" lon="6.58569">
        <ele>209.4</ele>
        <time>2014-02-09T14:20:25Z</time>
      </trkpt>
      <trkpt lat="43.44541" lon="6.58569">
        <ele>209.5</ele>
        <time>2014-02-09T14:20:26Z</time>
      </trkpt>
      <trkpt lat="43.44546" lon="6.58548">
        <ele>207.3</ele>
        <time>2014-02-09T14:20:39Z</time>
      </trkpt>
      <trkpt lat="43.4455" lon="6.58539">
        <ele>205.2</ele>
        <time>2014-02-09T14:20:48Z</time>
      </trkpt>
      <trkpt lat="43.44553" lon="6.58527">
        <ele>204.7</ele>
        <time>2014-02-09T14:20:58Z</time>
      </trkpt>
      <trkpt lat="43.44555" lon="6.58515">
        <ele>202.6</ele>
        <time>2014-02-09T14:21:17Z</time>
      </trkpt>
      <trkpt lat="43.44554" lon="6.58504">
        <ele>201.1</ele>
        <time>2014-02-09T14:21:27Z</time>
      </trkpt>
      <trkpt lat="43.44553" lon="6.58502">
        <ele>201</ele>
        <time>2014-02-09T14:21:28Z</time>
      </trkpt>
      <trkpt lat="43.4455" lon="6.58482">
        <ele>199.1</ele>
        <time>2014-02-09T14:21:44Z</time>
      </trkpt>
      <trkpt lat="43.44553" lon="6.58471">
        <ele>198.3</ele>
        <time>2014-02-09T14:21:50Z</time>
      </trkpt>
      <trkpt lat="43.44549" lon="6.58461">
        <ele>198.1</ele>
        <time>2014-02-09T14:21:57Z</time>
      </trkpt>
      <trkpt lat="43.44542" lon="6.58453">
        <ele>196.5</ele>
        <time>2014-02-09T14:22:05Z</time>
      </trkpt>
      <trkpt lat="43.44543" lon="6.58441">
        <ele>195</ele>
        <time>2014-02-09T14:22:14Z</time>
      </trkpt>
      <trkpt lat="43.44546" lon="6.5843">
        <ele>192.6</ele>
        <time>2014-02-09T14:22:25Z</time>
      </trkpt>
      <trkpt lat="43.44549" lon="6.58418">
        <ele>191.6</ele>
        <time>2014-02-09T14:22:31Z</time>
      </trkpt>
      <trkpt lat="43.44549" lon="6.58417">
        <ele>191.5</ele>
        <time>2014-02-09T14:22:32Z</time>
      </trkpt>
      <trkpt lat="43.44543" lon="6.58398">
        <ele>190.7</ele>
        <time>2014-02-09T14:22:41Z</time>
      </trkpt>
      <trkpt lat="43.44548" lon="6.58389">
        <ele>189.7</ele>
        <time>2014-02-09T14:22:49Z</time>
      </trkpt>
      <trkpt lat="43.4455" lon="6.58379">
        <ele>188.5</ele>
        <time>2014-02-09T14:22:59Z</time>
      </trkpt>
      <trkpt lat="43.44552" lon="6.58368">
        <ele>187</ele>
        <time>2014-02-09T14:23:09Z</time>
      </trkpt>
      <trkpt lat="43.44551" lon="6.58356">
        <ele>185.1</ele>
        <time>2014-02-09T14:23:17Z</time>
      </trkpt>
      <trkpt lat="43.44551" lon="6.58344">
        <ele>183.7</ele>
        <time>2014-02-09T14:23:28Z</time>
      </trkpt>
      <trkpt lat="43.44558" lon="6.58337">
        <ele>179.9</ele>
        <time>2014-02-09T14:23:52Z</time>
      </trkpt>
      <trkpt lat="43.44559" lon="6.58338">
        <ele>179.9</ele>
        <time>2014-02-09T14:23:53Z</time>
      </trkpt>
      <trkpt lat="43.44573" lon="6.58349">
        <ele>179.8</ele>
        <time>2014-02-09T14:24:17Z</time>
      </trkpt>
      <trkpt lat="43.44582" lon="6.58349">
        <ele>179.1</ele>
        <time>2014-02-09T14:24:26Z</time>
      </trkpt>
      <trkpt lat="43.4459" lon="6.58344">
        <ele>177.4</ele>
        <time>2014-02-09T14:24:36Z</time>
      </trkpt>
      <trkpt lat="43.44595" lon="6.58335">
        <ele>176.2</ele>
        <time>2014-02-09T14:24:46Z</time>
      </trkpt>
      <trkpt lat="43.44597" lon="6.58324">
        <ele>175.3</ele>
        <time>2014-02-09T14:24:54Z</time>
      </trkpt>
      <trkpt lat="43.44597" lon="6.58322">
        <ele>174.9</ele>
        <time>2014-02-09T14:24:55Z</time>
      </trkpt>
      <trkpt lat="43.44597" lon="6.583">
        <ele>174</ele>
        <time>2014-02-09T14:25:09Z</time>
      </trkpt>
      <trkpt lat="43.44597" lon="6.58289">
        <ele>172.6</ele>
        <time>2014-02-09T14:25:19Z</time>
      </trkpt>
      <trkpt lat="43.44596" lon="6.58277">
        <ele>171.5</ele>
        <time>2014-02-09T14:25:28Z</time>
      </trkpt>
      <trkpt lat="43.44602" lon="6.58268">
        <ele>171.2</ele>
        <time>2014-02-09T14:26:10Z</time>
      </trkpt>
      <trkpt lat="43.44602" lon="6.58268">
        <ele>171.2</ele>
        <time>2014-02-09T14:26:11Z</time>
      </trkpt>
      <trkpt lat="43.44611" lon="6.5825">
        <ele>167.7</ele>
        <time>2014-02-09T14:27:01Z</time>
      </trkpt>
      <trkpt lat="43.44615" lon="6.5824">
        <ele>165.4</ele>
        <time>2014-02-09T14:27:25Z</time>
      </trkpt>
      <trkpt lat="43.44616" lon="6.58239">
        <ele>165.3</ele>
        <time>2014-02-09T14:27:26Z</time>
      </trkpt>
      <trkpt lat="43.44621" lon="6.58219">
        <ele>161.3</ele>
        <time>2014-02-09T14:28:16Z</time>
      </trkpt>
      <trkpt lat="43.44625" lon="6.58209">
        <ele>158.8</ele>
        <time>2014-02-09T14:28:27Z</time>
      </trkpt>
      <trkpt lat="43.44625" lon="6.58207">
        <ele>158.6</ele>
        <time>2014-02-09T14:28:28Z</time>
      </trkpt>
      <trkpt lat="43.44627" lon="6.58188">
        <ele>156.7</ele>
        <time>2014-02-09T14:28:39Z</time>
      </trkpt>
      <trkpt lat="43.44627" lon="6.58176">
        <ele>155.7</ele>
        <time>2014-02-09T14:28:45Z</time>
      </trkpt>
      <trkpt lat="43.44628" lon="6.58165">
        <ele>155</ele>
        <time>2014-02-09T14:28:54Z</time>
      </trkpt>
      <trkpt lat="43.4463" lon="6.58154">
        <ele>154</ele>
        <time>2014-02-09T14:29:01Z</time>
      </trkpt>
      <trkpt lat="43.44628" lon="6.58143">
        <ele>153.4</ele>
        <time>2014-02-09T14:29:06Z</time>
      </trkpt>
      <trkpt lat="43.44631" lon="6.58132">
        <ele>152.2</ele>
        <time>2014-02-09T14:29:10Z</time>
      </trkpt>
      <trkpt lat="43.44626" lon="6.58123">
        <ele>151.3</ele>
        <time>2014-02-09T14:29:16Z</time>
      </trkpt>
      <trkpt lat="43.44622" lon="6.58112">
        <ele>150.1</ele>
        <time>2014-02-09T14:29:28Z</time>
      </trkpt>
      <trkpt lat="43.44622" lon="6.58111">
        <ele>150.2</ele>
        <time>2014-02-09T14:29:29Z</time>
      </trkpt>
      <trkpt lat="43.44617" lon="6.5809">
        <ele>148.7</ele>
        <time>2014-02-09T14:29:43Z</time>
      </trkpt>
      <trkpt lat="43.44615" lon="6.5808">
        <ele>147.5</ele>
        <time>2014-02-09T14:29:51Z</time>
      </trkpt>
      <trkpt lat="43.44614" lon="6.58068">
        <ele>147.1</ele>
        <time>2014-02-09T14:29:58Z</time>
      </trkpt>
      <trkpt lat="43.44616" lon="6.58056">
        <ele>146.5</ele>
        <time>2014-02-09T14:30:04Z</time>
      </trkpt>
      <trkpt lat="43.44616" lon="6.58044">
        <ele>145.1</ele>
        <time>2014-02-09T14:30:26Z</time>
      </trkpt>
      <trkpt lat="43.44617" lon="6.58033">
        <ele>145.9</ele>
        <time>2014-02-09T14:30:37Z</time>
      </trkpt>
      <trkpt lat="43.44616" lon="6.58031">
        <ele>145.7</ele>
        <time>2014-02-09T14:30:38Z</time>
      </trkpt>
      <trkpt lat="43.44614" lon="6.58011">
        <ele>143.5</ele>
        <time>2014-02-09T14:30:53Z</time>
      </trkpt>
      <trkpt lat="43.44613" lon="6.57999">
        <ele>142.3</ele>
        <time>2014-02-09T14:31:02Z</time>
      </trkpt>
      <trkpt lat="43.44619" lon="6.57993">
        <ele>142</ele>
        <time>2014-02-09T14:31:08Z</time>
      </trkpt>
      <trkpt lat="43.44626" lon="6.57986">
        <ele>141.1</ele>
        <time>2014-02-09T14:31:19Z</time>
      </trkpt>
      <trkpt lat="43.44631" lon="6.57977">
        <ele>140.3</ele>
        <time>2014-02-09T14:31:26Z</time>
      </trkpt>
      <trkpt lat="43.44635" lon="6.5797">
        <ele>138.5</ele>
        <time>2014-02-09T14:31:38Z</time>
      </trkpt>
      <trkpt lat="43.44637" lon="6.57968">
        <ele>138.4</ele>
        <time>2014-02-09T14:31:39Z</time>
      </trkpt>
      <trkpt lat="43.44644" lon="6.57951">
        <ele>136.5</ele>
        <time>2014-02-09T14:31:50Z</time>
      </trkpt>
      <trkpt lat="43.44642" lon="6.57939">
        <ele>135.2</ele>
        <time>2014-02-09T14:31:57Z</time>
      </trkpt>
      <trkpt lat="43.44636" lon="6.5793">
        <ele>135.2</ele>
        <time>2014-02-09T14:32:06Z</time>
      </trkpt>
      <trkpt lat="43.44633" lon="6.5792">
        <ele>133.5</ele>
        <time>2014-02-09T14:32:19Z</time>
      </trkpt>
      <trkpt lat="43.44638" lon="6.5791">
        <ele>131.5</ele>
        <time>2014-02-09T14:32:37Z</time>
      </trkpt>
      <trkpt lat="43.44639" lon="6.57898">
        <ele>130.9</ele>
        <time>2014-02-09T14:32:54Z</time>
      </trkpt>
      <trkpt lat="43.44639" lon="6.57897">
        <ele>130.9</ele>
        <time>2014-02-09T14:32:55Z</time>
      </trkpt>
      <trkpt lat="43.44631" lon="6.57877">
        <ele>130.2</ele>
        <time>2014-02-09T14:33:59Z</time>
      </trkpt>
      <trkpt lat="43.4463" lon="6.57877">
        <ele>130.3</ele>
        <time>2014-02-09T14:34:00Z</time>
      </trkpt>
      <trkpt lat="43.44643" lon="6.57861">
        <ele>129.6</ele>
        <time>2014-02-09T14:34:28Z</time>
      </trkpt>
      <trkpt lat="43.44647" lon="6.5785">
        <ele>129.3</ele>
        <time>2014-02-09T14:34:35Z</time>
      </trkpt>
      <trkpt lat="43.44652" lon="6.57841">
        <ele>128.4</ele>
        <time>2014-02-09T14:34:44Z</time>
      </trkpt>
      <trkpt lat="43.44657" lon="6.57832">
        <ele>129</ele>
        <time>2014-02-09T14:34:52Z</time>
      </trkpt>
      <trkpt lat="43.44663" lon="6.57826">
        <ele>129.3</ele>
        <time>2014-02-09T14:34:59Z</time>
      </trkpt>
      <trkpt lat="43.44671" lon="6.5782">
        <ele>129.9</ele>
        <time>2014-02-09T14:35:07Z</time>
      </trkpt>
      <trkpt lat="43.44672" lon="6.5782">
        <ele>130.1</ele>
        <time>2014-02-09T14:35:08Z</time>
      </trkpt>
      <trkpt lat="43.4468" lon="6.57801">
        <ele>127.9</ele>
        <time>2014-02-09T14:35:25Z</time>
      </trkpt>
      <trkpt lat="43.44684" lon="6.57791">
        <ele>127.2</ele>
        <time>2014-02-09T14:35:32Z</time>
      </trkpt>
      <trkpt lat="43.44688" lon="6.57781">
        <ele>126</ele>
        <time>2014-02-09T14:35:41Z</time>
      </trkpt>
      <trkpt lat="43.44691" lon="6.5777">
        <ele>125</ele>
        <time>2014-02-09T14:35:52Z</time>
      </trkpt>
      <trkpt lat="43.44691" lon="6.57759">
        <ele>124.2</ele>
        <time>2014-02-09T14:36:00Z</time>
      </trkpt>
      <trkpt lat="43.44688" lon="6.57748">
        <ele>124.9</ele>
        <time>2014-02-09T14:36:09Z</time>
      </trkpt>
      <trkpt lat="43.44687" lon="6.57746">
        <ele>124.5</ele>
        <time>2014-02-09T14:36:10Z</time>
      </trkpt>
      <trkpt lat="43.44689" lon="6.57726">
        <ele>122.1</ele>
        <time>2014-02-09T14:36:24Z</time>
      </trkpt>
      <trkpt lat="43.44691" lon="6.57715">
        <ele>121.6</ele>
        <time>2014-02-09T14:36:33Z</time>
      </trkpt>
      <trkpt lat="43.44691" lon="6.57703">
        <ele>120.6</ele>
        <time>2014-02-09T14:36:41Z</time>
      </trkpt>
      <trkpt lat="43.44691" lon="6.57691">
        <ele>120.1</ele>
        <time>2014-02-09T14:36:49Z</time>
      </trkpt>
      <trkpt lat="43.44689" lon="6.57681">
        <ele>119.4</ele>
        <time>2014-02-09T14:36:57Z</time>
      </trkpt>
      <trkpt lat="43.4469" lon="6.57669">
        <ele>118.2</ele>
        <time>2014-02-09T14:37:04Z</time>
      </trkpt>
      <trkpt lat="43.44692" lon="6.57657">
        <ele>118.1</ele>
        <time>2014-02-09T14:37:12Z</time>
      </trkpt>
      <trkpt lat="43.44692" lon="6.57656">
        <ele>118.1</ele>
        <time>2014-02-09T14:37:13Z</time>
      </trkpt>
      <trkpt lat="43.44699" lon="6.57635">
        <ele>118.3</ele>
        <time>2014-02-09T14:37:29Z</time>
      </trkpt>
      <trkpt lat="43.44701" lon="6.57625">
        <ele>117.8</ele>
        <time>2014-02-09T14:37:37Z</time>
      </trkpt>
      <trkpt lat="43.44704" lon="6.57614">
        <ele>117.5</ele>
        <time>2014-02-09T14:37:45Z</time>
      </trkpt>
      <trkpt lat="43.44707" lon="6.57603">
        <ele>117.8</ele>
        <time>2014-02-09T14:37:53Z</time>
      </trkpt>
      <trkpt lat="43.44706" lon="6.57591">
        <ele>117.3</ele>
        <time>2014-02-09T14:38:01Z</time>
      </trkpt>
      <trkpt lat="43.44709" lon="6.5758">
        <ele>115.6</ele>
        <time>2014-02-09T14:38:09Z</time>
      </trkpt>
      <trkpt lat="43.44706" lon="6.57569">
        <ele>115.2</ele>
        <time>2014-02-09T14:38:16Z</time>
      </trkpt>
      <trkpt lat="43.44707" lon="6.57567">
        <ele>115.3</ele>
        <time>2014-02-09T14:38:17Z</time>
      </trkpt>
      <trkpt lat="43.44703" lon="6.57545">
        <ele>112.4</ele>
        <time>2014-02-09T14:38:34Z</time>
      </trkpt>
      <trkpt lat="43.44698" lon="6.57536">
        <ele>111</ele>
        <time>2014-02-09T14:38:42Z</time>
      </trkpt>
      <trkpt lat="43.44696" lon="6.57526">
        <ele>109.4</ele>
        <time>2014-02-09T14:38:49Z</time>
      </trkpt>
      <trkpt lat="43.44695" lon="6.57515">
        <ele>108.5</ele>
        <time>2014-02-09T14:38:55Z</time>
      </trkpt>
      <trkpt lat="43.44696" lon="6.57505">
        <ele>107</ele>
        <time>2014-02-09T14:39:03Z</time>
      </trkpt>
      <trkpt lat="43.44701" lon="6.57495">
        <ele>106.6</ele>
        <time>2014-02-09T14:39:10Z</time>
      </trkpt>
      <trkpt lat="43.44707" lon="6.57487">
        <ele>105.7</ele>
        <time>2014-02-09T14:39:17Z</time>
      </trkpt>
      <trkpt lat="43.44712" lon="6.57477">
        <ele>105.3</ele>
        <time>2014-02-09T14:39:28Z</time>
      </trkpt>
      <trkpt lat="43.44712" lon="6.57476">
        <ele>105.6</ele>
        <time>2014-02-09T14:39:29Z</time>
      </trkpt>
      <trkpt lat="43.44705" lon="6.57457">
        <ele>104.8</ele>
        <time>2014-02-09T14:40:19Z</time>
      </trkpt>
    </trkseg>
  </trk>
</gpx>